<?xml version="1.0" encoding="UTF-8" standalone="no" ?>
<gpx xmlns="http://www.topografix.com/GPX/1/1" xmlns:xsi="http://www.w3.org/2001/XMLSchema-instance" xsi:schemaLocation="http://www.topografix.com/GPX/1/1 http://www.topografix.com/GPX/1/1/gpx.xsd" version="1.1" creator="VisuGPX - https://www.visugpx.com">
  <metadata>
    <name>L'Aqueduc de Vieille église (76)</name>
    <desc><![CDATA[Randonnée de 18 km en boucle à partir de la gare Le Perray-en-Yvelines]]></desc>
  </metadata>
  <trk>
    <name><![CDATA[L'Aqueduc de la Vieille église_R]]></name>
    <trkseg>
      <trkpt lat="48.69354" lon="1.8563">
        <ele>164.9</ele>
        <time>2019-03-03T08:24:18Z</time>
      </trkpt>
      <trkpt lat="48.69354" lon="1.8563">
        <ele>164.9</ele>
        <time>2019-03-03T08:24:19Z</time>
      </trkpt>
      <trkpt lat="48.69355" lon="1.8563">
        <ele>164.92</ele>
        <time>2019-03-03T08:24:43Z</time>
      </trkpt>
      <trkpt lat="48.69353" lon="1.85631">
        <ele>164.89</ele>
        <time>2019-03-03T08:25:06Z</time>
      </trkpt>
      <trkpt lat="48.69353" lon="1.85634">
        <ele>165.6</ele>
        <time>2019-03-03T08:25:24Z</time>
      </trkpt>
      <trkpt lat="48.6936" lon="1.85634">
        <ele>165.44</ele>
        <time>2019-03-03T08:25:35Z</time>
      </trkpt>
      <trkpt lat="48.69362" lon="1.85635">
        <ele>165.32</ele>
        <time>2019-03-03T08:25:37Z</time>
      </trkpt>
      <trkpt lat="48.6937" lon="1.85637">
        <ele>164.91</ele>
        <time>2019-03-03T08:25:51Z</time>
      </trkpt>
      <trkpt lat="48.69376" lon="1.85642">
        <ele>164.65</ele>
        <time>2019-03-03T08:26:05Z</time>
      </trkpt>
      <trkpt lat="48.69371" lon="1.85637">
        <ele>165.48</ele>
        <time>2019-03-03T08:26:21Z</time>
      </trkpt>
      <trkpt lat="48.6937" lon="1.85636">
        <ele>165.37</ele>
        <time>2019-03-03T08:26:34Z</time>
      </trkpt>
      <trkpt lat="48.69366" lon="1.85635">
        <ele>165.72</ele>
        <time>2019-03-03T08:26:50Z</time>
      </trkpt>
      <trkpt lat="48.69366" lon="1.85633">
        <ele>165.8</ele>
        <time>2019-03-03T08:27:15Z</time>
      </trkpt>
      <trkpt lat="48.69363" lon="1.85628">
        <ele>165.36</ele>
        <time>2019-03-03T08:27:34Z</time>
      </trkpt>
      <trkpt lat="48.69358" lon="1.85632">
        <ele>165.32</ele>
        <time>2019-03-03T08:27:49Z</time>
      </trkpt>
      <trkpt lat="48.69357" lon="1.85632">
        <ele>166.11</ele>
        <time>2019-03-03T08:28:09Z</time>
      </trkpt>
      <trkpt lat="48.69357" lon="1.8563">
        <ele>165.23</ele>
        <time>2019-03-03T08:28:34Z</time>
      </trkpt>
      <trkpt lat="48.69356" lon="1.85628">
        <ele>164.97</ele>
        <time>2019-03-03T08:28:56Z</time>
      </trkpt>
      <trkpt lat="48.69356" lon="1.85627">
        <ele>165.53</ele>
        <time>2019-03-03T08:29:18Z</time>
      </trkpt>
      <trkpt lat="48.69356" lon="1.85628">
        <ele>165.19</ele>
        <time>2019-03-03T08:29:40Z</time>
      </trkpt>
      <trkpt lat="48.69356" lon="1.85628">
        <ele>165.55</ele>
        <time>2019-03-03T08:30:00Z</time>
      </trkpt>
      <trkpt lat="48.69355" lon="1.85629">
        <ele>166.43</ele>
        <time>2019-03-03T08:30:19Z</time>
      </trkpt>
      <trkpt lat="48.69354" lon="1.85629">
        <ele>166.25</ele>
        <time>2019-03-03T08:30:42Z</time>
      </trkpt>
      <trkpt lat="48.69355" lon="1.85629">
        <ele>166.17</ele>
        <time>2019-03-03T08:31:05Z</time>
      </trkpt>
      <trkpt lat="48.69356" lon="1.8563">
        <ele>166.08</ele>
        <time>2019-03-03T08:31:29Z</time>
      </trkpt>
      <trkpt lat="48.69356" lon="1.8563">
        <ele>165.96</ele>
        <time>2019-03-03T08:31:54Z</time>
      </trkpt>
      <trkpt lat="48.69358" lon="1.8563">
        <ele>165.38</ele>
        <time>2019-03-03T08:32:20Z</time>
      </trkpt>
      <trkpt lat="48.69357" lon="1.85629">
        <ele>166.06</ele>
        <time>2019-03-03T08:32:47Z</time>
      </trkpt>
      <trkpt lat="48.69358" lon="1.85631">
        <ele>166.29</ele>
        <time>2019-03-03T08:33:18Z</time>
      </trkpt>
      <trkpt lat="48.69357" lon="1.8563">
        <ele>165.89</ele>
        <time>2019-03-03T08:33:44Z</time>
      </trkpt>
      <trkpt lat="48.69357" lon="1.8563">
        <ele>166.04</ele>
        <time>2019-03-03T08:34:12Z</time>
      </trkpt>
      <trkpt lat="48.69357" lon="1.85631">
        <ele>165.78</ele>
        <time>2019-03-03T08:34:41Z</time>
      </trkpt>
      <trkpt lat="48.6936" lon="1.8563">
        <ele>166.2</ele>
        <time>2019-03-03T08:34:45Z</time>
      </trkpt>
      <trkpt lat="48.69375" lon="1.8564">
        <ele>165.94</ele>
        <time>2019-03-03T08:35:00Z</time>
      </trkpt>
      <trkpt lat="48.69377" lon="1.85642">
        <ele>165.82</ele>
        <time>2019-03-03T08:35:03Z</time>
      </trkpt>
      <trkpt lat="48.69377" lon="1.85646">
        <ele>164.53</ele>
        <time>2019-03-03T08:35:08Z</time>
      </trkpt>
      <trkpt lat="48.69376" lon="1.85646">
        <ele>165.12</ele>
        <time>2019-03-03T08:35:10Z</time>
      </trkpt>
      <trkpt lat="48.6937" lon="1.85645">
        <ele>164.29</ele>
        <time>2019-03-03T08:35:16Z</time>
      </trkpt>
      <trkpt lat="48.6936" lon="1.85641">
        <ele>163.55</ele>
        <time>2019-03-03T08:35:27Z</time>
      </trkpt>
      <trkpt lat="48.69341" lon="1.85665">
        <ele>161.99</ele>
        <time>2019-03-03T08:36:12Z</time>
      </trkpt>
      <trkpt lat="48.69343" lon="1.85664">
        <ele>162.7</ele>
        <time>2019-03-03T08:36:15Z</time>
      </trkpt>
      <trkpt lat="48.69343" lon="1.85665">
        <ele>162.11</ele>
        <time>2019-03-03T08:36:22Z</time>
      </trkpt>
      <trkpt lat="48.69347" lon="1.85664">
        <ele>162.59</ele>
        <time>2019-03-03T08:36:26Z</time>
      </trkpt>
      <trkpt lat="48.69359" lon="1.85686">
        <ele>164.06</ele>
        <time>2019-03-03T08:36:39Z</time>
      </trkpt>
      <trkpt lat="48.69377" lon="1.85693">
        <ele>166</ele>
        <time>2019-03-03T08:36:54Z</time>
      </trkpt>
      <trkpt lat="48.69377" lon="1.85695">
        <ele>165.88</ele>
        <time>2019-03-03T08:37:05Z</time>
      </trkpt>
      <trkpt lat="48.69378" lon="1.85694">
        <ele>165.39</ele>
        <time>2019-03-03T08:37:16Z</time>
      </trkpt>
      <trkpt lat="48.69395" lon="1.85701">
        <ele>165.86</ele>
        <time>2019-03-03T08:37:33Z</time>
      </trkpt>
      <trkpt lat="48.69412" lon="1.85706">
        <ele>165.87</ele>
        <time>2019-03-03T08:37:47Z</time>
      </trkpt>
      <trkpt lat="48.69416" lon="1.8571">
        <ele>166.26</ele>
        <time>2019-03-03T08:37:54Z</time>
      </trkpt>
      <trkpt lat="48.69418" lon="1.85711">
        <ele>165.78</ele>
        <time>2019-03-03T08:37:56Z</time>
      </trkpt>
      <trkpt lat="48.6944" lon="1.85717">
        <ele>166.17</ele>
        <time>2019-03-03T08:38:14Z</time>
      </trkpt>
      <trkpt lat="48.69455" lon="1.85724">
        <ele>165.95</ele>
        <time>2019-03-03T08:38:27Z</time>
      </trkpt>
      <trkpt lat="48.69459" lon="1.85726">
        <ele>166.28</ele>
        <time>2019-03-03T08:38:31Z</time>
      </trkpt>
      <trkpt lat="48.69482" lon="1.85736">
        <ele>166.3</ele>
        <time>2019-03-03T08:38:51Z</time>
      </trkpt>
      <trkpt lat="48.69502" lon="1.85741">
        <ele>166.31</ele>
        <time>2019-03-03T08:39:07Z</time>
      </trkpt>
      <trkpt lat="48.69521" lon="1.85749">
        <ele>165.98</ele>
        <time>2019-03-03T08:39:23Z</time>
      </trkpt>
      <trkpt lat="48.69533" lon="1.85762">
        <ele>166.26</ele>
        <time>2019-03-03T08:39:38Z</time>
      </trkpt>
      <trkpt lat="48.69533" lon="1.85764">
        <ele>166.25</ele>
        <time>2019-03-03T08:39:53Z</time>
      </trkpt>
      <trkpt lat="48.69534" lon="1.85773">
        <ele>166.18</ele>
        <time>2019-03-03T08:40:08Z</time>
      </trkpt>
      <trkpt lat="48.69536" lon="1.85777">
        <ele>165.56</ele>
        <time>2019-03-03T08:40:16Z</time>
      </trkpt>
      <trkpt lat="48.69537" lon="1.85782">
        <ele>165.26</ele>
        <time>2019-03-03T08:40:20Z</time>
      </trkpt>
      <trkpt lat="48.69545" lon="1.85807">
        <ele>164.69</ele>
        <time>2019-03-03T08:40:38Z</time>
      </trkpt>
      <trkpt lat="48.69547" lon="1.8582">
        <ele>164.68</ele>
        <time>2019-03-03T08:40:47Z</time>
      </trkpt>
      <trkpt lat="48.69549" lon="1.85829">
        <ele>164.18</ele>
        <time>2019-03-03T08:40:53Z</time>
      </trkpt>
      <trkpt lat="48.69553" lon="1.85847">
        <ele>164.18</ele>
        <time>2019-03-03T08:41:02Z</time>
      </trkpt>
      <trkpt lat="48.6955" lon="1.85881">
        <ele>164.36</ele>
        <time>2019-03-03T08:41:23Z</time>
      </trkpt>
      <trkpt lat="48.6955" lon="1.85907">
        <ele>163.84</ele>
        <time>2019-03-03T08:41:39Z</time>
      </trkpt>
      <trkpt lat="48.69548" lon="1.85938">
        <ele>163.14</ele>
        <time>2019-03-03T08:41:58Z</time>
      </trkpt>
      <trkpt lat="48.69546" lon="1.85963">
        <ele>163.24</ele>
        <time>2019-03-03T08:42:18Z</time>
      </trkpt>
      <trkpt lat="48.69544" lon="1.85979">
        <ele>162.35</ele>
        <time>2019-03-03T08:42:39Z</time>
      </trkpt>
      <trkpt lat="48.69544" lon="1.86008">
        <ele>162.76</ele>
        <time>2019-03-03T08:42:57Z</time>
      </trkpt>
      <trkpt lat="48.69543" lon="1.8604">
        <ele>162.47</ele>
        <time>2019-03-03T08:43:12Z</time>
      </trkpt>
      <trkpt lat="48.6955" lon="1.86059">
        <ele>162.6</ele>
        <time>2019-03-03T08:43:29Z</time>
      </trkpt>
      <trkpt lat="48.69551" lon="1.86066">
        <ele>162.93</ele>
        <time>2019-03-03T08:43:38Z</time>
      </trkpt>
      <trkpt lat="48.69548" lon="1.86074">
        <ele>162.7</ele>
        <time>2019-03-03T08:44:09Z</time>
      </trkpt>
      <trkpt lat="48.69543" lon="1.8608">
        <ele>162.03</ele>
        <time>2019-03-03T08:44:32Z</time>
      </trkpt>
      <trkpt lat="48.69538" lon="1.86098">
        <ele>162.34</ele>
        <time>2019-03-03T08:44:48Z</time>
      </trkpt>
      <trkpt lat="48.69535" lon="1.86112">
        <ele>162.04</ele>
        <time>2019-03-03T08:44:56Z</time>
      </trkpt>
      <trkpt lat="48.69531" lon="1.86122">
        <ele>162.43</ele>
        <time>2019-03-03T08:45:01Z</time>
      </trkpt>
      <trkpt lat="48.69524" lon="1.86132">
        <ele>162.78</ele>
        <time>2019-03-03T08:45:07Z</time>
      </trkpt>
      <trkpt lat="48.6951" lon="1.86153">
        <ele>163.36</ele>
        <time>2019-03-03T08:45:21Z</time>
      </trkpt>
      <trkpt lat="48.69509" lon="1.86155">
        <ele>162.78</ele>
        <time>2019-03-03T08:45:22Z</time>
      </trkpt>
      <trkpt lat="48.69494" lon="1.86165">
        <ele>162.5</ele>
        <time>2019-03-03T08:45:33Z</time>
      </trkpt>
      <trkpt lat="48.6948" lon="1.86182">
        <ele>162.3</ele>
        <time>2019-03-03T08:45:47Z</time>
      </trkpt>
      <trkpt lat="48.69467" lon="1.86199">
        <ele>162.47</ele>
        <time>2019-03-03T08:45:59Z</time>
      </trkpt>
      <trkpt lat="48.6945" lon="1.86217">
        <ele>162.01</ele>
        <time>2019-03-03T08:46:16Z</time>
      </trkpt>
      <trkpt lat="48.69445" lon="1.86224">
        <ele>161.71</ele>
        <time>2019-03-03T08:46:22Z</time>
      </trkpt>
      <trkpt lat="48.69433" lon="1.86243">
        <ele>162.22</ele>
        <time>2019-03-03T08:46:37Z</time>
      </trkpt>
      <trkpt lat="48.69424" lon="1.86264">
        <ele>162.68</ele>
        <time>2019-03-03T08:46:50Z</time>
      </trkpt>
      <trkpt lat="48.69411" lon="1.8628">
        <ele>162.7</ele>
        <time>2019-03-03T08:47:04Z</time>
      </trkpt>
      <trkpt lat="48.69401" lon="1.86313">
        <ele>162.59</ele>
        <time>2019-03-03T08:47:20Z</time>
      </trkpt>
      <trkpt lat="48.69401" lon="1.86359">
        <ele>163.29</ele>
        <time>2019-03-03T08:47:44Z</time>
      </trkpt>
      <trkpt lat="48.69402" lon="1.86376">
        <ele>162.95</ele>
        <time>2019-03-03T08:47:53Z</time>
      </trkpt>
      <trkpt lat="48.69401" lon="1.86394">
        <ele>162.91</ele>
        <time>2019-03-03T08:48:07Z</time>
      </trkpt>
      <trkpt lat="48.69403" lon="1.86393">
        <ele>162.55</ele>
        <time>2019-03-03T08:48:25Z</time>
      </trkpt>
      <trkpt lat="48.69403" lon="1.86393">
        <ele>162.58</ele>
        <time>2019-03-03T08:48:41Z</time>
      </trkpt>
      <trkpt lat="48.69401" lon="1.86395">
        <ele>163.32</ele>
        <time>2019-03-03T08:48:44Z</time>
      </trkpt>
      <trkpt lat="48.69397" lon="1.86397">
        <ele>163.42</ele>
        <time>2019-03-03T08:48:48Z</time>
      </trkpt>
      <trkpt lat="48.69383" lon="1.86414">
        <ele>163.16</ele>
        <time>2019-03-03T08:49:05Z</time>
      </trkpt>
      <trkpt lat="48.6938" lon="1.86424">
        <ele>162.91</ele>
        <time>2019-03-03T08:49:11Z</time>
      </trkpt>
      <trkpt lat="48.69383" lon="1.86429">
        <ele>163.47</ele>
        <time>2019-03-03T08:49:23Z</time>
      </trkpt>
      <trkpt lat="48.69385" lon="1.86432">
        <ele>163.16</ele>
        <time>2019-03-03T08:49:27Z</time>
      </trkpt>
      <trkpt lat="48.69383" lon="1.86446">
        <ele>163.95</ele>
        <time>2019-03-03T08:49:42Z</time>
      </trkpt>
      <trkpt lat="48.6938" lon="1.86452">
        <ele>163.72</ele>
        <time>2019-03-03T08:49:53Z</time>
      </trkpt>
      <trkpt lat="48.69376" lon="1.86466">
        <ele>163.51</ele>
        <time>2019-03-03T08:50:10Z</time>
      </trkpt>
      <trkpt lat="48.69375" lon="1.86471">
        <ele>163.28</ele>
        <time>2019-03-03T08:50:17Z</time>
      </trkpt>
      <trkpt lat="48.69367" lon="1.86495">
        <ele>164.07</ele>
        <time>2019-03-03T08:50:34Z</time>
      </trkpt>
      <trkpt lat="48.6936" lon="1.86518">
        <ele>163.81</ele>
        <time>2019-03-03T08:50:49Z</time>
      </trkpt>
      <trkpt lat="48.69354" lon="1.86543">
        <ele>162.27</ele>
        <time>2019-03-03T08:51:04Z</time>
      </trkpt>
      <trkpt lat="48.69352" lon="1.86549">
        <ele>164.66</ele>
        <time>2019-03-03T08:51:08Z</time>
      </trkpt>
      <trkpt lat="48.6935" lon="1.86556">
        <ele>165.06</ele>
        <time>2019-03-03T08:51:13Z</time>
      </trkpt>
      <trkpt lat="48.69348" lon="1.86561">
        <ele>163.76</ele>
        <time>2019-03-03T08:51:16Z</time>
      </trkpt>
      <trkpt lat="48.69341" lon="1.86575">
        <ele>163.88</ele>
        <time>2019-03-03T08:51:27Z</time>
      </trkpt>
      <trkpt lat="48.69339" lon="1.86581">
        <ele>164.41</ele>
        <time>2019-03-03T08:51:31Z</time>
      </trkpt>
      <trkpt lat="48.69337" lon="1.86592">
        <ele>163.42</ele>
        <time>2019-03-03T08:51:38Z</time>
      </trkpt>
      <trkpt lat="48.6933" lon="1.86609">
        <ele>163.93</ele>
        <time>2019-03-03T08:51:50Z</time>
      </trkpt>
      <trkpt lat="48.69328" lon="1.86616">
        <ele>163.65</ele>
        <time>2019-03-03T08:51:55Z</time>
      </trkpt>
      <trkpt lat="48.69321" lon="1.86637">
        <ele>164.29</ele>
        <time>2019-03-03T08:52:09Z</time>
      </trkpt>
      <trkpt lat="48.69319" lon="1.86647">
        <ele>163.49</ele>
        <time>2019-03-03T08:52:16Z</time>
      </trkpt>
      <trkpt lat="48.69313" lon="1.86661">
        <ele>164.15</ele>
        <time>2019-03-03T08:52:25Z</time>
      </trkpt>
      <trkpt lat="48.69312" lon="1.86663">
        <ele>164.35</ele>
        <time>2019-03-03T08:52:27Z</time>
      </trkpt>
      <trkpt lat="48.69312" lon="1.86668">
        <ele>164.31</ele>
        <time>2019-03-03T08:52:30Z</time>
      </trkpt>
      <trkpt lat="48.69311" lon="1.86674">
        <ele>163.79</ele>
        <time>2019-03-03T08:52:34Z</time>
      </trkpt>
      <trkpt lat="48.69309" lon="1.86679">
        <ele>163.79</ele>
        <time>2019-03-03T08:52:38Z</time>
      </trkpt>
      <trkpt lat="48.69306" lon="1.86688">
        <ele>163.5</ele>
        <time>2019-03-03T08:52:44Z</time>
      </trkpt>
      <trkpt lat="48.69296" lon="1.86714">
        <ele>164.41</ele>
        <time>2019-03-03T08:53:01Z</time>
      </trkpt>
      <trkpt lat="48.69288" lon="1.86742">
        <ele>163.78</ele>
        <time>2019-03-03T08:53:17Z</time>
      </trkpt>
      <trkpt lat="48.69284" lon="1.86761">
        <ele>164.35</ele>
        <time>2019-03-03T08:53:28Z</time>
      </trkpt>
      <trkpt lat="48.69277" lon="1.86781">
        <ele>163.94</ele>
        <time>2019-03-03T08:53:40Z</time>
      </trkpt>
      <trkpt lat="48.69272" lon="1.86793">
        <ele>164.24</ele>
        <time>2019-03-03T08:53:48Z</time>
      </trkpt>
      <trkpt lat="48.69272" lon="1.86796">
        <ele>164.67</ele>
        <time>2019-03-03T08:53:50Z</time>
      </trkpt>
      <trkpt lat="48.69265" lon="1.86818">
        <ele>164.92</ele>
        <time>2019-03-03T08:54:04Z</time>
      </trkpt>
      <trkpt lat="48.6926" lon="1.86837">
        <ele>164.42</ele>
        <time>2019-03-03T08:54:17Z</time>
      </trkpt>
      <trkpt lat="48.69257" lon="1.86843">
        <ele>164.37</ele>
        <time>2019-03-03T08:54:21Z</time>
      </trkpt>
      <trkpt lat="48.6925" lon="1.86851">
        <ele>163.82</ele>
        <time>2019-03-03T08:54:27Z</time>
      </trkpt>
      <trkpt lat="48.6923" lon="1.86857">
        <ele>164.64</ele>
        <time>2019-03-03T08:54:41Z</time>
      </trkpt>
      <trkpt lat="48.69205" lon="1.86858">
        <ele>164.34</ele>
        <time>2019-03-03T08:55:01Z</time>
      </trkpt>
      <trkpt lat="48.69186" lon="1.86857">
        <ele>164.16</ele>
        <time>2019-03-03T08:55:17Z</time>
      </trkpt>
      <trkpt lat="48.69166" lon="1.86861">
        <ele>164.81</ele>
        <time>2019-03-03T08:55:33Z</time>
      </trkpt>
      <trkpt lat="48.69162" lon="1.86859">
        <ele>164.58</ele>
        <time>2019-03-03T08:55:37Z</time>
      </trkpt>
      <trkpt lat="48.69146" lon="1.86859">
        <ele>165.03</ele>
        <time>2019-03-03T08:55:52Z</time>
      </trkpt>
      <trkpt lat="48.69128" lon="1.8686">
        <ele>164.38</ele>
        <time>2019-03-03T08:56:07Z</time>
      </trkpt>
      <trkpt lat="48.69111" lon="1.86862">
        <ele>164.58</ele>
        <time>2019-03-03T08:56:22Z</time>
      </trkpt>
      <trkpt lat="48.69109" lon="1.86862">
        <ele>165.04</ele>
        <time>2019-03-03T08:56:23Z</time>
      </trkpt>
      <trkpt lat="48.69099" lon="1.86863">
        <ele>165.06</ele>
        <time>2019-03-03T08:56:33Z</time>
      </trkpt>
      <trkpt lat="48.6908" lon="1.86862">
        <ele>165.06</ele>
        <time>2019-03-03T08:56:50Z</time>
      </trkpt>
      <trkpt lat="48.69075" lon="1.8686">
        <ele>165.88</ele>
        <time>2019-03-03T08:57:06Z</time>
      </trkpt>
      <trkpt lat="48.69074" lon="1.86862">
        <ele>164.51</ele>
        <time>2019-03-03T08:57:09Z</time>
      </trkpt>
      <trkpt lat="48.69066" lon="1.86865">
        <ele>164.73</ele>
        <time>2019-03-03T08:57:21Z</time>
      </trkpt>
      <trkpt lat="48.69062" lon="1.86865">
        <ele>164.98</ele>
        <time>2019-03-03T08:57:24Z</time>
      </trkpt>
      <trkpt lat="48.69047" lon="1.86866">
        <ele>165.9</ele>
        <time>2019-03-03T08:57:36Z</time>
      </trkpt>
      <trkpt lat="48.6903" lon="1.86869">
        <ele>165.6</ele>
        <time>2019-03-03T08:57:51Z</time>
      </trkpt>
      <trkpt lat="48.69024" lon="1.86867">
        <ele>162.16</ele>
        <time>2019-03-03T08:57:56Z</time>
      </trkpt>
      <trkpt lat="48.6901" lon="1.86866">
        <ele>165.18</ele>
        <time>2019-03-03T08:58:08Z</time>
      </trkpt>
      <trkpt lat="48.69008" lon="1.86866">
        <ele>164.61</ele>
        <time>2019-03-03T08:58:09Z</time>
      </trkpt>
      <trkpt lat="48.68988" lon="1.86866">
        <ele>165.56</ele>
        <time>2019-03-03T08:58:25Z</time>
      </trkpt>
      <trkpt lat="48.68968" lon="1.86867">
        <ele>164.4</ele>
        <time>2019-03-03T08:58:42Z</time>
      </trkpt>
      <trkpt lat="48.68949" lon="1.86868">
        <ele>165.29</ele>
        <time>2019-03-03T08:58:58Z</time>
      </trkpt>
      <trkpt lat="48.68928" lon="1.86868">
        <ele>165.48</ele>
        <time>2019-03-03T08:59:16Z</time>
      </trkpt>
      <trkpt lat="48.6891" lon="1.86859">
        <ele>164.25</ele>
        <time>2019-03-03T08:59:33Z</time>
      </trkpt>
      <trkpt lat="48.68901" lon="1.86837">
        <ele>165.62</ele>
        <time>2019-03-03T08:59:46Z</time>
      </trkpt>
      <trkpt lat="48.68893" lon="1.86813">
        <ele>164.35</ele>
        <time>2019-03-03T09:00:02Z</time>
      </trkpt>
      <trkpt lat="48.68892" lon="1.86807">
        <ele>165.2</ele>
        <time>2019-03-03T09:00:19Z</time>
      </trkpt>
      <trkpt lat="48.68894" lon="1.86809">
        <ele>165.57</ele>
        <time>2019-03-03T09:00:48Z</time>
      </trkpt>
      <trkpt lat="48.68893" lon="1.86808">
        <ele>165.76</ele>
        <time>2019-03-03T09:01:11Z</time>
      </trkpt>
      <trkpt lat="48.68889" lon="1.86801">
        <ele>165.87</ele>
        <time>2019-03-03T09:01:24Z</time>
      </trkpt>
      <trkpt lat="48.68886" lon="1.868">
        <ele>164.43</ele>
        <time>2019-03-03T09:01:29Z</time>
      </trkpt>
      <trkpt lat="48.68882" lon="1.86801">
        <ele>164.08</ele>
        <time>2019-03-03T09:01:33Z</time>
      </trkpt>
      <trkpt lat="48.68875" lon="1.86801">
        <ele>164.63</ele>
        <time>2019-03-03T09:01:40Z</time>
      </trkpt>
      <trkpt lat="48.68866" lon="1.86805">
        <ele>165.3</ele>
        <time>2019-03-03T09:01:56Z</time>
      </trkpt>
      <trkpt lat="48.6886" lon="1.86807">
        <ele>165.59</ele>
        <time>2019-03-03T09:02:03Z</time>
      </trkpt>
      <trkpt lat="48.68855" lon="1.86807">
        <ele>165.84</ele>
        <time>2019-03-03T09:02:07Z</time>
      </trkpt>
      <trkpt lat="48.68852" lon="1.86807">
        <ele>165.67</ele>
        <time>2019-03-03T09:02:10Z</time>
      </trkpt>
      <trkpt lat="48.68833" lon="1.86818">
        <ele>165.05</ele>
        <time>2019-03-03T09:02:28Z</time>
      </trkpt>
      <trkpt lat="48.68828" lon="1.86819">
        <ele>165.11</ele>
        <time>2019-03-03T09:02:34Z</time>
      </trkpt>
      <trkpt lat="48.68817" lon="1.86822">
        <ele>165.8</ele>
        <time>2019-03-03T09:02:46Z</time>
      </trkpt>
      <trkpt lat="48.68805" lon="1.86827">
        <ele>164.08</ele>
        <time>2019-03-03T09:03:02Z</time>
      </trkpt>
      <trkpt lat="48.68786" lon="1.86833">
        <ele>164.63</ele>
        <time>2019-03-03T09:03:20Z</time>
      </trkpt>
      <trkpt lat="48.6878" lon="1.86836">
        <ele>164.8</ele>
        <time>2019-03-03T09:03:24Z</time>
      </trkpt>
      <trkpt lat="48.68777" lon="1.86837">
        <ele>164.67</ele>
        <time>2019-03-03T09:03:27Z</time>
      </trkpt>
      <trkpt lat="48.6877" lon="1.86838">
        <ele>164.7</ele>
        <time>2019-03-03T09:03:32Z</time>
      </trkpt>
      <trkpt lat="48.68754" lon="1.86843">
        <ele>164.7</ele>
        <time>2019-03-03T09:03:47Z</time>
      </trkpt>
      <trkpt lat="48.68735" lon="1.86847">
        <ele>164.64</ele>
        <time>2019-03-03T09:04:05Z</time>
      </trkpt>
      <trkpt lat="48.68717" lon="1.86855">
        <ele>163.39</ele>
        <time>2019-03-03T09:04:21Z</time>
      </trkpt>
      <trkpt lat="48.68706" lon="1.86857">
        <ele>163.86</ele>
        <time>2019-03-03T09:04:29Z</time>
      </trkpt>
      <trkpt lat="48.68696" lon="1.86857">
        <ele>163.65</ele>
        <time>2019-03-03T09:04:45Z</time>
      </trkpt>
      <trkpt lat="48.68693" lon="1.86857">
        <ele>163.01</ele>
        <time>2019-03-03T09:05:08Z</time>
      </trkpt>
      <trkpt lat="48.68678" lon="1.86859">
        <ele>162.69</ele>
        <time>2019-03-03T09:05:23Z</time>
      </trkpt>
      <trkpt lat="48.6867" lon="1.86869">
        <ele>163.06</ele>
        <time>2019-03-03T09:05:36Z</time>
      </trkpt>
      <trkpt lat="48.68662" lon="1.86872">
        <ele>163.56</ele>
        <time>2019-03-03T09:05:43Z</time>
      </trkpt>
      <trkpt lat="48.68645" lon="1.86881">
        <ele>163.45</ele>
        <time>2019-03-03T09:06:02Z</time>
      </trkpt>
      <trkpt lat="48.68626" lon="1.86888">
        <ele>162.77</ele>
        <time>2019-03-03T09:06:23Z</time>
      </trkpt>
      <trkpt lat="48.68603" lon="1.86894">
        <ele>162.8</ele>
        <time>2019-03-03T09:06:42Z</time>
      </trkpt>
      <trkpt lat="48.6859" lon="1.86898">
        <ele>162.52</ele>
        <time>2019-03-03T09:06:54Z</time>
      </trkpt>
      <trkpt lat="48.68568" lon="1.86906">
        <ele>162.2</ele>
        <time>2019-03-03T09:07:15Z</time>
      </trkpt>
      <trkpt lat="48.68553" lon="1.86906">
        <ele>162.57</ele>
        <time>2019-03-03T09:07:28Z</time>
      </trkpt>
      <trkpt lat="48.68534" lon="1.86916">
        <ele>161.26</ele>
        <time>2019-03-03T09:07:44Z</time>
      </trkpt>
      <trkpt lat="48.68512" lon="1.86924">
        <ele>161.54</ele>
        <time>2019-03-03T09:08:03Z</time>
      </trkpt>
      <trkpt lat="48.68492" lon="1.86929">
        <ele>161.32</ele>
        <time>2019-03-03T09:08:21Z</time>
      </trkpt>
      <trkpt lat="48.6847" lon="1.86936">
        <ele>160.39</ele>
        <time>2019-03-03T09:08:42Z</time>
      </trkpt>
      <trkpt lat="48.6846" lon="1.86942">
        <ele>160.53</ele>
        <time>2019-03-03T09:08:51Z</time>
      </trkpt>
      <trkpt lat="48.68442" lon="1.86951">
        <ele>160.36</ele>
        <time>2019-03-03T09:09:09Z</time>
      </trkpt>
      <trkpt lat="48.68417" lon="1.86952">
        <ele>160.88</ele>
        <time>2019-03-03T09:09:30Z</time>
      </trkpt>
      <trkpt lat="48.68396" lon="1.86957">
        <ele>160.15</ele>
        <time>2019-03-03T09:09:48Z</time>
      </trkpt>
      <trkpt lat="48.68376" lon="1.86968">
        <ele>160.13</ele>
        <time>2019-03-03T09:10:05Z</time>
      </trkpt>
      <trkpt lat="48.68358" lon="1.86975">
        <ele>159.79</ele>
        <time>2019-03-03T09:10:21Z</time>
      </trkpt>
      <trkpt lat="48.68354" lon="1.86978">
        <ele>159.25</ele>
        <time>2019-03-03T09:10:24Z</time>
      </trkpt>
      <trkpt lat="48.68352" lon="1.86978">
        <ele>159.92</ele>
        <time>2019-03-03T09:10:26Z</time>
      </trkpt>
      <trkpt lat="48.68334" lon="1.86986">
        <ele>159</ele>
        <time>2019-03-03T09:10:42Z</time>
      </trkpt>
      <trkpt lat="48.68317" lon="1.8699">
        <ele>158.66</ele>
        <time>2019-03-03T09:10:59Z</time>
      </trkpt>
      <trkpt lat="48.68302" lon="1.86991">
        <ele>158.26</ele>
        <time>2019-03-03T09:11:13Z</time>
      </trkpt>
      <trkpt lat="48.68289" lon="1.86993">
        <ele>158.54</ele>
        <time>2019-03-03T09:11:24Z</time>
      </trkpt>
      <trkpt lat="48.68273" lon="1.87">
        <ele>158.31</ele>
        <time>2019-03-03T09:11:38Z</time>
      </trkpt>
      <trkpt lat="48.68258" lon="1.87004">
        <ele>157.9</ele>
        <time>2019-03-03T09:11:53Z</time>
      </trkpt>
      <trkpt lat="48.68232" lon="1.87017">
        <ele>157.23</ele>
        <time>2019-03-03T09:12:14Z</time>
      </trkpt>
      <trkpt lat="48.68214" lon="1.8702">
        <ele>157.43</ele>
        <time>2019-03-03T09:12:31Z</time>
      </trkpt>
      <trkpt lat="48.68192" lon="1.87026">
        <ele>157.3</ele>
        <time>2019-03-03T09:12:51Z</time>
      </trkpt>
      <trkpt lat="48.68171" lon="1.87035">
        <ele>157.71</ele>
        <time>2019-03-03T09:13:07Z</time>
      </trkpt>
      <trkpt lat="48.68147" lon="1.87041">
        <ele>156.45</ele>
        <time>2019-03-03T09:13:29Z</time>
      </trkpt>
      <trkpt lat="48.68133" lon="1.87046">
        <ele>156.11</ele>
        <time>2019-03-03T09:13:45Z</time>
      </trkpt>
      <trkpt lat="48.68117" lon="1.87051">
        <ele>156.3</ele>
        <time>2019-03-03T09:14:00Z</time>
      </trkpt>
      <trkpt lat="48.68101" lon="1.87061">
        <ele>156.33</ele>
        <time>2019-03-03T09:14:17Z</time>
      </trkpt>
      <trkpt lat="48.68083" lon="1.87068">
        <ele>155.52</ele>
        <time>2019-03-03T09:14:36Z</time>
      </trkpt>
      <trkpt lat="48.68063" lon="1.87077">
        <ele>156.17</ele>
        <time>2019-03-03T09:14:54Z</time>
      </trkpt>
      <trkpt lat="48.68053" lon="1.87071">
        <ele>155.93</ele>
        <time>2019-03-03T09:15:22Z</time>
      </trkpt>
      <trkpt lat="48.68053" lon="1.87082">
        <ele>152.67</ele>
        <time>2019-03-03T09:15:40Z</time>
      </trkpt>
      <trkpt lat="48.68044" lon="1.87084">
        <ele>152.14</ele>
        <time>2019-03-03T09:15:56Z</time>
      </trkpt>
      <trkpt lat="48.68037" lon="1.87082">
        <ele>151.79</ele>
        <time>2019-03-03T09:16:19Z</time>
      </trkpt>
      <trkpt lat="48.68042" lon="1.87088">
        <ele>153.22</ele>
        <time>2019-03-03T09:16:45Z</time>
      </trkpt>
      <trkpt lat="48.68027" lon="1.87093">
        <ele>151.72</ele>
        <time>2019-03-03T09:17:04Z</time>
      </trkpt>
      <trkpt lat="48.68004" lon="1.87101">
        <ele>151.7</ele>
        <time>2019-03-03T09:17:25Z</time>
      </trkpt>
      <trkpt lat="48.67987" lon="1.87103">
        <ele>150.83</ele>
        <time>2019-03-03T09:17:43Z</time>
      </trkpt>
      <trkpt lat="48.67975" lon="1.87107">
        <ele>151.34</ele>
        <time>2019-03-03T09:17:55Z</time>
      </trkpt>
      <trkpt lat="48.67959" lon="1.87108">
        <ele>151.02</ele>
        <time>2019-03-03T09:18:10Z</time>
      </trkpt>
      <trkpt lat="48.67943" lon="1.87115">
        <ele>151.82</ele>
        <time>2019-03-03T09:18:25Z</time>
      </trkpt>
      <trkpt lat="48.67923" lon="1.87122">
        <ele>151.22</ele>
        <time>2019-03-03T09:18:41Z</time>
      </trkpt>
      <trkpt lat="48.67905" lon="1.87122">
        <ele>151.72</ele>
        <time>2019-03-03T09:18:57Z</time>
      </trkpt>
      <trkpt lat="48.67895" lon="1.87128">
        <ele>151.05</ele>
        <time>2019-03-03T09:19:04Z</time>
      </trkpt>
      <trkpt lat="48.67878" lon="1.87126">
        <ele>151.66</ele>
        <time>2019-03-03T09:19:20Z</time>
      </trkpt>
      <trkpt lat="48.67857" lon="1.87128">
        <ele>151.79</ele>
        <time>2019-03-03T09:19:39Z</time>
      </trkpt>
      <trkpt lat="48.6784" lon="1.8713">
        <ele>151.47</ele>
        <time>2019-03-03T09:19:57Z</time>
      </trkpt>
      <trkpt lat="48.67818" lon="1.8713">
        <ele>152.87</ele>
        <time>2019-03-03T09:20:14Z</time>
      </trkpt>
      <trkpt lat="48.67817" lon="1.87129">
        <ele>152.88</ele>
        <time>2019-03-03T09:20:15Z</time>
      </trkpt>
      <trkpt lat="48.67803" lon="1.87129">
        <ele>151.23</ele>
        <time>2019-03-03T09:20:27Z</time>
      </trkpt>
      <trkpt lat="48.67799" lon="1.8713">
        <ele>152.23</ele>
        <time>2019-03-03T09:20:29Z</time>
      </trkpt>
      <trkpt lat="48.67784" lon="1.87134">
        <ele>151.2</ele>
        <time>2019-03-03T09:20:39Z</time>
      </trkpt>
      <trkpt lat="48.67778" lon="1.87132">
        <ele>151.22</ele>
        <time>2019-03-03T09:20:44Z</time>
      </trkpt>
      <trkpt lat="48.67776" lon="1.87132">
        <ele>151.34</ele>
        <time>2019-03-03T09:20:46Z</time>
      </trkpt>
      <trkpt lat="48.6776" lon="1.87136">
        <ele>152.81</ele>
        <time>2019-03-03T09:21:00Z</time>
      </trkpt>
      <trkpt lat="48.67758" lon="1.87135">
        <ele>153.39</ele>
        <time>2019-03-03T09:21:05Z</time>
      </trkpt>
      <trkpt lat="48.67756" lon="1.87136">
        <ele>152.82</ele>
        <time>2019-03-03T09:21:07Z</time>
      </trkpt>
      <trkpt lat="48.67749" lon="1.87141">
        <ele>153.06</ele>
        <time>2019-03-03T09:21:15Z</time>
      </trkpt>
      <trkpt lat="48.67741" lon="1.87138">
        <ele>154.54</ele>
        <time>2019-03-03T09:21:28Z</time>
      </trkpt>
      <trkpt lat="48.6774" lon="1.87131">
        <ele>154.52</ele>
        <time>2019-03-03T09:21:42Z</time>
      </trkpt>
      <trkpt lat="48.67741" lon="1.87125">
        <ele>154.12</ele>
        <time>2019-03-03T09:21:56Z</time>
      </trkpt>
      <trkpt lat="48.67732" lon="1.87113">
        <ele>154.43</ele>
        <time>2019-03-03T09:22:14Z</time>
      </trkpt>
      <trkpt lat="48.67735" lon="1.87113">
        <ele>155.26</ele>
        <time>2019-03-03T09:22:32Z</time>
      </trkpt>
      <trkpt lat="48.67735" lon="1.8711">
        <ele>155.03</ele>
        <time>2019-03-03T09:22:48Z</time>
      </trkpt>
      <trkpt lat="48.67735" lon="1.87112">
        <ele>154.5</ele>
        <time>2019-03-03T09:23:14Z</time>
      </trkpt>
      <trkpt lat="48.67736" lon="1.87113">
        <ele>154.66</ele>
        <time>2019-03-03T09:23:43Z</time>
      </trkpt>
      <trkpt lat="48.67736" lon="1.87112">
        <ele>154.81</ele>
        <time>2019-03-03T09:24:02Z</time>
      </trkpt>
      <trkpt lat="48.67738" lon="1.87113">
        <ele>155.05</ele>
        <time>2019-03-03T09:24:07Z</time>
      </trkpt>
      <trkpt lat="48.67742" lon="1.87122">
        <ele>155.48</ele>
        <time>2019-03-03T09:24:14Z</time>
      </trkpt>
      <trkpt lat="48.67742" lon="1.87139">
        <ele>155.26</ele>
        <time>2019-03-03T09:24:24Z</time>
      </trkpt>
      <trkpt lat="48.67733" lon="1.87146">
        <ele>155.02</ele>
        <time>2019-03-03T09:24:38Z</time>
      </trkpt>
      <trkpt lat="48.67736" lon="1.87146">
        <ele>155.76</ele>
        <time>2019-03-03T09:24:44Z</time>
      </trkpt>
      <trkpt lat="48.67739" lon="1.87143">
        <ele>155.56</ele>
        <time>2019-03-03T09:24:48Z</time>
      </trkpt>
      <trkpt lat="48.67738" lon="1.87117">
        <ele>154.79</ele>
        <time>2019-03-03T09:25:04Z</time>
      </trkpt>
      <trkpt lat="48.67735" lon="1.87112">
        <ele>155.55</ele>
        <time>2019-03-03T09:25:19Z</time>
      </trkpt>
      <trkpt lat="48.67734" lon="1.87113">
        <ele>155.69</ele>
        <time>2019-03-03T09:25:48Z</time>
      </trkpt>
      <trkpt lat="48.67733" lon="1.87113">
        <ele>155.66</ele>
        <time>2019-03-03T09:26:11Z</time>
      </trkpt>
      <trkpt lat="48.67734" lon="1.87113">
        <ele>155.58</ele>
        <time>2019-03-03T09:26:38Z</time>
      </trkpt>
      <trkpt lat="48.67735" lon="1.87114">
        <ele>156.87</ele>
        <time>2019-03-03T09:27:06Z</time>
      </trkpt>
      <trkpt lat="48.67735" lon="1.87115">
        <ele>156.29</ele>
        <time>2019-03-03T09:27:39Z</time>
      </trkpt>
      <trkpt lat="48.67728" lon="1.87119">
        <ele>155.44</ele>
        <time>2019-03-03T09:27:56Z</time>
      </trkpt>
      <trkpt lat="48.67726" lon="1.87119">
        <ele>155.16</ele>
        <time>2019-03-03T09:27:58Z</time>
      </trkpt>
      <trkpt lat="48.67712" lon="1.87122">
        <ele>155.1</ele>
        <time>2019-03-03T09:28:13Z</time>
      </trkpt>
      <trkpt lat="48.67699" lon="1.87122">
        <ele>155</ele>
        <time>2019-03-03T09:28:25Z</time>
      </trkpt>
      <trkpt lat="48.67697" lon="1.87123">
        <ele>154.78</ele>
        <time>2019-03-03T09:28:27Z</time>
      </trkpt>
      <trkpt lat="48.67682" lon="1.87124">
        <ele>155.3</ele>
        <time>2019-03-03T09:28:41Z</time>
      </trkpt>
      <trkpt lat="48.6768" lon="1.87124">
        <ele>154.76</ele>
        <time>2019-03-03T09:28:42Z</time>
      </trkpt>
      <trkpt lat="48.67678" lon="1.87124">
        <ele>154.75</ele>
        <time>2019-03-03T09:28:44Z</time>
      </trkpt>
      <trkpt lat="48.67662" lon="1.87119">
        <ele>154.85</ele>
        <time>2019-03-03T09:29:00Z</time>
      </trkpt>
      <trkpt lat="48.67652" lon="1.87117">
        <ele>154.06</ele>
        <time>2019-03-03T09:29:12Z</time>
      </trkpt>
      <trkpt lat="48.67636" lon="1.87108">
        <ele>154.47</ele>
        <time>2019-03-03T09:29:27Z</time>
      </trkpt>
      <trkpt lat="48.67631" lon="1.87108">
        <ele>154.9</ele>
        <time>2019-03-03T09:29:30Z</time>
      </trkpt>
      <trkpt lat="48.67612" lon="1.87104">
        <ele>155.05</ele>
        <time>2019-03-03T09:29:46Z</time>
      </trkpt>
      <trkpt lat="48.67594" lon="1.87095">
        <ele>154.74</ele>
        <time>2019-03-03T09:30:05Z</time>
      </trkpt>
      <trkpt lat="48.67574" lon="1.87093">
        <ele>153.87</ele>
        <time>2019-03-03T09:30:21Z</time>
      </trkpt>
      <trkpt lat="48.6756" lon="1.87085">
        <ele>154.38</ele>
        <time>2019-03-03T09:30:35Z</time>
      </trkpt>
      <trkpt lat="48.67537" lon="1.87081">
        <ele>153.24</ele>
        <time>2019-03-03T09:30:54Z</time>
      </trkpt>
      <trkpt lat="48.67532" lon="1.87078">
        <ele>153.68</ele>
        <time>2019-03-03T09:30:59Z</time>
      </trkpt>
      <trkpt lat="48.67514" lon="1.8708">
        <ele>153.35</ele>
        <time>2019-03-03T09:31:14Z</time>
      </trkpt>
      <trkpt lat="48.67493" lon="1.8707">
        <ele>153.26</ele>
        <time>2019-03-03T09:31:33Z</time>
      </trkpt>
      <trkpt lat="48.67479" lon="1.87062">
        <ele>155.76</ele>
        <time>2019-03-03T09:31:49Z</time>
      </trkpt>
      <trkpt lat="48.67476" lon="1.8707">
        <ele>155.15</ele>
        <time>2019-03-03T09:31:56Z</time>
      </trkpt>
      <trkpt lat="48.67477" lon="1.87079">
        <ele>155.19</ele>
        <time>2019-03-03T09:32:02Z</time>
      </trkpt>
      <trkpt lat="48.67462" lon="1.8709">
        <ele>152.91</ele>
        <time>2019-03-03T09:32:21Z</time>
      </trkpt>
      <trkpt lat="48.6745" lon="1.8708">
        <ele>153.29</ele>
        <time>2019-03-03T09:32:32Z</time>
      </trkpt>
      <trkpt lat="48.67428" lon="1.87068">
        <ele>151.86</ele>
        <time>2019-03-03T09:32:50Z</time>
      </trkpt>
      <trkpt lat="48.67411" lon="1.87065">
        <ele>152.33</ele>
        <time>2019-03-03T09:33:08Z</time>
      </trkpt>
      <trkpt lat="48.67391" lon="1.87059">
        <ele>151.9</ele>
        <time>2019-03-03T09:33:26Z</time>
      </trkpt>
      <trkpt lat="48.6738" lon="1.87057">
        <ele>152.71</ele>
        <time>2019-03-03T09:33:35Z</time>
      </trkpt>
      <trkpt lat="48.67365" lon="1.8705">
        <ele>151.24</ele>
        <time>2019-03-03T09:33:50Z</time>
      </trkpt>
      <trkpt lat="48.6735" lon="1.87042">
        <ele>152.38</ele>
        <time>2019-03-03T09:34:08Z</time>
      </trkpt>
      <trkpt lat="48.67346" lon="1.87041">
        <ele>151.32</ele>
        <time>2019-03-03T09:34:30Z</time>
      </trkpt>
      <trkpt lat="48.67332" lon="1.87041">
        <ele>150.85</ele>
        <time>2019-03-03T09:34:49Z</time>
      </trkpt>
      <trkpt lat="48.67326" lon="1.87038">
        <ele>150.66</ele>
        <time>2019-03-03T09:34:55Z</time>
      </trkpt>
      <trkpt lat="48.67307" lon="1.87032">
        <ele>151.26</ele>
        <time>2019-03-03T09:35:11Z</time>
      </trkpt>
      <trkpt lat="48.67298" lon="1.87027">
        <ele>152.09</ele>
        <time>2019-03-03T09:35:19Z</time>
      </trkpt>
      <trkpt lat="48.67282" lon="1.87026">
        <ele>151.65</ele>
        <time>2019-03-03T09:35:33Z</time>
      </trkpt>
      <trkpt lat="48.67273" lon="1.87022">
        <ele>151.36</ele>
        <time>2019-03-03T09:35:41Z</time>
      </trkpt>
      <trkpt lat="48.67253" lon="1.87027">
        <ele>151.92</ele>
        <time>2019-03-03T09:35:57Z</time>
      </trkpt>
      <trkpt lat="48.67233" lon="1.87042">
        <ele>151.69</ele>
        <time>2019-03-03T09:36:14Z</time>
      </trkpt>
      <trkpt lat="48.67228" lon="1.87045">
        <ele>152.75</ele>
        <time>2019-03-03T09:36:19Z</time>
      </trkpt>
      <trkpt lat="48.67221" lon="1.87048">
        <ele>151.27</ele>
        <time>2019-03-03T09:36:25Z</time>
      </trkpt>
      <trkpt lat="48.67202" lon="1.87059">
        <ele>152.02</ele>
        <time>2019-03-03T09:36:43Z</time>
      </trkpt>
      <trkpt lat="48.67199" lon="1.87062">
        <ele>152.15</ele>
        <time>2019-03-03T09:36:45Z</time>
      </trkpt>
      <trkpt lat="48.6719" lon="1.87066">
        <ele>151.86</ele>
        <time>2019-03-03T09:36:52Z</time>
      </trkpt>
      <trkpt lat="48.67173" lon="1.87078">
        <ele>150.87</ele>
        <time>2019-03-03T09:37:10Z</time>
      </trkpt>
      <trkpt lat="48.67158" lon="1.87092">
        <ele>150.5</ele>
        <time>2019-03-03T09:37:25Z</time>
      </trkpt>
      <trkpt lat="48.67131" lon="1.87108">
        <ele>150.93</ele>
        <time>2019-03-03T09:37:47Z</time>
      </trkpt>
      <trkpt lat="48.67119" lon="1.87113">
        <ele>150.71</ele>
        <time>2019-03-03T09:37:56Z</time>
      </trkpt>
      <trkpt lat="48.67102" lon="1.87126">
        <ele>150.05</ele>
        <time>2019-03-03T09:38:11Z</time>
      </trkpt>
      <trkpt lat="48.67098" lon="1.87129">
        <ele>150.05</ele>
        <time>2019-03-03T09:38:15Z</time>
      </trkpt>
      <trkpt lat="48.67089" lon="1.87134">
        <ele>149.72</ele>
        <time>2019-03-03T09:38:21Z</time>
      </trkpt>
      <trkpt lat="48.67082" lon="1.87139">
        <ele>150.55</ele>
        <time>2019-03-03T09:38:27Z</time>
      </trkpt>
      <trkpt lat="48.67074" lon="1.87143">
        <ele>149.66</ele>
        <time>2019-03-03T09:38:36Z</time>
      </trkpt>
      <trkpt lat="48.67058" lon="1.87153">
        <ele>150.1</ele>
        <time>2019-03-03T09:38:52Z</time>
      </trkpt>
      <trkpt lat="48.6704" lon="1.87165">
        <ele>149.49</ele>
        <time>2019-03-03T09:39:09Z</time>
      </trkpt>
      <trkpt lat="48.67024" lon="1.87177">
        <ele>149.65</ele>
        <time>2019-03-03T09:39:25Z</time>
      </trkpt>
      <trkpt lat="48.6702" lon="1.87181">
        <ele>149.9</ele>
        <time>2019-03-03T09:39:29Z</time>
      </trkpt>
      <trkpt lat="48.67011" lon="1.87188">
        <ele>149.97</ele>
        <time>2019-03-03T09:39:38Z</time>
      </trkpt>
      <trkpt lat="48.67007" lon="1.87192">
        <ele>149.31</ele>
        <time>2019-03-03T09:39:41Z</time>
      </trkpt>
      <trkpt lat="48.67001" lon="1.87197">
        <ele>149.52</ele>
        <time>2019-03-03T09:39:45Z</time>
      </trkpt>
      <trkpt lat="48.66987" lon="1.87204">
        <ele>149.14</ele>
        <time>2019-03-03T09:39:58Z</time>
      </trkpt>
      <trkpt lat="48.66976" lon="1.87215">
        <ele>150.75</ele>
        <time>2019-03-03T09:40:11Z</time>
      </trkpt>
      <trkpt lat="48.66964" lon="1.87221">
        <ele>150.84</ele>
        <time>2019-03-03T09:40:23Z</time>
      </trkpt>
      <trkpt lat="48.66962" lon="1.87221">
        <ele>150.55</ele>
        <time>2019-03-03T09:40:25Z</time>
      </trkpt>
      <trkpt lat="48.66957" lon="1.87218">
        <ele>150.66</ele>
        <time>2019-03-03T09:40:54Z</time>
      </trkpt>
      <trkpt lat="48.66947" lon="1.87228">
        <ele>151.31</ele>
        <time>2019-03-03T09:41:15Z</time>
      </trkpt>
      <trkpt lat="48.66951" lon="1.87228">
        <ele>150.8</ele>
        <time>2019-03-03T09:41:36Z</time>
      </trkpt>
      <trkpt lat="48.66949" lon="1.87225">
        <ele>150.55</ele>
        <time>2019-03-03T09:41:58Z</time>
      </trkpt>
      <trkpt lat="48.66955" lon="1.87233">
        <ele>151.01</ele>
        <time>2019-03-03T09:42:22Z</time>
      </trkpt>
      <trkpt lat="48.66965" lon="1.87243">
        <ele>151.09</ele>
        <time>2019-03-03T09:42:38Z</time>
      </trkpt>
      <trkpt lat="48.66971" lon="1.87244">
        <ele>150.72</ele>
        <time>2019-03-03T09:42:54Z</time>
      </trkpt>
      <trkpt lat="48.66984" lon="1.87268">
        <ele>151.02</ele>
        <time>2019-03-03T09:43:10Z</time>
      </trkpt>
      <trkpt lat="48.66985" lon="1.87275">
        <ele>150.83</ele>
        <time>2019-03-03T09:43:14Z</time>
      </trkpt>
      <trkpt lat="48.66987" lon="1.87278">
        <ele>150.84</ele>
        <time>2019-03-03T09:43:16Z</time>
      </trkpt>
      <trkpt lat="48.66993" lon="1.87299">
        <ele>151.17</ele>
        <time>2019-03-03T09:43:30Z</time>
      </trkpt>
      <trkpt lat="48.67" lon="1.87323">
        <ele>151.21</ele>
        <time>2019-03-03T09:43:45Z</time>
      </trkpt>
      <trkpt lat="48.67005" lon="1.87345">
        <ele>150.72</ele>
        <time>2019-03-03T09:43:59Z</time>
      </trkpt>
      <trkpt lat="48.6701" lon="1.87365">
        <ele>151.22</ele>
        <time>2019-03-03T09:44:12Z</time>
      </trkpt>
      <trkpt lat="48.67018" lon="1.87396">
        <ele>151.03</ele>
        <time>2019-03-03T09:44:31Z</time>
      </trkpt>
      <trkpt lat="48.67027" lon="1.8742">
        <ele>150.82</ele>
        <time>2019-03-03T09:44:47Z</time>
      </trkpt>
      <trkpt lat="48.6703" lon="1.8743">
        <ele>151.33</ele>
        <time>2019-03-03T09:44:53Z</time>
      </trkpt>
      <trkpt lat="48.67034" lon="1.87457">
        <ele>151.48</ele>
        <time>2019-03-03T09:45:08Z</time>
      </trkpt>
      <trkpt lat="48.67033" lon="1.87459">
        <ele>151.03</ele>
        <time>2019-03-03T09:45:11Z</time>
      </trkpt>
      <trkpt lat="48.67033" lon="1.87463">
        <ele>150.97</ele>
        <time>2019-03-03T09:45:14Z</time>
      </trkpt>
      <trkpt lat="48.67031" lon="1.87484">
        <ele>151.02</ele>
        <time>2019-03-03T09:45:29Z</time>
      </trkpt>
      <trkpt lat="48.67023" lon="1.87486">
        <ele>150.82</ele>
        <time>2019-03-03T09:45:47Z</time>
      </trkpt>
      <trkpt lat="48.67024" lon="1.87486">
        <ele>150.82</ele>
        <time>2019-03-03T09:46:08Z</time>
      </trkpt>
      <trkpt lat="48.67022" lon="1.87499">
        <ele>151.54</ele>
        <time>2019-03-03T09:46:26Z</time>
      </trkpt>
      <trkpt lat="48.6702" lon="1.87487">
        <ele>151.33</ele>
        <time>2019-03-03T09:46:45Z</time>
      </trkpt>
      <trkpt lat="48.6702" lon="1.87486">
        <ele>151.93</ele>
        <time>2019-03-03T09:47:10Z</time>
      </trkpt>
      <trkpt lat="48.67022" lon="1.87482">
        <ele>152.09</ele>
        <time>2019-03-03T09:47:41Z</time>
      </trkpt>
      <trkpt lat="48.67024" lon="1.87481">
        <ele>152.55</ele>
        <time>2019-03-03T09:48:11Z</time>
      </trkpt>
      <trkpt lat="48.67023" lon="1.8748">
        <ele>151.86</ele>
        <time>2019-03-03T09:48:39Z</time>
      </trkpt>
      <trkpt lat="48.67023" lon="1.8748">
        <ele>152.67</ele>
        <time>2019-03-03T09:48:46Z</time>
      </trkpt>
      <trkpt lat="48.67023" lon="1.87482">
        <ele>152.24</ele>
        <time>2019-03-03T09:49:13Z</time>
      </trkpt>
      <trkpt lat="48.67027" lon="1.87482">
        <ele>152.43</ele>
        <time>2019-03-03T09:49:23Z</time>
      </trkpt>
      <trkpt lat="48.67029" lon="1.87482">
        <ele>152.05</ele>
        <time>2019-03-03T09:49:25Z</time>
      </trkpt>
      <trkpt lat="48.67047" lon="1.87479">
        <ele>152.16</ele>
        <time>2019-03-03T09:49:42Z</time>
      </trkpt>
      <trkpt lat="48.67066" lon="1.8747">
        <ele>152.15</ele>
        <time>2019-03-03T09:49:59Z</time>
      </trkpt>
      <trkpt lat="48.67083" lon="1.87459">
        <ele>152.22</ele>
        <time>2019-03-03T09:50:15Z</time>
      </trkpt>
      <trkpt lat="48.67101" lon="1.87454">
        <ele>152.04</ele>
        <time>2019-03-03T09:50:31Z</time>
      </trkpt>
      <trkpt lat="48.67119" lon="1.87446">
        <ele>151.96</ele>
        <time>2019-03-03T09:50:46Z</time>
      </trkpt>
      <trkpt lat="48.6714" lon="1.87435">
        <ele>152.3</ele>
        <time>2019-03-03T09:51:04Z</time>
      </trkpt>
      <trkpt lat="48.67158" lon="1.87426">
        <ele>151.82</ele>
        <time>2019-03-03T09:51:21Z</time>
      </trkpt>
      <trkpt lat="48.67172" lon="1.8742">
        <ele>152.41</ele>
        <time>2019-03-03T09:51:36Z</time>
      </trkpt>
      <trkpt lat="48.67173" lon="1.87421">
        <ele>152.4</ele>
        <time>2019-03-03T09:52:00Z</time>
      </trkpt>
      <trkpt lat="48.67173" lon="1.87421">
        <ele>152.77</ele>
        <time>2019-03-03T09:52:18Z</time>
      </trkpt>
      <trkpt lat="48.67174" lon="1.87423">
        <ele>152.6</ele>
        <time>2019-03-03T09:52:26Z</time>
      </trkpt>
      <trkpt lat="48.67175" lon="1.87425">
        <ele>153.14</ele>
        <time>2019-03-03T09:52:28Z</time>
      </trkpt>
      <trkpt lat="48.67181" lon="1.8744">
        <ele>153.15</ele>
        <time>2019-03-03T09:52:39Z</time>
      </trkpt>
      <trkpt lat="48.67191" lon="1.87463">
        <ele>152.7</ele>
        <time>2019-03-03T09:52:53Z</time>
      </trkpt>
      <trkpt lat="48.67194" lon="1.87476">
        <ele>152.96</ele>
        <time>2019-03-03T09:53:01Z</time>
      </trkpt>
      <trkpt lat="48.67202" lon="1.87495">
        <ele>152.55</ele>
        <time>2019-03-03T09:53:14Z</time>
      </trkpt>
      <trkpt lat="48.67212" lon="1.87518">
        <ele>152.44</ele>
        <time>2019-03-03T09:53:28Z</time>
      </trkpt>
      <trkpt lat="48.67214" lon="1.87526">
        <ele>152.65</ele>
        <time>2019-03-03T09:53:33Z</time>
      </trkpt>
      <trkpt lat="48.67221" lon="1.87547">
        <ele>152.91</ele>
        <time>2019-03-03T09:53:47Z</time>
      </trkpt>
      <trkpt lat="48.6723" lon="1.87568">
        <ele>152.32</ele>
        <time>2019-03-03T09:54:03Z</time>
      </trkpt>
      <trkpt lat="48.67233" lon="1.8758">
        <ele>152.63</ele>
        <time>2019-03-03T09:54:10Z</time>
      </trkpt>
      <trkpt lat="48.67235" lon="1.87592">
        <ele>152.7</ele>
        <time>2019-03-03T09:54:24Z</time>
      </trkpt>
      <trkpt lat="48.67239" lon="1.87611">
        <ele>152.93</ele>
        <time>2019-03-03T09:54:38Z</time>
      </trkpt>
      <trkpt lat="48.67246" lon="1.87634">
        <ele>152.51</ele>
        <time>2019-03-03T09:54:52Z</time>
      </trkpt>
      <trkpt lat="48.67251" lon="1.87657">
        <ele>152.46</ele>
        <time>2019-03-03T09:55:06Z</time>
      </trkpt>
      <trkpt lat="48.67256" lon="1.87683">
        <ele>152.62</ele>
        <time>2019-03-03T09:55:21Z</time>
      </trkpt>
      <trkpt lat="48.67262" lon="1.87707">
        <ele>152.27</ele>
        <time>2019-03-03T09:55:36Z</time>
      </trkpt>
      <trkpt lat="48.67265" lon="1.87741">
        <ele>152.94</ele>
        <time>2019-03-03T09:55:54Z</time>
      </trkpt>
      <trkpt lat="48.67269" lon="1.87764">
        <ele>152.83</ele>
        <time>2019-03-03T09:56:08Z</time>
      </trkpt>
      <trkpt lat="48.67272" lon="1.87792">
        <ele>153.18</ele>
        <time>2019-03-03T09:56:24Z</time>
      </trkpt>
      <trkpt lat="48.67267" lon="1.87831">
        <ele>152.96</ele>
        <time>2019-03-03T09:56:45Z</time>
      </trkpt>
      <trkpt lat="48.67264" lon="1.87863">
        <ele>153.21</ele>
        <time>2019-03-03T09:57:03Z</time>
      </trkpt>
      <trkpt lat="48.67263" lon="1.87873">
        <ele>153.09</ele>
        <time>2019-03-03T09:57:17Z</time>
      </trkpt>
      <trkpt lat="48.67265" lon="1.87872">
        <ele>153.4</ele>
        <time>2019-03-03T09:57:36Z</time>
      </trkpt>
      <trkpt lat="48.67264" lon="1.87882">
        <ele>153.01</ele>
        <time>2019-03-03T09:57:46Z</time>
      </trkpt>
      <trkpt lat="48.67264" lon="1.87886">
        <ele>153.41</ele>
        <time>2019-03-03T09:57:49Z</time>
      </trkpt>
      <trkpt lat="48.67263" lon="1.87892">
        <ele>153.57</ele>
        <time>2019-03-03T09:57:53Z</time>
      </trkpt>
      <trkpt lat="48.67261" lon="1.87901">
        <ele>153.45</ele>
        <time>2019-03-03T09:57:58Z</time>
      </trkpt>
      <trkpt lat="48.67254" lon="1.8794">
        <ele>153.35</ele>
        <time>2019-03-03T09:58:20Z</time>
      </trkpt>
      <trkpt lat="48.67254" lon="1.87959">
        <ele>153.23</ele>
        <time>2019-03-03T09:58:34Z</time>
      </trkpt>
      <trkpt lat="48.67252" lon="1.87978">
        <ele>153.11</ele>
        <time>2019-03-03T09:58:46Z</time>
      </trkpt>
      <trkpt lat="48.67245" lon="1.88016">
        <ele>152.46</ele>
        <time>2019-03-03T09:59:05Z</time>
      </trkpt>
      <trkpt lat="48.67236" lon="1.88063">
        <ele>153.03</ele>
        <time>2019-03-03T09:59:30Z</time>
      </trkpt>
      <trkpt lat="48.67229" lon="1.88112">
        <ele>153.19</ele>
        <time>2019-03-03T09:59:57Z</time>
      </trkpt>
      <trkpt lat="48.67223" lon="1.8815">
        <ele>154.05</ele>
        <time>2019-03-03T10:00:20Z</time>
      </trkpt>
      <trkpt lat="48.6722" lon="1.88177">
        <ele>155.49</ele>
        <time>2019-03-03T10:00:36Z</time>
      </trkpt>
      <trkpt lat="48.67215" lon="1.88211">
        <ele>154.57</ele>
        <time>2019-03-03T10:00:53Z</time>
      </trkpt>
      <trkpt lat="48.6721" lon="1.88247">
        <ele>154.25</ele>
        <time>2019-03-03T10:01:13Z</time>
      </trkpt>
      <trkpt lat="48.67204" lon="1.8828">
        <ele>153.87</ele>
        <time>2019-03-03T10:01:31Z</time>
      </trkpt>
      <trkpt lat="48.67203" lon="1.88287">
        <ele>154.56</ele>
        <time>2019-03-03T10:01:47Z</time>
      </trkpt>
      <trkpt lat="48.67203" lon="1.88291">
        <ele>154.67</ele>
        <time>2019-03-03T10:01:55Z</time>
      </trkpt>
      <trkpt lat="48.67202" lon="1.88318">
        <ele>154.88</ele>
        <time>2019-03-03T10:02:11Z</time>
      </trkpt>
      <trkpt lat="48.67201" lon="1.88333">
        <ele>153.87</ele>
        <time>2019-03-03T10:02:19Z</time>
      </trkpt>
      <trkpt lat="48.67204" lon="1.88343">
        <ele>153.96</ele>
        <time>2019-03-03T10:02:25Z</time>
      </trkpt>
      <trkpt lat="48.67223" lon="1.88353">
        <ele>154.04</ele>
        <time>2019-03-03T10:02:42Z</time>
      </trkpt>
      <trkpt lat="48.67226" lon="1.88353">
        <ele>153.78</ele>
        <time>2019-03-03T10:02:44Z</time>
      </trkpt>
      <trkpt lat="48.67243" lon="1.8836">
        <ele>154.29</ele>
        <time>2019-03-03T10:02:59Z</time>
      </trkpt>
      <trkpt lat="48.67261" lon="1.88366">
        <ele>155.12</ele>
        <time>2019-03-03T10:03:14Z</time>
      </trkpt>
      <trkpt lat="48.67275" lon="1.88371">
        <ele>154.18</ele>
        <time>2019-03-03T10:03:27Z</time>
      </trkpt>
      <trkpt lat="48.67296" lon="1.88378">
        <ele>154.65</ele>
        <time>2019-03-03T10:03:44Z</time>
      </trkpt>
      <trkpt lat="48.67315" lon="1.88385">
        <ele>155.08</ele>
        <time>2019-03-03T10:04:01Z</time>
      </trkpt>
      <trkpt lat="48.67334" lon="1.88392">
        <ele>155.38</ele>
        <time>2019-03-03T10:04:17Z</time>
      </trkpt>
      <trkpt lat="48.67356" lon="1.88398">
        <ele>154.66</ele>
        <time>2019-03-03T10:04:35Z</time>
      </trkpt>
      <trkpt lat="48.67373" lon="1.88402">
        <ele>154.97</ele>
        <time>2019-03-03T10:04:49Z</time>
      </trkpt>
      <trkpt lat="48.67376" lon="1.88402">
        <ele>154.67</ele>
        <time>2019-03-03T10:04:51Z</time>
      </trkpt>
      <trkpt lat="48.67381" lon="1.88399">
        <ele>155.29</ele>
        <time>2019-03-03T10:04:56Z</time>
      </trkpt>
      <trkpt lat="48.67389" lon="1.88393">
        <ele>155.36</ele>
        <time>2019-03-03T10:05:10Z</time>
      </trkpt>
      <trkpt lat="48.6739" lon="1.88391">
        <ele>155.21</ele>
        <time>2019-03-03T10:05:12Z</time>
      </trkpt>
      <trkpt lat="48.67406" lon="1.88378">
        <ele>155.59</ele>
        <time>2019-03-03T10:05:29Z</time>
      </trkpt>
      <trkpt lat="48.67421" lon="1.88365">
        <ele>155.03</ele>
        <time>2019-03-03T10:05:44Z</time>
      </trkpt>
      <trkpt lat="48.67438" lon="1.88352">
        <ele>155.6</ele>
        <time>2019-03-03T10:06:00Z</time>
      </trkpt>
      <trkpt lat="48.67454" lon="1.8834">
        <ele>154.8</ele>
        <time>2019-03-03T10:06:15Z</time>
      </trkpt>
      <trkpt lat="48.6747" lon="1.88328">
        <ele>154.68</ele>
        <time>2019-03-03T10:06:31Z</time>
      </trkpt>
      <trkpt lat="48.67478" lon="1.88321">
        <ele>154.68</ele>
        <time>2019-03-03T10:06:40Z</time>
      </trkpt>
      <trkpt lat="48.67498" lon="1.88307">
        <ele>155.03</ele>
        <time>2019-03-03T10:06:58Z</time>
      </trkpt>
      <trkpt lat="48.67515" lon="1.88294">
        <ele>154.91</ele>
        <time>2019-03-03T10:07:14Z</time>
      </trkpt>
      <trkpt lat="48.67534" lon="1.88279">
        <ele>154.64</ele>
        <time>2019-03-03T10:07:32Z</time>
      </trkpt>
      <trkpt lat="48.6754" lon="1.88274">
        <ele>156.61</ele>
        <time>2019-03-03T10:07:41Z</time>
      </trkpt>
      <trkpt lat="48.67544" lon="1.88271">
        <ele>155.8</ele>
        <time>2019-03-03T10:07:45Z</time>
      </trkpt>
      <trkpt lat="48.67559" lon="1.88258">
        <ele>155.68</ele>
        <time>2019-03-03T10:08:00Z</time>
      </trkpt>
      <trkpt lat="48.67563" lon="1.88251">
        <ele>155.36</ele>
        <time>2019-03-03T10:08:11Z</time>
      </trkpt>
      <trkpt lat="48.67565" lon="1.8825">
        <ele>155.39</ele>
        <time>2019-03-03T10:08:15Z</time>
      </trkpt>
      <trkpt lat="48.67568" lon="1.8825">
        <ele>155.75</ele>
        <time>2019-03-03T10:08:21Z</time>
      </trkpt>
      <trkpt lat="48.67571" lon="1.88248">
        <ele>156.2</ele>
        <time>2019-03-03T10:08:24Z</time>
      </trkpt>
      <trkpt lat="48.67585" lon="1.88239">
        <ele>155.78</ele>
        <time>2019-03-03T10:08:37Z</time>
      </trkpt>
      <trkpt lat="48.676" lon="1.88224">
        <ele>155.92</ele>
        <time>2019-03-03T10:08:53Z</time>
      </trkpt>
      <trkpt lat="48.67617" lon="1.88213">
        <ele>156.06</ele>
        <time>2019-03-03T10:09:09Z</time>
      </trkpt>
      <trkpt lat="48.67633" lon="1.88202">
        <ele>153.26</ele>
        <time>2019-03-03T10:09:27Z</time>
      </trkpt>
      <trkpt lat="48.67634" lon="1.882">
        <ele>156.62</ele>
        <time>2019-03-03T10:09:36Z</time>
      </trkpt>
      <trkpt lat="48.67651" lon="1.88185">
        <ele>155.98</ele>
        <time>2019-03-03T10:09:53Z</time>
      </trkpt>
      <trkpt lat="48.67666" lon="1.88174">
        <ele>157.16</ele>
        <time>2019-03-03T10:10:08Z</time>
      </trkpt>
      <trkpt lat="48.67681" lon="1.88163">
        <ele>156.59</ele>
        <time>2019-03-03T10:10:21Z</time>
      </trkpt>
      <trkpt lat="48.67694" lon="1.88151">
        <ele>156.91</ele>
        <time>2019-03-03T10:10:36Z</time>
      </trkpt>
      <trkpt lat="48.67709" lon="1.8814">
        <ele>156</ele>
        <time>2019-03-03T10:10:50Z</time>
      </trkpt>
      <trkpt lat="48.67711" lon="1.88137">
        <ele>156.93</ele>
        <time>2019-03-03T10:10:52Z</time>
      </trkpt>
      <trkpt lat="48.67716" lon="1.88133">
        <ele>157.18</ele>
        <time>2019-03-03T10:10:57Z</time>
      </trkpt>
      <trkpt lat="48.67737" lon="1.88116">
        <ele>156.36</ele>
        <time>2019-03-03T10:11:17Z</time>
      </trkpt>
      <trkpt lat="48.67749" lon="1.88108">
        <ele>156.39</ele>
        <time>2019-03-03T10:11:30Z</time>
      </trkpt>
      <trkpt lat="48.67763" lon="1.88097">
        <ele>157.54</ele>
        <time>2019-03-03T10:11:44Z</time>
      </trkpt>
      <trkpt lat="48.67778" lon="1.88083">
        <ele>158.39</ele>
        <time>2019-03-03T10:11:59Z</time>
      </trkpt>
      <trkpt lat="48.67792" lon="1.88071">
        <ele>157.34</ele>
        <time>2019-03-03T10:12:13Z</time>
      </trkpt>
      <trkpt lat="48.67808" lon="1.88059">
        <ele>158.09</ele>
        <time>2019-03-03T10:12:27Z</time>
      </trkpt>
      <trkpt lat="48.67825" lon="1.88045">
        <ele>157.13</ele>
        <time>2019-03-03T10:12:44Z</time>
      </trkpt>
      <trkpt lat="48.6783" lon="1.88041">
        <ele>157.06</ele>
        <time>2019-03-03T10:12:55Z</time>
      </trkpt>
      <trkpt lat="48.67835" lon="1.88037">
        <ele>157.08</ele>
        <time>2019-03-03T10:13:00Z</time>
      </trkpt>
      <trkpt lat="48.6785" lon="1.88024">
        <ele>157.83</ele>
        <time>2019-03-03T10:13:14Z</time>
      </trkpt>
      <trkpt lat="48.6786" lon="1.88017">
        <ele>158.13</ele>
        <time>2019-03-03T10:13:29Z</time>
      </trkpt>
      <trkpt lat="48.67874" lon="1.88007">
        <ele>157.25</ele>
        <time>2019-03-03T10:13:43Z</time>
      </trkpt>
      <trkpt lat="48.67881" lon="1.87999">
        <ele>157.68</ele>
        <time>2019-03-03T10:13:57Z</time>
      </trkpt>
      <trkpt lat="48.67884" lon="1.87998">
        <ele>158.09</ele>
        <time>2019-03-03T10:14:02Z</time>
      </trkpt>
      <trkpt lat="48.67902" lon="1.87983">
        <ele>156.47</ele>
        <time>2019-03-03T10:14:19Z</time>
      </trkpt>
      <trkpt lat="48.67903" lon="1.87982">
        <ele>156.56</ele>
        <time>2019-03-03T10:14:20Z</time>
      </trkpt>
      <trkpt lat="48.67906" lon="1.87981">
        <ele>157.81</ele>
        <time>2019-03-03T10:14:22Z</time>
      </trkpt>
      <trkpt lat="48.67922" lon="1.87967">
        <ele>157.96</ele>
        <time>2019-03-03T10:14:38Z</time>
      </trkpt>
      <trkpt lat="48.6794" lon="1.87953">
        <ele>157.28</ele>
        <time>2019-03-03T10:14:55Z</time>
      </trkpt>
      <trkpt lat="48.67956" lon="1.87939">
        <ele>157.72</ele>
        <time>2019-03-03T10:15:11Z</time>
      </trkpt>
      <trkpt lat="48.67968" lon="1.87928">
        <ele>158.19</ele>
        <time>2019-03-03T10:15:22Z</time>
      </trkpt>
      <trkpt lat="48.67986" lon="1.87916">
        <ele>158.3</ele>
        <time>2019-03-03T10:15:38Z</time>
      </trkpt>
      <trkpt lat="48.68002" lon="1.87902">
        <ele>158.63</ele>
        <time>2019-03-03T10:15:54Z</time>
      </trkpt>
      <trkpt lat="48.68019" lon="1.87888">
        <ele>157.75</ele>
        <time>2019-03-03T10:16:10Z</time>
      </trkpt>
      <trkpt lat="48.68032" lon="1.87875">
        <ele>158.31</ele>
        <time>2019-03-03T10:16:24Z</time>
      </trkpt>
      <trkpt lat="48.68036" lon="1.8787">
        <ele>159.22</ele>
        <time>2019-03-03T10:16:37Z</time>
      </trkpt>
      <trkpt lat="48.68051" lon="1.87858">
        <ele>159.08</ele>
        <time>2019-03-03T10:16:52Z</time>
      </trkpt>
      <trkpt lat="48.68062" lon="1.87848">
        <ele>159.42</ele>
        <time>2019-03-03T10:17:04Z</time>
      </trkpt>
      <trkpt lat="48.68079" lon="1.87835">
        <ele>159.39</ele>
        <time>2019-03-03T10:17:19Z</time>
      </trkpt>
      <trkpt lat="48.68094" lon="1.87824">
        <ele>160.04</ele>
        <time>2019-03-03T10:17:33Z</time>
      </trkpt>
      <trkpt lat="48.68102" lon="1.87817">
        <ele>160.01</ele>
        <time>2019-03-03T10:17:41Z</time>
      </trkpt>
      <trkpt lat="48.68113" lon="1.87808">
        <ele>160.41</ele>
        <time>2019-03-03T10:17:54Z</time>
      </trkpt>
      <trkpt lat="48.68127" lon="1.87794">
        <ele>160.18</ele>
        <time>2019-03-03T10:18:09Z</time>
      </trkpt>
      <trkpt lat="48.68143" lon="1.87782">
        <ele>160.45</ele>
        <time>2019-03-03T10:18:25Z</time>
      </trkpt>
      <trkpt lat="48.68156" lon="1.87772">
        <ele>159.95</ele>
        <time>2019-03-03T10:18:38Z</time>
      </trkpt>
      <trkpt lat="48.6817" lon="1.87762">
        <ele>160.69</ele>
        <time>2019-03-03T10:18:53Z</time>
      </trkpt>
      <trkpt lat="48.68172" lon="1.87759">
        <ele>160.35</ele>
        <time>2019-03-03T10:18:56Z</time>
      </trkpt>
      <trkpt lat="48.68184" lon="1.87747">
        <ele>160.63</ele>
        <time>2019-03-03T10:19:12Z</time>
      </trkpt>
      <trkpt lat="48.68195" lon="1.87735">
        <ele>160.23</ele>
        <time>2019-03-03T10:19:28Z</time>
      </trkpt>
      <trkpt lat="48.68209" lon="1.8772">
        <ele>160.3</ele>
        <time>2019-03-03T10:19:46Z</time>
      </trkpt>
      <trkpt lat="48.68218" lon="1.87715">
        <ele>160.95</ele>
        <time>2019-03-03T10:19:56Z</time>
      </trkpt>
      <trkpt lat="48.68232" lon="1.87706">
        <ele>159.86</ele>
        <time>2019-03-03T10:20:12Z</time>
      </trkpt>
      <trkpt lat="48.68249" lon="1.87694">
        <ele>160.26</ele>
        <time>2019-03-03T10:20:27Z</time>
      </trkpt>
      <trkpt lat="48.68266" lon="1.8768">
        <ele>160.23</ele>
        <time>2019-03-03T10:20:43Z</time>
      </trkpt>
      <trkpt lat="48.68274" lon="1.87677">
        <ele>159.39</ele>
        <time>2019-03-03T10:21:01Z</time>
      </trkpt>
      <trkpt lat="48.68279" lon="1.87674">
        <ele>159.44</ele>
        <time>2019-03-03T10:21:09Z</time>
      </trkpt>
      <trkpt lat="48.68284" lon="1.87672">
        <ele>159.97</ele>
        <time>2019-03-03T10:21:14Z</time>
      </trkpt>
      <trkpt lat="48.68292" lon="1.87669">
        <ele>160.59</ele>
        <time>2019-03-03T10:21:35Z</time>
      </trkpt>
      <trkpt lat="48.68295" lon="1.87671">
        <ele>161.14</ele>
        <time>2019-03-03T10:22:00Z</time>
      </trkpt>
      <trkpt lat="48.68298" lon="1.87677">
        <ele>161.08</ele>
        <time>2019-03-03T10:22:16Z</time>
      </trkpt>
      <trkpt lat="48.68299" lon="1.87679">
        <ele>161.65</ele>
        <time>2019-03-03T10:22:18Z</time>
      </trkpt>
      <trkpt lat="48.68305" lon="1.87695">
        <ele>161.06</ele>
        <time>2019-03-03T10:22:29Z</time>
      </trkpt>
      <trkpt lat="48.6831" lon="1.8771">
        <ele>159.78</ele>
        <time>2019-03-03T10:22:43Z</time>
      </trkpt>
      <trkpt lat="48.68312" lon="1.87715">
        <ele>160.51</ele>
        <time>2019-03-03T10:22:51Z</time>
      </trkpt>
      <trkpt lat="48.68316" lon="1.87725">
        <ele>160.46</ele>
        <time>2019-03-03T10:22:57Z</time>
      </trkpt>
      <trkpt lat="48.68328" lon="1.87761">
        <ele>160.02</ele>
        <time>2019-03-03T10:23:19Z</time>
      </trkpt>
      <trkpt lat="48.68334" lon="1.8779">
        <ele>160.74</ele>
        <time>2019-03-03T10:23:37Z</time>
      </trkpt>
      <trkpt lat="48.68335" lon="1.87791">
        <ele>161.15</ele>
        <time>2019-03-03T10:23:59Z</time>
      </trkpt>
      <trkpt lat="48.68336" lon="1.87793">
        <ele>161.18</ele>
        <time>2019-03-03T10:24:13Z</time>
      </trkpt>
      <trkpt lat="48.6834" lon="1.87799">
        <ele>160.6</ele>
        <time>2019-03-03T10:24:20Z</time>
      </trkpt>
      <trkpt lat="48.68347" lon="1.87813">
        <ele>160.83</ele>
        <time>2019-03-03T10:24:33Z</time>
      </trkpt>
      <trkpt lat="48.68349" lon="1.87822">
        <ele>161.23</ele>
        <time>2019-03-03T10:24:41Z</time>
      </trkpt>
      <trkpt lat="48.68351" lon="1.87828">
        <ele>160.82</ele>
        <time>2019-03-03T10:24:45Z</time>
      </trkpt>
      <trkpt lat="48.6836" lon="1.87848">
        <ele>161.1</ele>
        <time>2019-03-03T10:24:58Z</time>
      </trkpt>
      <trkpt lat="48.68362" lon="1.87855">
        <ele>160.6</ele>
        <time>2019-03-03T10:25:03Z</time>
      </trkpt>
      <trkpt lat="48.68366" lon="1.87871">
        <ele>161.11</ele>
        <time>2019-03-03T10:25:13Z</time>
      </trkpt>
      <trkpt lat="48.68374" lon="1.87889">
        <ele>162.13</ele>
        <time>2019-03-03T10:25:25Z</time>
      </trkpt>
      <trkpt lat="48.68384" lon="1.87913">
        <ele>160.58</ele>
        <time>2019-03-03T10:25:40Z</time>
      </trkpt>
      <trkpt lat="48.68386" lon="1.87918">
        <ele>161.34</ele>
        <time>2019-03-03T10:25:47Z</time>
      </trkpt>
      <trkpt lat="48.68389" lon="1.87928">
        <ele>161.04</ele>
        <time>2019-03-03T10:26:07Z</time>
      </trkpt>
      <trkpt lat="48.6839" lon="1.87933">
        <ele>160.45</ele>
        <time>2019-03-03T10:26:12Z</time>
      </trkpt>
      <trkpt lat="48.68398" lon="1.87954">
        <ele>160.85</ele>
        <time>2019-03-03T10:26:27Z</time>
      </trkpt>
      <trkpt lat="48.68406" lon="1.87973">
        <ele>160.79</ele>
        <time>2019-03-03T10:26:40Z</time>
      </trkpt>
      <trkpt lat="48.68407" lon="1.87974">
        <ele>160.78</ele>
        <time>2019-03-03T10:26:41Z</time>
      </trkpt>
      <trkpt lat="48.68411" lon="1.87988">
        <ele>160.41</ele>
        <time>2019-03-03T10:26:50Z</time>
      </trkpt>
      <trkpt lat="48.68415" lon="1.88007">
        <ele>160.96</ele>
        <time>2019-03-03T10:27:03Z</time>
      </trkpt>
      <trkpt lat="48.68419" lon="1.88014">
        <ele>161.01</ele>
        <time>2019-03-03T10:27:08Z</time>
      </trkpt>
      <trkpt lat="48.68426" lon="1.88037">
        <ele>161.43</ele>
        <time>2019-03-03T10:27:22Z</time>
      </trkpt>
      <trkpt lat="48.68431" lon="1.88063">
        <ele>161.5</ele>
        <time>2019-03-03T10:27:39Z</time>
      </trkpt>
      <trkpt lat="48.68436" lon="1.88074">
        <ele>160.9</ele>
        <time>2019-03-03T10:27:45Z</time>
      </trkpt>
      <trkpt lat="48.68449" lon="1.88096">
        <ele>161.3</ele>
        <time>2019-03-03T10:27:59Z</time>
      </trkpt>
      <trkpt lat="48.68456" lon="1.8812">
        <ele>160.82</ele>
        <time>2019-03-03T10:28:14Z</time>
      </trkpt>
      <trkpt lat="48.68464" lon="1.88145">
        <ele>160.73</ele>
        <time>2019-03-03T10:28:31Z</time>
      </trkpt>
      <trkpt lat="48.68473" lon="1.88161">
        <ele>160.77</ele>
        <time>2019-03-03T10:28:48Z</time>
      </trkpt>
      <trkpt lat="48.68477" lon="1.88175">
        <ele>160.84</ele>
        <time>2019-03-03T10:28:56Z</time>
      </trkpt>
      <trkpt lat="48.68486" lon="1.88198">
        <ele>160.86</ele>
        <time>2019-03-03T10:29:13Z</time>
      </trkpt>
      <trkpt lat="48.68492" lon="1.88227">
        <ele>161.39</ele>
        <time>2019-03-03T10:29:31Z</time>
      </trkpt>
      <trkpt lat="48.68493" lon="1.88236">
        <ele>161.59</ele>
        <time>2019-03-03T10:29:36Z</time>
      </trkpt>
      <trkpt lat="48.68497" lon="1.88254">
        <ele>161.95</ele>
        <time>2019-03-03T10:29:46Z</time>
      </trkpt>
      <trkpt lat="48.68509" lon="1.88281">
        <ele>161.59</ele>
        <time>2019-03-03T10:30:01Z</time>
      </trkpt>
      <trkpt lat="48.68518" lon="1.88297">
        <ele>160.92</ele>
        <time>2019-03-03T10:30:15Z</time>
      </trkpt>
      <trkpt lat="48.68522" lon="1.8831">
        <ele>161.29</ele>
        <time>2019-03-03T10:30:32Z</time>
      </trkpt>
      <trkpt lat="48.68528" lon="1.88331">
        <ele>161.06</ele>
        <time>2019-03-03T10:30:46Z</time>
      </trkpt>
      <trkpt lat="48.68535" lon="1.88343">
        <ele>160.48</ele>
        <time>2019-03-03T10:30:53Z</time>
      </trkpt>
      <trkpt lat="48.68541" lon="1.88367">
        <ele>160.43</ele>
        <time>2019-03-03T10:31:09Z</time>
      </trkpt>
      <trkpt lat="48.68546" lon="1.88379">
        <ele>160.28</ele>
        <time>2019-03-03T10:31:17Z</time>
      </trkpt>
      <trkpt lat="48.68557" lon="1.88406">
        <ele>160.11</ele>
        <time>2019-03-03T10:31:33Z</time>
      </trkpt>
      <trkpt lat="48.68565" lon="1.88424">
        <ele>159.07</ele>
        <time>2019-03-03T10:31:46Z</time>
      </trkpt>
      <trkpt lat="48.6857" lon="1.88435">
        <ele>159.9</ele>
        <time>2019-03-03T10:31:54Z</time>
      </trkpt>
      <trkpt lat="48.68577" lon="1.88457">
        <ele>159.62</ele>
        <time>2019-03-03T10:32:09Z</time>
      </trkpt>
      <trkpt lat="48.68583" lon="1.88482">
        <ele>160.71</ele>
        <time>2019-03-03T10:32:27Z</time>
      </trkpt>
      <trkpt lat="48.68587" lon="1.88506">
        <ele>159.8</ele>
        <time>2019-03-03T10:32:42Z</time>
      </trkpt>
      <trkpt lat="48.68592" lon="1.88531">
        <ele>159.43</ele>
        <time>2019-03-03T10:32:59Z</time>
      </trkpt>
      <trkpt lat="48.68596" lon="1.88562">
        <ele>159.04</ele>
        <time>2019-03-03T10:33:19Z</time>
      </trkpt>
      <trkpt lat="48.68598" lon="1.88588">
        <ele>158.64</ele>
        <time>2019-03-03T10:33:35Z</time>
      </trkpt>
      <trkpt lat="48.68596" lon="1.88625">
        <ele>157.85</ele>
        <time>2019-03-03T10:33:53Z</time>
      </trkpt>
      <trkpt lat="48.68597" lon="1.88659">
        <ele>159.09</ele>
        <time>2019-03-03T10:34:12Z</time>
      </trkpt>
      <trkpt lat="48.68596" lon="1.88695">
        <ele>159.24</ele>
        <time>2019-03-03T10:34:32Z</time>
      </trkpt>
      <trkpt lat="48.68597" lon="1.88733">
        <ele>158.96</ele>
        <time>2019-03-03T10:34:52Z</time>
      </trkpt>
      <trkpt lat="48.68597" lon="1.8876">
        <ele>158.49</ele>
        <time>2019-03-03T10:35:06Z</time>
      </trkpt>
      <trkpt lat="48.68598" lon="1.88763">
        <ele>158.92</ele>
        <time>2019-03-03T10:35:09Z</time>
      </trkpt>
      <trkpt lat="48.68599" lon="1.88772">
        <ele>159.06</ele>
        <time>2019-03-03T10:35:33Z</time>
      </trkpt>
      <trkpt lat="48.68599" lon="1.88772">
        <ele>159.21</ele>
        <time>2019-03-03T10:35:34Z</time>
      </trkpt>
      <trkpt lat="48.686" lon="1.88774">
        <ele>158.65</ele>
        <time>2019-03-03T10:35:51Z</time>
      </trkpt>
      <trkpt lat="48.68602" lon="1.88774">
        <ele>158.62</ele>
        <time>2019-03-03T10:36:13Z</time>
      </trkpt>
      <trkpt lat="48.68603" lon="1.88776">
        <ele>159.1</ele>
        <time>2019-03-03T10:36:38Z</time>
      </trkpt>
      <trkpt lat="48.68602" lon="1.88792">
        <ele>158.93</ele>
        <time>2019-03-03T10:37:00Z</time>
      </trkpt>
      <trkpt lat="48.686" lon="1.8881">
        <ele>158.79</ele>
        <time>2019-03-03T10:37:17Z</time>
      </trkpt>
      <trkpt lat="48.68601" lon="1.88831">
        <ele>158.42</ele>
        <time>2019-03-03T10:37:33Z</time>
      </trkpt>
      <trkpt lat="48.68602" lon="1.8885">
        <ele>158.66</ele>
        <time>2019-03-03T10:37:52Z</time>
      </trkpt>
      <trkpt lat="48.68603" lon="1.88886">
        <ele>159.1</ele>
        <time>2019-03-03T10:38:13Z</time>
      </trkpt>
      <trkpt lat="48.68602" lon="1.88913">
        <ele>159.49</ele>
        <time>2019-03-03T10:38:31Z</time>
      </trkpt>
      <trkpt lat="48.68602" lon="1.88939">
        <ele>159.98</ele>
        <time>2019-03-03T10:38:49Z</time>
      </trkpt>
      <trkpt lat="48.68599" lon="1.88962">
        <ele>159.46</ele>
        <time>2019-03-03T10:39:08Z</time>
      </trkpt>
      <trkpt lat="48.68596" lon="1.88995">
        <ele>159.38</ele>
        <time>2019-03-03T10:39:28Z</time>
      </trkpt>
      <trkpt lat="48.68598" lon="1.89027">
        <ele>159.78</ele>
        <time>2019-03-03T10:39:49Z</time>
      </trkpt>
      <trkpt lat="48.68599" lon="1.89062">
        <ele>160.15</ele>
        <time>2019-03-03T10:40:07Z</time>
      </trkpt>
      <trkpt lat="48.68601" lon="1.89092">
        <ele>160.16</ele>
        <time>2019-03-03T10:40:25Z</time>
      </trkpt>
      <trkpt lat="48.68605" lon="1.89129">
        <ele>161.1</ele>
        <time>2019-03-03T10:40:43Z</time>
      </trkpt>
      <trkpt lat="48.68606" lon="1.89152">
        <ele>160.85</ele>
        <time>2019-03-03T10:40:58Z</time>
      </trkpt>
      <trkpt lat="48.68607" lon="1.89185">
        <ele>161.11</ele>
        <time>2019-03-03T10:41:16Z</time>
      </trkpt>
      <trkpt lat="48.68606" lon="1.89221">
        <ele>160.96</ele>
        <time>2019-03-03T10:41:36Z</time>
      </trkpt>
      <trkpt lat="48.68606" lon="1.89246">
        <ele>161.48</ele>
        <time>2019-03-03T10:41:52Z</time>
      </trkpt>
      <trkpt lat="48.68605" lon="1.89278">
        <ele>160.87</ele>
        <time>2019-03-03T10:42:09Z</time>
      </trkpt>
      <trkpt lat="48.68604" lon="1.89318">
        <ele>161.23</ele>
        <time>2019-03-03T10:42:30Z</time>
      </trkpt>
      <trkpt lat="48.68604" lon="1.89343">
        <ele>160.66</ele>
        <time>2019-03-03T10:42:46Z</time>
      </trkpt>
      <trkpt lat="48.68604" lon="1.8935">
        <ele>160.58</ele>
        <time>2019-03-03T10:42:49Z</time>
      </trkpt>
      <trkpt lat="48.68605" lon="1.89363">
        <ele>160.68</ele>
        <time>2019-03-03T10:42:56Z</time>
      </trkpt>
      <trkpt lat="48.68603" lon="1.89399">
        <ele>160.43</ele>
        <time>2019-03-03T10:43:16Z</time>
      </trkpt>
      <trkpt lat="48.68604" lon="1.89425">
        <ele>160.7</ele>
        <time>2019-03-03T10:43:30Z</time>
      </trkpt>
      <trkpt lat="48.68609" lon="1.89456">
        <ele>160.63</ele>
        <time>2019-03-03T10:43:51Z</time>
      </trkpt>
      <trkpt lat="48.68607" lon="1.89488">
        <ele>159.97</ele>
        <time>2019-03-03T10:44:07Z</time>
      </trkpt>
      <trkpt lat="48.68609" lon="1.89521">
        <ele>159.48</ele>
        <time>2019-03-03T10:44:25Z</time>
      </trkpt>
      <trkpt lat="48.68608" lon="1.89523">
        <ele>159.48</ele>
        <time>2019-03-03T10:44:26Z</time>
      </trkpt>
      <trkpt lat="48.68607" lon="1.89554">
        <ele>159.6</ele>
        <time>2019-03-03T10:44:43Z</time>
      </trkpt>
      <trkpt lat="48.68605" lon="1.89584">
        <ele>160.08</ele>
        <time>2019-03-03T10:44:58Z</time>
      </trkpt>
      <trkpt lat="48.68603" lon="1.89617">
        <ele>159.66</ele>
        <time>2019-03-03T10:45:14Z</time>
      </trkpt>
      <trkpt lat="48.68604" lon="1.89647">
        <ele>159.87</ele>
        <time>2019-03-03T10:45:33Z</time>
      </trkpt>
      <trkpt lat="48.68604" lon="1.89652">
        <ele>160.22</ele>
        <time>2019-03-03T10:45:36Z</time>
      </trkpt>
      <trkpt lat="48.68603" lon="1.89673">
        <ele>160.2</ele>
        <time>2019-03-03T10:45:49Z</time>
      </trkpt>
      <trkpt lat="48.68602" lon="1.89687">
        <ele>160.18</ele>
        <time>2019-03-03T10:46:03Z</time>
      </trkpt>
      <trkpt lat="48.68601" lon="1.89694">
        <ele>160.34</ele>
        <time>2019-03-03T10:46:22Z</time>
      </trkpt>
      <trkpt lat="48.68606" lon="1.89685">
        <ele>160.08</ele>
        <time>2019-03-03T10:46:35Z</time>
      </trkpt>
      <trkpt lat="48.68605" lon="1.89693">
        <ele>160.53</ele>
        <time>2019-03-03T10:46:45Z</time>
      </trkpt>
      <trkpt lat="48.68605" lon="1.89716">
        <ele>160.27</ele>
        <time>2019-03-03T10:46:59Z</time>
      </trkpt>
      <trkpt lat="48.68602" lon="1.89734">
        <ele>160.26</ele>
        <time>2019-03-03T10:47:11Z</time>
      </trkpt>
      <trkpt lat="48.68603" lon="1.89756">
        <ele>159.85</ele>
        <time>2019-03-03T10:47:27Z</time>
      </trkpt>
      <trkpt lat="48.68604" lon="1.89759">
        <ele>159.7</ele>
        <time>2019-03-03T10:47:29Z</time>
      </trkpt>
      <trkpt lat="48.68605" lon="1.89781">
        <ele>159.96</ele>
        <time>2019-03-03T10:47:43Z</time>
      </trkpt>
      <trkpt lat="48.68605" lon="1.89811">
        <ele>159.82</ele>
        <time>2019-03-03T10:48:03Z</time>
      </trkpt>
      <trkpt lat="48.68606" lon="1.89838">
        <ele>160.63</ele>
        <time>2019-03-03T10:48:20Z</time>
      </trkpt>
      <trkpt lat="48.68606" lon="1.89841">
        <ele>161</ele>
        <time>2019-03-03T10:48:22Z</time>
      </trkpt>
      <trkpt lat="48.68605" lon="1.89863">
        <ele>161.18</ele>
        <time>2019-03-03T10:48:36Z</time>
      </trkpt>
      <trkpt lat="48.68606" lon="1.89889">
        <ele>160.3</ele>
        <time>2019-03-03T10:48:54Z</time>
      </trkpt>
      <trkpt lat="48.68606" lon="1.89892">
        <ele>160.67</ele>
        <time>2019-03-03T10:48:56Z</time>
      </trkpt>
      <trkpt lat="48.68603" lon="1.89933">
        <ele>160.34</ele>
        <time>2019-03-03T10:49:18Z</time>
      </trkpt>
      <trkpt lat="48.68603" lon="1.89938">
        <ele>160.37</ele>
        <time>2019-03-03T10:49:20Z</time>
      </trkpt>
      <trkpt lat="48.68601" lon="1.89958">
        <ele>160.88</ele>
        <time>2019-03-03T10:49:33Z</time>
      </trkpt>
      <trkpt lat="48.68605" lon="1.89985">
        <ele>160.51</ele>
        <time>2019-03-03T10:49:48Z</time>
      </trkpt>
      <trkpt lat="48.68606" lon="1.89997">
        <ele>160.25</ele>
        <time>2019-03-03T10:49:55Z</time>
      </trkpt>
      <trkpt lat="48.68605" lon="1.90022">
        <ele>159.77</ele>
        <time>2019-03-03T10:50:08Z</time>
      </trkpt>
      <trkpt lat="48.68605" lon="1.9003">
        <ele>160.1</ele>
        <time>2019-03-03T10:50:12Z</time>
      </trkpt>
      <trkpt lat="48.68607" lon="1.90048">
        <ele>160.18</ele>
        <time>2019-03-03T10:50:21Z</time>
      </trkpt>
      <trkpt lat="48.68605" lon="1.90076">
        <ele>160.07</ele>
        <time>2019-03-03T10:50:37Z</time>
      </trkpt>
      <trkpt lat="48.68606" lon="1.9008">
        <ele>160.01</ele>
        <time>2019-03-03T10:50:40Z</time>
      </trkpt>
      <trkpt lat="48.68605" lon="1.90106">
        <ele>160.96</ele>
        <time>2019-03-03T10:50:53Z</time>
      </trkpt>
      <trkpt lat="48.68603" lon="1.90128">
        <ele>160.62</ele>
        <time>2019-03-03T10:51:04Z</time>
      </trkpt>
      <trkpt lat="48.68603" lon="1.90132">
        <ele>160.6</ele>
        <time>2019-03-03T10:51:06Z</time>
      </trkpt>
      <trkpt lat="48.68604" lon="1.90147">
        <ele>160.01</ele>
        <time>2019-03-03T10:51:15Z</time>
      </trkpt>
      <trkpt lat="48.68603" lon="1.90152">
        <ele>159.83</ele>
        <time>2019-03-03T10:51:18Z</time>
      </trkpt>
      <trkpt lat="48.68603" lon="1.90165">
        <ele>160.01</ele>
        <time>2019-03-03T10:51:25Z</time>
      </trkpt>
      <trkpt lat="48.68603" lon="1.90189">
        <ele>160.22</ele>
        <time>2019-03-03T10:51:38Z</time>
      </trkpt>
      <trkpt lat="48.68603" lon="1.9021">
        <ele>160.58</ele>
        <time>2019-03-03T10:51:50Z</time>
      </trkpt>
      <trkpt lat="48.68603" lon="1.90234">
        <ele>160.74</ele>
        <time>2019-03-03T10:52:04Z</time>
      </trkpt>
      <trkpt lat="48.68603" lon="1.90244">
        <ele>160.55</ele>
        <time>2019-03-03T10:52:09Z</time>
      </trkpt>
      <trkpt lat="48.68603" lon="1.90255">
        <ele>160.57</ele>
        <time>2019-03-03T10:52:15Z</time>
      </trkpt>
      <trkpt lat="48.68602" lon="1.90287">
        <ele>160.75</ele>
        <time>2019-03-03T10:52:30Z</time>
      </trkpt>
      <trkpt lat="48.68602" lon="1.90289">
        <ele>159.99</ele>
        <time>2019-03-03T10:52:31Z</time>
      </trkpt>
      <trkpt lat="48.68602" lon="1.90293">
        <ele>160.6</ele>
        <time>2019-03-03T10:52:33Z</time>
      </trkpt>
      <trkpt lat="48.68601" lon="1.90305">
        <ele>160.67</ele>
        <time>2019-03-03T10:52:41Z</time>
      </trkpt>
      <trkpt lat="48.68602" lon="1.90312">
        <ele>160.4</ele>
        <time>2019-03-03T10:52:45Z</time>
      </trkpt>
      <trkpt lat="48.68605" lon="1.90343">
        <ele>160.32</ele>
        <time>2019-03-03T10:53:01Z</time>
      </trkpt>
      <trkpt lat="48.68605" lon="1.90368">
        <ele>160.83</ele>
        <time>2019-03-03T10:53:15Z</time>
      </trkpt>
      <trkpt lat="48.68605" lon="1.90392">
        <ele>160.42</ele>
        <time>2019-03-03T10:53:31Z</time>
      </trkpt>
      <trkpt lat="48.68605" lon="1.90424">
        <ele>160.43</ele>
        <time>2019-03-03T10:53:48Z</time>
      </trkpt>
      <trkpt lat="48.68604" lon="1.90454">
        <ele>160.73</ele>
        <time>2019-03-03T10:54:04Z</time>
      </trkpt>
      <trkpt lat="48.68604" lon="1.90477">
        <ele>160.04</ele>
        <time>2019-03-03T10:54:17Z</time>
      </trkpt>
      <trkpt lat="48.68605" lon="1.90501">
        <ele>160.28</ele>
        <time>2019-03-03T10:54:34Z</time>
      </trkpt>
      <trkpt lat="48.68605" lon="1.90525">
        <ele>160.43</ele>
        <time>2019-03-03T10:54:54Z</time>
      </trkpt>
      <trkpt lat="48.68603" lon="1.90528">
        <ele>159.47</ele>
        <time>2019-03-03T10:55:15Z</time>
      </trkpt>
      <trkpt lat="48.68604" lon="1.90532">
        <ele>161.15</ele>
        <time>2019-03-03T10:55:34Z</time>
      </trkpt>
      <trkpt lat="48.68604" lon="1.90524">
        <ele>161.34</ele>
        <time>2019-03-03T10:55:57Z</time>
      </trkpt>
      <trkpt lat="48.68602" lon="1.90528">
        <ele>161.24</ele>
        <time>2019-03-03T10:56:19Z</time>
      </trkpt>
      <trkpt lat="48.68601" lon="1.90537">
        <ele>161.29</ele>
        <time>2019-03-03T10:56:37Z</time>
      </trkpt>
      <trkpt lat="48.68599" lon="1.9054">
        <ele>160.76</ele>
        <time>2019-03-03T10:57:00Z</time>
      </trkpt>
      <trkpt lat="48.68603" lon="1.90559">
        <ele>161.05</ele>
        <time>2019-03-03T10:57:18Z</time>
      </trkpt>
      <trkpt lat="48.6861" lon="1.90571">
        <ele>161.79</ele>
        <time>2019-03-03T10:57:38Z</time>
      </trkpt>
      <trkpt lat="48.68608" lon="1.90594">
        <ele>161.39</ele>
        <time>2019-03-03T10:57:56Z</time>
      </trkpt>
      <trkpt lat="48.68608" lon="1.90622">
        <ele>161.53</ele>
        <time>2019-03-03T10:58:15Z</time>
      </trkpt>
      <trkpt lat="48.68603" lon="1.9065">
        <ele>161.51</ele>
        <time>2019-03-03T10:58:37Z</time>
      </trkpt>
      <trkpt lat="48.686" lon="1.90657">
        <ele>161.7</ele>
        <time>2019-03-03T10:59:01Z</time>
      </trkpt>
      <trkpt lat="48.68602" lon="1.90669">
        <ele>161.27</ele>
        <time>2019-03-03T10:59:19Z</time>
      </trkpt>
      <trkpt lat="48.68601" lon="1.9069">
        <ele>161.24</ele>
        <time>2019-03-03T10:59:39Z</time>
      </trkpt>
      <trkpt lat="48.68603" lon="1.90709">
        <ele>160.88</ele>
        <time>2019-03-03T10:59:52Z</time>
      </trkpt>
      <trkpt lat="48.68604" lon="1.90739">
        <ele>159.58</ele>
        <time>2019-03-03T11:00:13Z</time>
      </trkpt>
      <trkpt lat="48.68603" lon="1.90755">
        <ele>159.26</ele>
        <time>2019-03-03T11:00:21Z</time>
      </trkpt>
      <trkpt lat="48.68603" lon="1.90759">
        <ele>159.31</ele>
        <time>2019-03-03T11:00:31Z</time>
      </trkpt>
      <trkpt lat="48.68604" lon="1.90752">
        <ele>160.24</ele>
        <time>2019-03-03T11:00:36Z</time>
      </trkpt>
      <trkpt lat="48.6861" lon="1.90745">
        <ele>160.59</ele>
        <time>2019-03-03T11:00:50Z</time>
      </trkpt>
      <trkpt lat="48.6861" lon="1.90747">
        <ele>160.99</ele>
        <time>2019-03-03T11:01:10Z</time>
      </trkpt>
      <trkpt lat="48.68611" lon="1.90749">
        <ele>160.99</ele>
        <time>2019-03-03T11:01:11Z</time>
      </trkpt>
      <trkpt lat="48.68624" lon="1.90751">
        <ele>162.02</ele>
        <time>2019-03-03T11:01:24Z</time>
      </trkpt>
      <trkpt lat="48.68636" lon="1.90748">
        <ele>162.31</ele>
        <time>2019-03-03T11:01:40Z</time>
      </trkpt>
      <trkpt lat="48.68653" lon="1.90747">
        <ele>162.06</ele>
        <time>2019-03-03T11:02:02Z</time>
      </trkpt>
      <trkpt lat="48.6866" lon="1.90747">
        <ele>162.05</ele>
        <time>2019-03-03T11:02:09Z</time>
      </trkpt>
      <trkpt lat="48.68682" lon="1.90749">
        <ele>160.75</ele>
        <time>2019-03-03T11:02:29Z</time>
      </trkpt>
      <trkpt lat="48.68693" lon="1.90749">
        <ele>158.72</ele>
        <time>2019-03-03T11:02:36Z</time>
      </trkpt>
      <trkpt lat="48.68697" lon="1.90747">
        <ele>160.33</ele>
        <time>2019-03-03T11:02:40Z</time>
      </trkpt>
      <trkpt lat="48.68709" lon="1.90744">
        <ele>158.11</ele>
        <time>2019-03-03T11:03:01Z</time>
      </trkpt>
      <trkpt lat="48.6872" lon="1.90743">
        <ele>154.95</ele>
        <time>2019-03-03T11:03:15Z</time>
      </trkpt>
      <trkpt lat="48.68721" lon="1.90744">
        <ele>153.95</ele>
        <time>2019-03-03T11:03:17Z</time>
      </trkpt>
      <trkpt lat="48.68729" lon="1.90739">
        <ele>150.91</ele>
        <time>2019-03-03T11:03:37Z</time>
      </trkpt>
      <trkpt lat="48.68735" lon="1.90748">
        <ele>148.33</ele>
        <time>2019-03-03T11:04:00Z</time>
      </trkpt>
      <trkpt lat="48.68744" lon="1.90748">
        <ele>145.19</ele>
        <time>2019-03-03T11:04:12Z</time>
      </trkpt>
      <trkpt lat="48.68762" lon="1.90751">
        <ele>141.77</ele>
        <time>2019-03-03T11:04:29Z</time>
      </trkpt>
      <trkpt lat="48.6877" lon="1.90751">
        <ele>141.87</ele>
        <time>2019-03-03T11:04:36Z</time>
      </trkpt>
      <trkpt lat="48.68784" lon="1.90746">
        <ele>140.63</ele>
        <time>2019-03-03T11:04:51Z</time>
      </trkpt>
      <trkpt lat="48.68792" lon="1.90749">
        <ele>137.43</ele>
        <time>2019-03-03T11:05:05Z</time>
      </trkpt>
      <trkpt lat="48.68804" lon="1.90753">
        <ele>134.37</ele>
        <time>2019-03-03T11:05:18Z</time>
      </trkpt>
      <trkpt lat="48.68823" lon="1.9075">
        <ele>133.09</ele>
        <time>2019-03-03T11:05:36Z</time>
      </trkpt>
      <trkpt lat="48.68837" lon="1.90747">
        <ele>131.61</ele>
        <time>2019-03-03T11:05:50Z</time>
      </trkpt>
      <trkpt lat="48.6885" lon="1.90749">
        <ele>129.45</ele>
        <time>2019-03-03T11:06:08Z</time>
      </trkpt>
      <trkpt lat="48.68869" lon="1.90751">
        <ele>127.03</ele>
        <time>2019-03-03T11:06:29Z</time>
      </trkpt>
      <trkpt lat="48.68887" lon="1.9075">
        <ele>126.42</ele>
        <time>2019-03-03T11:06:46Z</time>
      </trkpt>
      <trkpt lat="48.68901" lon="1.90756">
        <ele>126.06</ele>
        <time>2019-03-03T11:06:58Z</time>
      </trkpt>
      <trkpt lat="48.68919" lon="1.90755">
        <ele>125.41</ele>
        <time>2019-03-03T11:07:16Z</time>
      </trkpt>
      <trkpt lat="48.68929" lon="1.90756">
        <ele>125.16</ele>
        <time>2019-03-03T11:07:34Z</time>
      </trkpt>
      <trkpt lat="48.68944" lon="1.90752">
        <ele>125.75</ele>
        <time>2019-03-03T11:07:50Z</time>
      </trkpt>
      <trkpt lat="48.68962" lon="1.90754">
        <ele>126.43</ele>
        <time>2019-03-03T11:08:08Z</time>
      </trkpt>
      <trkpt lat="48.6897" lon="1.90756">
        <ele>127.97</ele>
        <time>2019-03-03T11:08:18Z</time>
      </trkpt>
      <trkpt lat="48.68983" lon="1.9076">
        <ele>127.48</ele>
        <time>2019-03-03T11:08:40Z</time>
      </trkpt>
      <trkpt lat="48.69002" lon="1.90772">
        <ele>127.87</ele>
        <time>2019-03-03T11:08:58Z</time>
      </trkpt>
      <trkpt lat="48.69025" lon="1.90793">
        <ele>128.93</ele>
        <time>2019-03-03T11:09:16Z</time>
      </trkpt>
      <trkpt lat="48.69042" lon="1.90815">
        <ele>129.3</ele>
        <time>2019-03-03T11:09:36Z</time>
      </trkpt>
      <trkpt lat="48.69048" lon="1.90821">
        <ele>129.17</ele>
        <time>2019-03-03T11:09:45Z</time>
      </trkpt>
      <trkpt lat="48.69056" lon="1.90829">
        <ele>129.37</ele>
        <time>2019-03-03T11:10:05Z</time>
      </trkpt>
      <trkpt lat="48.69066" lon="1.90851">
        <ele>130.16</ele>
        <time>2019-03-03T11:10:26Z</time>
      </trkpt>
      <trkpt lat="48.69073" lon="1.90862">
        <ele>130.37</ele>
        <time>2019-03-03T11:10:34Z</time>
      </trkpt>
      <trkpt lat="48.69096" lon="1.9087">
        <ele>131.3</ele>
        <time>2019-03-03T11:10:49Z</time>
      </trkpt>
      <trkpt lat="48.69114" lon="1.90869">
        <ele>130.89</ele>
        <time>2019-03-03T11:11:09Z</time>
      </trkpt>
      <trkpt lat="48.69129" lon="1.90867">
        <ele>131.19</ele>
        <time>2019-03-03T11:11:23Z</time>
      </trkpt>
      <trkpt lat="48.69145" lon="1.90861">
        <ele>131.53</ele>
        <time>2019-03-03T11:11:39Z</time>
      </trkpt>
      <trkpt lat="48.69153" lon="1.9086">
        <ele>131.55</ele>
        <time>2019-03-03T11:12:01Z</time>
      </trkpt>
      <trkpt lat="48.69157" lon="1.90861">
        <ele>130.64</ele>
        <time>2019-03-03T11:12:06Z</time>
      </trkpt>
      <trkpt lat="48.6916" lon="1.90861">
        <ele>130.38</ele>
        <time>2019-03-03T11:12:08Z</time>
      </trkpt>
      <trkpt lat="48.69177" lon="1.90861">
        <ele>130.01</ele>
        <time>2019-03-03T11:12:24Z</time>
      </trkpt>
      <trkpt lat="48.69196" lon="1.90852">
        <ele>129.3</ele>
        <time>2019-03-03T11:12:41Z</time>
      </trkpt>
      <trkpt lat="48.69209" lon="1.90843">
        <ele>129.86</ele>
        <time>2019-03-03T11:12:56Z</time>
      </trkpt>
      <trkpt lat="48.69221" lon="1.90837">
        <ele>129.83</ele>
        <time>2019-03-03T11:13:10Z</time>
      </trkpt>
      <trkpt lat="48.69239" lon="1.90828">
        <ele>130.68</ele>
        <time>2019-03-03T11:13:26Z</time>
      </trkpt>
      <trkpt lat="48.69256" lon="1.90819">
        <ele>131.07</ele>
        <time>2019-03-03T11:13:42Z</time>
      </trkpt>
      <trkpt lat="48.69257" lon="1.90818">
        <ele>131.4</ele>
        <time>2019-03-03T11:13:43Z</time>
      </trkpt>
      <trkpt lat="48.6926" lon="1.90813">
        <ele>131.29</ele>
        <time>2019-03-03T11:13:47Z</time>
      </trkpt>
      <trkpt lat="48.69269" lon="1.90795">
        <ele>131.01</ele>
        <time>2019-03-03T11:14:01Z</time>
      </trkpt>
      <trkpt lat="48.69275" lon="1.90781">
        <ele>131.95</ele>
        <time>2019-03-03T11:14:10Z</time>
      </trkpt>
      <trkpt lat="48.69283" lon="1.90788">
        <ele>131.89</ele>
        <time>2019-03-03T11:15:22Z</time>
      </trkpt>
      <trkpt lat="48.69286" lon="1.90758">
        <ele>136.83</ele>
        <time>2019-03-03T11:52:41Z</time>
      </trkpt>
      <trkpt lat="48.69297" lon="1.90748">
        <ele>138.24</ele>
        <time>2019-03-03T11:52:59Z</time>
      </trkpt>
      <trkpt lat="48.69307" lon="1.9074">
        <ele>137.84</ele>
        <time>2019-03-03T11:53:14Z</time>
      </trkpt>
      <trkpt lat="48.69319" lon="1.90725">
        <ele>138.76</ele>
        <time>2019-03-03T11:53:33Z</time>
      </trkpt>
      <trkpt lat="48.6933" lon="1.90712">
        <ele>140.72</ele>
        <time>2019-03-03T11:53:51Z</time>
      </trkpt>
      <trkpt lat="48.69339" lon="1.90698">
        <ele>141.69</ele>
        <time>2019-03-03T11:54:10Z</time>
      </trkpt>
      <trkpt lat="48.6935" lon="1.90694">
        <ele>144.01</ele>
        <time>2019-03-03T11:54:28Z</time>
      </trkpt>
      <trkpt lat="48.6935" lon="1.90673">
        <ele>143.9</ele>
        <time>2019-03-03T11:54:47Z</time>
      </trkpt>
      <trkpt lat="48.69352" lon="1.90648">
        <ele>147.51</ele>
        <time>2019-03-03T11:55:02Z</time>
      </trkpt>
      <trkpt lat="48.69353" lon="1.90647">
        <ele>147.18</ele>
        <time>2019-03-03T11:55:03Z</time>
      </trkpt>
      <trkpt lat="48.69356" lon="1.90643">
        <ele>148.51</ele>
        <time>2019-03-03T11:55:07Z</time>
      </trkpt>
      <trkpt lat="48.69365" lon="1.90628">
        <ele>148.6</ele>
        <time>2019-03-03T11:55:21Z</time>
      </trkpt>
      <trkpt lat="48.69374" lon="1.9061">
        <ele>149.49</ele>
        <time>2019-03-03T11:55:35Z</time>
      </trkpt>
      <trkpt lat="48.69386" lon="1.90604">
        <ele>150.11</ele>
        <time>2019-03-03T11:55:48Z</time>
      </trkpt>
      <trkpt lat="48.69401" lon="1.90614">
        <ele>147.14</ele>
        <time>2019-03-03T11:56:06Z</time>
      </trkpt>
      <trkpt lat="48.69411" lon="1.90636">
        <ele>145.05</ele>
        <time>2019-03-03T11:56:25Z</time>
      </trkpt>
      <trkpt lat="48.6942" lon="1.90646">
        <ele>141.71</ele>
        <time>2019-03-03T11:56:39Z</time>
      </trkpt>
      <trkpt lat="48.69427" lon="1.90649">
        <ele>140.65</ele>
        <time>2019-03-03T11:56:47Z</time>
      </trkpt>
      <trkpt lat="48.69439" lon="1.90659">
        <ele>138.78</ele>
        <time>2019-03-03T11:57:04Z</time>
      </trkpt>
      <trkpt lat="48.69443" lon="1.90662">
        <ele>136.95</ele>
        <time>2019-03-03T11:57:08Z</time>
      </trkpt>
      <trkpt lat="48.69448" lon="1.90669">
        <ele>136.73</ele>
        <time>2019-03-03T11:57:23Z</time>
      </trkpt>
      <trkpt lat="48.69447" lon="1.90672">
        <ele>135.57</ele>
        <time>2019-03-03T11:57:25Z</time>
      </trkpt>
      <trkpt lat="48.6944" lon="1.9069">
        <ele>136.96</ele>
        <time>2019-03-03T11:57:41Z</time>
      </trkpt>
      <trkpt lat="48.69436" lon="1.90701">
        <ele>136.63</ele>
        <time>2019-03-03T11:57:54Z</time>
      </trkpt>
      <trkpt lat="48.69433" lon="1.9072">
        <ele>138.55</ele>
        <time>2019-03-03T11:58:11Z</time>
      </trkpt>
      <trkpt lat="48.69439" lon="1.90731">
        <ele>138.37</ele>
        <time>2019-03-03T11:58:24Z</time>
      </trkpt>
      <trkpt lat="48.6944" lon="1.90746">
        <ele>137.86</ele>
        <time>2019-03-03T11:58:38Z</time>
      </trkpt>
      <trkpt lat="48.69441" lon="1.90748">
        <ele>137.43</ele>
        <time>2019-03-03T11:58:47Z</time>
      </trkpt>
      <trkpt lat="48.6945" lon="1.9075">
        <ele>137.01</ele>
        <time>2019-03-03T11:59:03Z</time>
      </trkpt>
      <trkpt lat="48.69463" lon="1.90757">
        <ele>136.31</ele>
        <time>2019-03-03T11:59:19Z</time>
      </trkpt>
      <trkpt lat="48.69467" lon="1.9076">
        <ele>135.88</ele>
        <time>2019-03-03T11:59:25Z</time>
      </trkpt>
      <trkpt lat="48.6947" lon="1.90768">
        <ele>135.28</ele>
        <time>2019-03-03T11:59:38Z</time>
      </trkpt>
      <trkpt lat="48.69474" lon="1.90765">
        <ele>134.75</ele>
        <time>2019-03-03T12:00:00Z</time>
      </trkpt>
      <trkpt lat="48.69476" lon="1.90769">
        <ele>135.19</ele>
        <time>2019-03-03T12:00:02Z</time>
      </trkpt>
      <trkpt lat="48.69481" lon="1.90783">
        <ele>134.67</ele>
        <time>2019-03-03T12:00:18Z</time>
      </trkpt>
      <trkpt lat="48.6948" lon="1.90798">
        <ele>134.06</ele>
        <time>2019-03-03T12:00:34Z</time>
      </trkpt>
      <trkpt lat="48.69479" lon="1.90824">
        <ele>132.99</ele>
        <time>2019-03-03T12:00:53Z</time>
      </trkpt>
      <trkpt lat="48.69477" lon="1.90835">
        <ele>132.33</ele>
        <time>2019-03-03T12:00:59Z</time>
      </trkpt>
      <trkpt lat="48.69477" lon="1.9086">
        <ele>132.62</ele>
        <time>2019-03-03T12:01:15Z</time>
      </trkpt>
      <trkpt lat="48.69476" lon="1.90869">
        <ele>132.79</ele>
        <time>2019-03-03T12:01:21Z</time>
      </trkpt>
      <trkpt lat="48.69475" lon="1.90885">
        <ele>132.55</ele>
        <time>2019-03-03T12:01:37Z</time>
      </trkpt>
      <trkpt lat="48.69472" lon="1.90918">
        <ele>131.82</ele>
        <time>2019-03-03T12:01:56Z</time>
      </trkpt>
      <trkpt lat="48.6947" lon="1.90944">
        <ele>130.01</ele>
        <time>2019-03-03T12:02:13Z</time>
      </trkpt>
      <trkpt lat="48.69467" lon="1.90968">
        <ele>129.39</ele>
        <time>2019-03-03T12:02:29Z</time>
      </trkpt>
      <trkpt lat="48.69467" lon="1.9097">
        <ele>129.39</ele>
        <time>2019-03-03T12:02:30Z</time>
      </trkpt>
      <trkpt lat="48.69462" lon="1.91003">
        <ele>128.04</ele>
        <time>2019-03-03T12:02:48Z</time>
      </trkpt>
      <trkpt lat="48.6946" lon="1.91017">
        <ele>128.5</ele>
        <time>2019-03-03T12:03:00Z</time>
      </trkpt>
      <trkpt lat="48.69455" lon="1.9103">
        <ele>128.03</ele>
        <time>2019-03-03T12:03:10Z</time>
      </trkpt>
      <trkpt lat="48.69446" lon="1.91055">
        <ele>127.3</ele>
        <time>2019-03-03T12:03:24Z</time>
      </trkpt>
      <trkpt lat="48.69441" lon="1.91072">
        <ele>126.54</ele>
        <time>2019-03-03T12:03:39Z</time>
      </trkpt>
      <trkpt lat="48.69432" lon="1.91095">
        <ele>127.53</ele>
        <time>2019-03-03T12:03:58Z</time>
      </trkpt>
      <trkpt lat="48.69424" lon="1.9112">
        <ele>126.84</ele>
        <time>2019-03-03T12:04:13Z</time>
      </trkpt>
      <trkpt lat="48.6942" lon="1.91126">
        <ele>125.96</ele>
        <time>2019-03-03T12:04:22Z</time>
      </trkpt>
      <trkpt lat="48.69416" lon="1.91143">
        <ele>125.94</ele>
        <time>2019-03-03T12:04:44Z</time>
      </trkpt>
      <trkpt lat="48.69412" lon="1.91172">
        <ele>126.33</ele>
        <time>2019-03-03T12:05:07Z</time>
      </trkpt>
      <trkpt lat="48.69406" lon="1.9119">
        <ele>128.01</ele>
        <time>2019-03-03T12:05:24Z</time>
      </trkpt>
      <trkpt lat="48.694" lon="1.91215">
        <ele>128.53</ele>
        <time>2019-03-03T12:05:44Z</time>
      </trkpt>
      <trkpt lat="48.69395" lon="1.91229">
        <ele>128.34</ele>
        <time>2019-03-03T12:05:53Z</time>
      </trkpt>
      <trkpt lat="48.69387" lon="1.91249">
        <ele>129.59</ele>
        <time>2019-03-03T12:06:08Z</time>
      </trkpt>
      <trkpt lat="48.69378" lon="1.91262">
        <ele>128.14</ele>
        <time>2019-03-03T12:06:22Z</time>
      </trkpt>
      <trkpt lat="48.6937" lon="1.91271">
        <ele>126.69</ele>
        <time>2019-03-03T12:06:39Z</time>
      </trkpt>
      <trkpt lat="48.69361" lon="1.91292">
        <ele>123.66</ele>
        <time>2019-03-03T12:06:56Z</time>
      </trkpt>
      <trkpt lat="48.69348" lon="1.91318">
        <ele>121.02</ele>
        <time>2019-03-03T12:07:16Z</time>
      </trkpt>
      <trkpt lat="48.6933" lon="1.91338">
        <ele>120.03</ele>
        <time>2019-03-03T12:07:35Z</time>
      </trkpt>
      <trkpt lat="48.69321" lon="1.91348">
        <ele>120.12</ele>
        <time>2019-03-03T12:07:50Z</time>
      </trkpt>
      <trkpt lat="48.69323" lon="1.91356">
        <ele>119.95</ele>
        <time>2019-03-03T12:08:11Z</time>
      </trkpt>
      <trkpt lat="48.69329" lon="1.91367">
        <ele>120.39</ele>
        <time>2019-03-03T12:08:30Z</time>
      </trkpt>
      <trkpt lat="48.69328" lon="1.91369">
        <ele>119.26</ele>
        <time>2019-03-03T12:08:56Z</time>
      </trkpt>
      <trkpt lat="48.69328" lon="1.91379">
        <ele>118.81</ele>
        <time>2019-03-03T12:09:13Z</time>
      </trkpt>
      <trkpt lat="48.69337" lon="1.91412">
        <ele>118.41</ele>
        <time>2019-03-03T12:09:35Z</time>
      </trkpt>
      <trkpt lat="48.69337" lon="1.91414">
        <ele>118.4</ele>
        <time>2019-03-03T12:09:36Z</time>
      </trkpt>
      <trkpt lat="48.69353" lon="1.91438">
        <ele>117.36</ele>
        <time>2019-03-03T12:09:57Z</time>
      </trkpt>
      <trkpt lat="48.69353" lon="1.91438">
        <ele>117.37</ele>
        <time>2019-03-03T12:09:58Z</time>
      </trkpt>
      <trkpt lat="48.69357" lon="1.91449">
        <ele>118.71</ele>
        <time>2019-03-03T12:10:17Z</time>
      </trkpt>
      <trkpt lat="48.69351" lon="1.91457">
        <ele>118</ele>
        <time>2019-03-03T12:10:42Z</time>
      </trkpt>
      <trkpt lat="48.6935" lon="1.91467">
        <ele>118.55</ele>
        <time>2019-03-03T12:11:05Z</time>
      </trkpt>
      <trkpt lat="48.69356" lon="1.91475">
        <ele>117.92</ele>
        <time>2019-03-03T12:11:21Z</time>
      </trkpt>
      <trkpt lat="48.69361" lon="1.91486">
        <ele>118.35</ele>
        <time>2019-03-03T12:11:38Z</time>
      </trkpt>
      <trkpt lat="48.69361" lon="1.91483">
        <ele>119.65</ele>
        <time>2019-03-03T12:11:46Z</time>
      </trkpt>
      <trkpt lat="48.69361" lon="1.91478">
        <ele>119.49</ele>
        <time>2019-03-03T12:12:13Z</time>
      </trkpt>
      <trkpt lat="48.69365" lon="1.91481">
        <ele>118.97</ele>
        <time>2019-03-03T12:12:36Z</time>
      </trkpt>
      <trkpt lat="48.69359" lon="1.91476">
        <ele>119.47</ele>
        <time>2019-03-03T12:13:03Z</time>
      </trkpt>
      <trkpt lat="48.69356" lon="1.91476">
        <ele>119.41</ele>
        <time>2019-03-03T12:13:28Z</time>
      </trkpt>
      <trkpt lat="48.69376" lon="1.91468">
        <ele>121.18</ele>
        <time>2019-03-03T12:13:47Z</time>
      </trkpt>
      <trkpt lat="48.69389" lon="1.91471">
        <ele>124.48</ele>
        <time>2019-03-03T12:14:01Z</time>
      </trkpt>
      <trkpt lat="48.69405" lon="1.9148">
        <ele>125.96</ele>
        <time>2019-03-03T12:14:19Z</time>
      </trkpt>
      <trkpt lat="48.69421" lon="1.9149">
        <ele>124.66</ele>
        <time>2019-03-03T12:14:38Z</time>
      </trkpt>
      <trkpt lat="48.6943" lon="1.91488">
        <ele>124.3</ele>
        <time>2019-03-03T12:14:54Z</time>
      </trkpt>
      <trkpt lat="48.69446" lon="1.91484">
        <ele>122.76</ele>
        <time>2019-03-03T12:15:14Z</time>
      </trkpt>
      <trkpt lat="48.69452" lon="1.91482">
        <ele>122.69</ele>
        <time>2019-03-03T12:15:18Z</time>
      </trkpt>
      <trkpt lat="48.69471" lon="1.91473">
        <ele>122.42</ele>
        <time>2019-03-03T12:15:39Z</time>
      </trkpt>
      <trkpt lat="48.69487" lon="1.91466">
        <ele>122.16</ele>
        <time>2019-03-03T12:15:56Z</time>
      </trkpt>
      <trkpt lat="48.69489" lon="1.91453">
        <ele>120.11</ele>
        <time>2019-03-03T12:16:14Z</time>
      </trkpt>
      <trkpt lat="48.69493" lon="1.91425">
        <ele>120.87</ele>
        <time>2019-03-03T12:16:35Z</time>
      </trkpt>
      <trkpt lat="48.6951" lon="1.91397">
        <ele>118.85</ele>
        <time>2019-03-03T12:16:55Z</time>
      </trkpt>
      <trkpt lat="48.69529" lon="1.91387">
        <ele>120.91</ele>
        <time>2019-03-03T12:17:14Z</time>
      </trkpt>
      <trkpt lat="48.69545" lon="1.91381">
        <ele>120.58</ele>
        <time>2019-03-03T12:17:31Z</time>
      </trkpt>
      <trkpt lat="48.69554" lon="1.91371">
        <ele>121.15</ele>
        <time>2019-03-03T12:17:49Z</time>
      </trkpt>
      <trkpt lat="48.69557" lon="1.91366">
        <ele>120.42</ele>
        <time>2019-03-03T12:17:58Z</time>
      </trkpt>
      <trkpt lat="48.69578" lon="1.91363">
        <ele>120.85</ele>
        <time>2019-03-03T12:18:24Z</time>
      </trkpt>
      <trkpt lat="48.6958" lon="1.91364">
        <ele>122.43</ele>
        <time>2019-03-03T12:18:27Z</time>
      </trkpt>
      <trkpt lat="48.69591" lon="1.91371">
        <ele>121.55</ele>
        <time>2019-03-03T12:18:45Z</time>
      </trkpt>
      <trkpt lat="48.69606" lon="1.91392">
        <ele>120.79</ele>
        <time>2019-03-03T12:19:05Z</time>
      </trkpt>
      <trkpt lat="48.6961" lon="1.91402">
        <ele>119.76</ele>
        <time>2019-03-03T12:19:11Z</time>
      </trkpt>
      <trkpt lat="48.69614" lon="1.91409">
        <ele>120.6</ele>
        <time>2019-03-03T12:19:29Z</time>
      </trkpt>
      <trkpt lat="48.6963" lon="1.91413">
        <ele>121.14</ele>
        <time>2019-03-03T12:19:49Z</time>
      </trkpt>
      <trkpt lat="48.69643" lon="1.91414">
        <ele>121.15</ele>
        <time>2019-03-03T12:19:58Z</time>
      </trkpt>
      <trkpt lat="48.69655" lon="1.91412">
        <ele>122.03</ele>
        <time>2019-03-03T12:20:09Z</time>
      </trkpt>
      <trkpt lat="48.69673" lon="1.91411">
        <ele>122.29</ele>
        <time>2019-03-03T12:20:32Z</time>
      </trkpt>
      <trkpt lat="48.69695" lon="1.91411">
        <ele>121.9</ele>
        <time>2019-03-03T12:20:52Z</time>
      </trkpt>
      <trkpt lat="48.69695" lon="1.91411">
        <ele>121.99</ele>
        <time>2019-03-03T12:20:53Z</time>
      </trkpt>
      <trkpt lat="48.69718" lon="1.91403">
        <ele>121.9</ele>
        <time>2019-03-03T12:21:09Z</time>
      </trkpt>
      <trkpt lat="48.69725" lon="1.914">
        <ele>123.27</ele>
        <time>2019-03-03T12:21:15Z</time>
      </trkpt>
      <trkpt lat="48.69749" lon="1.91401">
        <ele>125.92</ele>
        <time>2019-03-03T12:21:36Z</time>
      </trkpt>
      <trkpt lat="48.69766" lon="1.91407">
        <ele>125.32</ele>
        <time>2019-03-03T12:21:54Z</time>
      </trkpt>
      <trkpt lat="48.69775" lon="1.91413">
        <ele>123.69</ele>
        <time>2019-03-03T12:22:15Z</time>
      </trkpt>
      <trkpt lat="48.69792" lon="1.91422">
        <ele>121.6</ele>
        <time>2019-03-03T12:22:35Z</time>
      </trkpt>
      <trkpt lat="48.69808" lon="1.91442">
        <ele>121.22</ele>
        <time>2019-03-03T12:22:54Z</time>
      </trkpt>
      <trkpt lat="48.69824" lon="1.91454">
        <ele>121.12</ele>
        <time>2019-03-03T12:23:08Z</time>
      </trkpt>
      <trkpt lat="48.69833" lon="1.91453">
        <ele>120.95</ele>
        <time>2019-03-03T12:23:17Z</time>
      </trkpt>
      <trkpt lat="48.69837" lon="1.91451">
        <ele>121.47</ele>
        <time>2019-03-03T12:23:21Z</time>
      </trkpt>
      <trkpt lat="48.69853" lon="1.9144">
        <ele>121.52</ele>
        <time>2019-03-03T12:23:37Z</time>
      </trkpt>
      <trkpt lat="48.6986" lon="1.91429">
        <ele>121.23</ele>
        <time>2019-03-03T12:23:51Z</time>
      </trkpt>
      <trkpt lat="48.69861" lon="1.91426">
        <ele>120.85</ele>
        <time>2019-03-03T12:23:54Z</time>
      </trkpt>
      <trkpt lat="48.69869" lon="1.91413">
        <ele>120.05</ele>
        <time>2019-03-03T12:24:17Z</time>
      </trkpt>
      <trkpt lat="48.69873" lon="1.91391">
        <ele>120.98</ele>
        <time>2019-03-03T12:24:34Z</time>
      </trkpt>
      <trkpt lat="48.69873" lon="1.9137">
        <ele>118.64</ele>
        <time>2019-03-03T12:24:53Z</time>
      </trkpt>
      <trkpt lat="48.69874" lon="1.91357">
        <ele>120.15</ele>
        <time>2019-03-03T12:25:11Z</time>
      </trkpt>
      <trkpt lat="48.69882" lon="1.9136">
        <ele>119.64</ele>
        <time>2019-03-03T12:25:28Z</time>
      </trkpt>
      <trkpt lat="48.69883" lon="1.91358">
        <ele>119.83</ele>
        <time>2019-03-03T12:25:30Z</time>
      </trkpt>
      <trkpt lat="48.69885" lon="1.91331">
        <ele>119.64</ele>
        <time>2019-03-03T12:25:52Z</time>
      </trkpt>
      <trkpt lat="48.69881" lon="1.91309">
        <ele>119.26</ele>
        <time>2019-03-03T12:26:09Z</time>
      </trkpt>
      <trkpt lat="48.69884" lon="1.91265">
        <ele>119.04</ele>
        <time>2019-03-03T12:26:28Z</time>
      </trkpt>
      <trkpt lat="48.69896" lon="1.91247">
        <ele>119.2</ele>
        <time>2019-03-03T12:26:48Z</time>
      </trkpt>
      <trkpt lat="48.69911" lon="1.91237">
        <ele>118.79</ele>
        <time>2019-03-03T12:27:05Z</time>
      </trkpt>
      <trkpt lat="48.69923" lon="1.9122">
        <ele>119.61</ele>
        <time>2019-03-03T12:27:23Z</time>
      </trkpt>
      <trkpt lat="48.69926" lon="1.91209">
        <ele>118.67</ele>
        <time>2019-03-03T12:27:33Z</time>
      </trkpt>
      <trkpt lat="48.69929" lon="1.91197">
        <ele>119.57</ele>
        <time>2019-03-03T12:28:00Z</time>
      </trkpt>
      <trkpt lat="48.69929" lon="1.91192">
        <ele>118.59</ele>
        <time>2019-03-03T12:28:24Z</time>
      </trkpt>
      <trkpt lat="48.69924" lon="1.91191">
        <ele>117.94</ele>
        <time>2019-03-03T12:28:52Z</time>
      </trkpt>
      <trkpt lat="48.69929" lon="1.91175">
        <ele>120.25</ele>
        <time>2019-03-03T12:29:11Z</time>
      </trkpt>
      <trkpt lat="48.69928" lon="1.91166">
        <ele>118.11</ele>
        <time>2019-03-03T12:29:17Z</time>
      </trkpt>
      <trkpt lat="48.69928" lon="1.91143">
        <ele>118.52</ele>
        <time>2019-03-03T12:29:36Z</time>
      </trkpt>
      <trkpt lat="48.69928" lon="1.91138">
        <ele>118.81</ele>
        <time>2019-03-03T12:29:39Z</time>
      </trkpt>
      <trkpt lat="48.69928" lon="1.91135">
        <ele>118.83</ele>
        <time>2019-03-03T12:29:41Z</time>
      </trkpt>
      <trkpt lat="48.69919" lon="1.91128">
        <ele>116.28</ele>
        <time>2019-03-03T12:30:03Z</time>
      </trkpt>
      <trkpt lat="48.69919" lon="1.91127">
        <ele>116.33</ele>
        <time>2019-03-03T12:30:04Z</time>
      </trkpt>
      <trkpt lat="48.69923" lon="1.91116">
        <ele>119.37</ele>
        <time>2019-03-03T12:30:21Z</time>
      </trkpt>
      <trkpt lat="48.69928" lon="1.91101">
        <ele>119.36</ele>
        <time>2019-03-03T12:30:41Z</time>
      </trkpt>
      <trkpt lat="48.69932" lon="1.91079">
        <ele>121.21</ele>
        <time>2019-03-03T12:30:59Z</time>
      </trkpt>
      <trkpt lat="48.69935" lon="1.91043">
        <ele>124.08</ele>
        <time>2019-03-03T12:31:17Z</time>
      </trkpt>
      <trkpt lat="48.69939" lon="1.91022">
        <ele>122.74</ele>
        <time>2019-03-03T12:31:32Z</time>
      </trkpt>
      <trkpt lat="48.69942" lon="1.9101">
        <ele>122.06</ele>
        <time>2019-03-03T12:31:50Z</time>
      </trkpt>
      <trkpt lat="48.69945" lon="1.90997">
        <ele>123.99</ele>
        <time>2019-03-03T12:32:00Z</time>
      </trkpt>
      <trkpt lat="48.69944" lon="1.90989">
        <ele>126.05</ele>
        <time>2019-03-03T12:32:07Z</time>
      </trkpt>
      <trkpt lat="48.69949" lon="1.90965">
        <ele>124.98</ele>
        <time>2019-03-03T12:32:27Z</time>
      </trkpt>
      <trkpt lat="48.69953" lon="1.90932">
        <ele>125.12</ele>
        <time>2019-03-03T12:32:44Z</time>
      </trkpt>
      <trkpt lat="48.69957" lon="1.90909">
        <ele>122.1</ele>
        <time>2019-03-03T12:33:00Z</time>
      </trkpt>
      <trkpt lat="48.69964" lon="1.90889">
        <ele>120.76</ele>
        <time>2019-03-03T12:33:18Z</time>
      </trkpt>
      <trkpt lat="48.6997" lon="1.90866">
        <ele>119.97</ele>
        <time>2019-03-03T12:33:39Z</time>
      </trkpt>
      <trkpt lat="48.69971" lon="1.90852">
        <ele>119.92</ele>
        <time>2019-03-03T12:33:47Z</time>
      </trkpt>
      <trkpt lat="48.69979" lon="1.90831">
        <ele>119.06</ele>
        <time>2019-03-03T12:34:02Z</time>
      </trkpt>
      <trkpt lat="48.6998" lon="1.90829">
        <ele>119.2</ele>
        <time>2019-03-03T12:34:03Z</time>
      </trkpt>
      <trkpt lat="48.69987" lon="1.90807">
        <ele>119.18</ele>
        <time>2019-03-03T12:34:17Z</time>
      </trkpt>
      <trkpt lat="48.7" lon="1.90783">
        <ele>118.68</ele>
        <time>2019-03-03T12:34:35Z</time>
      </trkpt>
      <trkpt lat="48.70018" lon="1.90761">
        <ele>119.96</ele>
        <time>2019-03-03T12:34:53Z</time>
      </trkpt>
      <trkpt lat="48.70028" lon="1.9074">
        <ele>118.3</ele>
        <time>2019-03-03T12:35:07Z</time>
      </trkpt>
      <trkpt lat="48.7004" lon="1.90716">
        <ele>118.29</ele>
        <time>2019-03-03T12:35:23Z</time>
      </trkpt>
      <trkpt lat="48.70057" lon="1.90698">
        <ele>119.75</ele>
        <time>2019-03-03T12:35:41Z</time>
      </trkpt>
      <trkpt lat="48.70068" lon="1.9068">
        <ele>120.86</ele>
        <time>2019-03-03T12:35:59Z</time>
      </trkpt>
      <trkpt lat="48.70069" lon="1.90647">
        <ele>118.86</ele>
        <time>2019-03-03T12:36:18Z</time>
      </trkpt>
      <trkpt lat="48.70063" lon="1.90623">
        <ele>119.73</ele>
        <time>2019-03-03T12:36:33Z</time>
      </trkpt>
      <trkpt lat="48.7005" lon="1.90596">
        <ele>120.51</ele>
        <time>2019-03-03T12:36:52Z</time>
      </trkpt>
      <trkpt lat="48.70038" lon="1.90574">
        <ele>118.48</ele>
        <time>2019-03-03T12:37:11Z</time>
      </trkpt>
      <trkpt lat="48.70034" lon="1.90547">
        <ele>119.01</ele>
        <time>2019-03-03T12:37:26Z</time>
      </trkpt>
      <trkpt lat="48.70033" lon="1.90543">
        <ele>119.16</ele>
        <time>2019-03-03T12:37:30Z</time>
      </trkpt>
      <trkpt lat="48.70027" lon="1.90523">
        <ele>119.47</ele>
        <time>2019-03-03T12:37:48Z</time>
      </trkpt>
      <trkpt lat="48.70023" lon="1.905">
        <ele>120.32</ele>
        <time>2019-03-03T12:38:05Z</time>
      </trkpt>
      <trkpt lat="48.70022" lon="1.90472">
        <ele>121.08</ele>
        <time>2019-03-03T12:38:22Z</time>
      </trkpt>
      <trkpt lat="48.7002" lon="1.90439">
        <ele>121.57</ele>
        <time>2019-03-03T12:38:43Z</time>
      </trkpt>
      <trkpt lat="48.70013" lon="1.90407">
        <ele>120.53</ele>
        <time>2019-03-03T12:39:00Z</time>
      </trkpt>
      <trkpt lat="48.70009" lon="1.90381">
        <ele>119.4</ele>
        <time>2019-03-03T12:39:17Z</time>
      </trkpt>
      <trkpt lat="48.70006" lon="1.90366">
        <ele>118.49</ele>
        <time>2019-03-03T12:39:29Z</time>
      </trkpt>
      <trkpt lat="48.70003" lon="1.90346">
        <ele>119.22</ele>
        <time>2019-03-03T12:39:56Z</time>
      </trkpt>
      <trkpt lat="48.69997" lon="1.90351">
        <ele>119.06</ele>
        <time>2019-03-03T12:40:24Z</time>
      </trkpt>
      <trkpt lat="48.70001" lon="1.9035">
        <ele>120.46</ele>
        <time>2019-03-03T12:40:45Z</time>
      </trkpt>
      <trkpt lat="48.70001" lon="1.90348">
        <ele>119.95</ele>
        <time>2019-03-03T12:41:12Z</time>
      </trkpt>
      <trkpt lat="48.7" lon="1.90346">
        <ele>120.06</ele>
        <time>2019-03-03T12:41:42Z</time>
      </trkpt>
      <trkpt lat="48.69998" lon="1.90344">
        <ele>119.33</ele>
        <time>2019-03-03T12:42:04Z</time>
      </trkpt>
      <trkpt lat="48.69997" lon="1.90342">
        <ele>118.57</ele>
        <time>2019-03-03T12:42:31Z</time>
      </trkpt>
      <trkpt lat="48.69996" lon="1.9034">
        <ele>119.7</ele>
        <time>2019-03-03T12:42:57Z</time>
      </trkpt>
      <trkpt lat="48.69996" lon="1.90342">
        <ele>119.96</ele>
        <time>2019-03-03T12:43:23Z</time>
      </trkpt>
      <trkpt lat="48.69996" lon="1.90342">
        <ele>119.76</ele>
        <time>2019-03-03T12:43:51Z</time>
      </trkpt>
      <trkpt lat="48.69998" lon="1.90345">
        <ele>120.19</ele>
        <time>2019-03-03T12:44:22Z</time>
      </trkpt>
      <trkpt lat="48.70002" lon="1.90347">
        <ele>120.75</ele>
        <time>2019-03-03T12:44:49Z</time>
      </trkpt>
      <trkpt lat="48.7" lon="1.90349">
        <ele>121.05</ele>
        <time>2019-03-03T12:45:06Z</time>
      </trkpt>
      <trkpt lat="48.69997" lon="1.90349">
        <ele>120.54</ele>
        <time>2019-03-03T12:45:31Z</time>
      </trkpt>
      <trkpt lat="48.69998" lon="1.90347">
        <ele>120.97</ele>
        <time>2019-03-03T12:45:57Z</time>
      </trkpt>
      <trkpt lat="48.7" lon="1.90347">
        <ele>121.04</ele>
        <time>2019-03-03T12:46:20Z</time>
      </trkpt>
      <trkpt lat="48.69997" lon="1.90344">
        <ele>120.58</ele>
        <time>2019-03-03T12:46:43Z</time>
      </trkpt>
      <trkpt lat="48.69996" lon="1.90342">
        <ele>121.61</ele>
        <time>2019-03-03T12:47:13Z</time>
      </trkpt>
      <trkpt lat="48.69994" lon="1.90342">
        <ele>121.34</ele>
        <time>2019-03-03T12:47:40Z</time>
      </trkpt>
      <trkpt lat="48.69993" lon="1.90344">
        <ele>121.43</ele>
        <time>2019-03-03T12:48:05Z</time>
      </trkpt>
      <trkpt lat="48.69996" lon="1.90342">
        <ele>122.46</ele>
        <time>2019-03-03T12:48:34Z</time>
      </trkpt>
      <trkpt lat="48.69994" lon="1.90334">
        <ele>121.18</ele>
        <time>2019-03-03T12:48:57Z</time>
      </trkpt>
      <trkpt lat="48.69997" lon="1.90314">
        <ele>120.73</ele>
        <time>2019-03-03T12:49:16Z</time>
      </trkpt>
      <trkpt lat="48.70002" lon="1.90285">
        <ele>121.72</ele>
        <time>2019-03-03T12:49:35Z</time>
      </trkpt>
      <trkpt lat="48.70003" lon="1.90254">
        <ele>121.85</ele>
        <time>2019-03-03T12:49:54Z</time>
      </trkpt>
      <trkpt lat="48.70003" lon="1.90231">
        <ele>119.38</ele>
        <time>2019-03-03T12:50:13Z</time>
      </trkpt>
      <trkpt lat="48.70009" lon="1.9021">
        <ele>121.23</ele>
        <time>2019-03-03T12:50:29Z</time>
      </trkpt>
      <trkpt lat="48.70011" lon="1.90188">
        <ele>120.21</ele>
        <time>2019-03-03T12:50:48Z</time>
      </trkpt>
      <trkpt lat="48.7001" lon="1.90167">
        <ele>121.36</ele>
        <time>2019-03-03T12:51:06Z</time>
      </trkpt>
      <trkpt lat="48.70011" lon="1.90164">
        <ele>120.38</ele>
        <time>2019-03-03T12:51:08Z</time>
      </trkpt>
      <trkpt lat="48.70008" lon="1.90143">
        <ele>120.58</ele>
        <time>2019-03-03T12:51:24Z</time>
      </trkpt>
      <trkpt lat="48.70004" lon="1.90111">
        <ele>121.1</ele>
        <time>2019-03-03T12:51:44Z</time>
      </trkpt>
      <trkpt lat="48.70001" lon="1.90078">
        <ele>120.48</ele>
        <time>2019-03-03T12:52:08Z</time>
      </trkpt>
      <trkpt lat="48.70002" lon="1.90043">
        <ele>119.06</ele>
        <time>2019-03-03T12:52:26Z</time>
      </trkpt>
      <trkpt lat="48.70004" lon="1.90009">
        <ele>119.21</ele>
        <time>2019-03-03T12:52:47Z</time>
      </trkpt>
      <trkpt lat="48.70006" lon="1.89991">
        <ele>119.25</ele>
        <time>2019-03-03T12:53:04Z</time>
      </trkpt>
      <trkpt lat="48.70011" lon="1.89942">
        <ele>118.65</ele>
        <time>2019-03-03T12:53:21Z</time>
      </trkpt>
      <trkpt lat="48.70021" lon="1.89901">
        <ele>116.24</ele>
        <time>2019-03-03T12:53:34Z</time>
      </trkpt>
      <trkpt lat="48.7004" lon="1.89883">
        <ele>118.12</ele>
        <time>2019-03-03T12:53:50Z</time>
      </trkpt>
      <trkpt lat="48.70048" lon="1.89875">
        <ele>117.38</ele>
        <time>2019-03-03T12:53:55Z</time>
      </trkpt>
      <trkpt lat="48.70072" lon="1.89861">
        <ele>116.73</ele>
        <time>2019-03-03T12:54:11Z</time>
      </trkpt>
      <trkpt lat="48.70088" lon="1.89847">
        <ele>116.59</ele>
        <time>2019-03-03T12:54:28Z</time>
      </trkpt>
      <trkpt lat="48.70096" lon="1.89824">
        <ele>117.32</ele>
        <time>2019-03-03T12:54:46Z</time>
      </trkpt>
      <trkpt lat="48.70098" lon="1.89793">
        <ele>118.24</ele>
        <time>2019-03-03T12:55:05Z</time>
      </trkpt>
      <trkpt lat="48.70103" lon="1.89772">
        <ele>117.91</ele>
        <time>2019-03-03T12:55:18Z</time>
      </trkpt>
      <trkpt lat="48.70114" lon="1.89751">
        <ele>119.2</ele>
        <time>2019-03-03T12:55:38Z</time>
      </trkpt>
      <trkpt lat="48.70124" lon="1.89743">
        <ele>119.63</ele>
        <time>2019-03-03T12:55:57Z</time>
      </trkpt>
      <trkpt lat="48.70146" lon="1.89739">
        <ele>119.82</ele>
        <time>2019-03-03T12:56:20Z</time>
      </trkpt>
      <trkpt lat="48.70165" lon="1.89721">
        <ele>118.97</ele>
        <time>2019-03-03T12:56:41Z</time>
      </trkpt>
      <trkpt lat="48.70186" lon="1.89701">
        <ele>118.62</ele>
        <time>2019-03-03T12:56:59Z</time>
      </trkpt>
      <trkpt lat="48.70187" lon="1.897">
        <ele>119.22</ele>
        <time>2019-03-03T12:57:00Z</time>
      </trkpt>
      <trkpt lat="48.70202" lon="1.89688">
        <ele>118.95</ele>
        <time>2019-03-03T12:57:14Z</time>
      </trkpt>
      <trkpt lat="48.70217" lon="1.89675">
        <ele>117.95</ele>
        <time>2019-03-03T12:57:29Z</time>
      </trkpt>
      <trkpt lat="48.70234" lon="1.89651">
        <ele>117.5</ele>
        <time>2019-03-03T12:57:49Z</time>
      </trkpt>
      <trkpt lat="48.70243" lon="1.89642">
        <ele>117.16</ele>
        <time>2019-03-03T12:57:59Z</time>
      </trkpt>
      <trkpt lat="48.70255" lon="1.89632">
        <ele>118.93</ele>
        <time>2019-03-03T12:58:14Z</time>
      </trkpt>
      <trkpt lat="48.70274" lon="1.89619">
        <ele>117.96</ele>
        <time>2019-03-03T12:58:33Z</time>
      </trkpt>
      <trkpt lat="48.70281" lon="1.89613">
        <ele>118.94</ele>
        <time>2019-03-03T12:58:40Z</time>
      </trkpt>
      <trkpt lat="48.70305" lon="1.89605">
        <ele>118.38</ele>
        <time>2019-03-03T12:59:01Z</time>
      </trkpt>
      <trkpt lat="48.70319" lon="1.89584">
        <ele>118.93</ele>
        <time>2019-03-03T12:59:18Z</time>
      </trkpt>
      <trkpt lat="48.70333" lon="1.89548">
        <ele>118.84</ele>
        <time>2019-03-03T12:59:37Z</time>
      </trkpt>
      <trkpt lat="48.70334" lon="1.89538">
        <ele>118.34</ele>
        <time>2019-03-03T12:59:44Z</time>
      </trkpt>
      <trkpt lat="48.7033" lon="1.8951">
        <ele>118</ele>
        <time>2019-03-03T13:00:03Z</time>
      </trkpt>
      <trkpt lat="48.70321" lon="1.89468">
        <ele>117.34</ele>
        <time>2019-03-03T13:00:22Z</time>
      </trkpt>
      <trkpt lat="48.70306" lon="1.89451">
        <ele>117.43</ele>
        <time>2019-03-03T13:00:41Z</time>
      </trkpt>
      <trkpt lat="48.70296" lon="1.8942">
        <ele>118.4</ele>
        <time>2019-03-03T13:01:03Z</time>
      </trkpt>
      <trkpt lat="48.70296" lon="1.89386">
        <ele>117.98</ele>
        <time>2019-03-03T13:01:18Z</time>
      </trkpt>
      <trkpt lat="48.70298" lon="1.89353">
        <ele>117.36</ele>
        <time>2019-03-03T13:01:30Z</time>
      </trkpt>
      <trkpt lat="48.70288" lon="1.8933">
        <ele>116.86</ele>
        <time>2019-03-03T13:01:46Z</time>
      </trkpt>
      <trkpt lat="48.70275" lon="1.89321">
        <ele>116.61</ele>
        <time>2019-03-03T13:01:59Z</time>
      </trkpt>
      <trkpt lat="48.70274" lon="1.89314">
        <ele>117.13</ele>
        <time>2019-03-03T13:02:02Z</time>
      </trkpt>
      <trkpt lat="48.70272" lon="1.89309">
        <ele>116.91</ele>
        <time>2019-03-03T13:02:05Z</time>
      </trkpt>
      <trkpt lat="48.70259" lon="1.89284">
        <ele>117.07</ele>
        <time>2019-03-03T13:02:20Z</time>
      </trkpt>
      <trkpt lat="48.70247" lon="1.89265">
        <ele>116.91</ele>
        <time>2019-03-03T13:02:34Z</time>
      </trkpt>
      <trkpt lat="48.70233" lon="1.89252">
        <ele>117.17</ele>
        <time>2019-03-03T13:02:49Z</time>
      </trkpt>
      <trkpt lat="48.70231" lon="1.89246">
        <ele>116.77</ele>
        <time>2019-03-03T13:02:52Z</time>
      </trkpt>
      <trkpt lat="48.70219" lon="1.89229">
        <ele>116.94</ele>
        <time>2019-03-03T13:03:08Z</time>
      </trkpt>
      <trkpt lat="48.70201" lon="1.89212">
        <ele>117.59</ele>
        <time>2019-03-03T13:03:24Z</time>
      </trkpt>
      <trkpt lat="48.70186" lon="1.89195">
        <ele>119.37</ele>
        <time>2019-03-03T13:03:41Z</time>
      </trkpt>
      <trkpt lat="48.70183" lon="1.89195">
        <ele>118.13</ele>
        <time>2019-03-03T13:04:07Z</time>
      </trkpt>
      <trkpt lat="48.70183" lon="1.89196">
        <ele>119.13</ele>
        <time>2019-03-03T13:04:28Z</time>
      </trkpt>
      <trkpt lat="48.70187" lon="1.89183">
        <ele>118.58</ele>
        <time>2019-03-03T13:04:50Z</time>
      </trkpt>
      <trkpt lat="48.70188" lon="1.89181">
        <ele>118.66</ele>
        <time>2019-03-03T13:04:52Z</time>
      </trkpt>
      <trkpt lat="48.70197" lon="1.89156">
        <ele>117.73</ele>
        <time>2019-03-03T13:05:12Z</time>
      </trkpt>
      <trkpt lat="48.70197" lon="1.89155">
        <ele>118.33</ele>
        <time>2019-03-03T13:05:13Z</time>
      </trkpt>
      <trkpt lat="48.70199" lon="1.89144">
        <ele>117.87</ele>
        <time>2019-03-03T13:05:20Z</time>
      </trkpt>
      <trkpt lat="48.70205" lon="1.89124">
        <ele>118.32</ele>
        <time>2019-03-03T13:05:36Z</time>
      </trkpt>
      <trkpt lat="48.70211" lon="1.89103">
        <ele>118.16</ele>
        <time>2019-03-03T13:05:50Z</time>
      </trkpt>
      <trkpt lat="48.70218" lon="1.89087">
        <ele>118.54</ele>
        <time>2019-03-03T13:06:07Z</time>
      </trkpt>
      <trkpt lat="48.7022" lon="1.89057">
        <ele>118.5</ele>
        <time>2019-03-03T13:06:26Z</time>
      </trkpt>
      <trkpt lat="48.70227" lon="1.89035">
        <ele>118.09</ele>
        <time>2019-03-03T13:06:55Z</time>
      </trkpt>
      <trkpt lat="48.70229" lon="1.89025">
        <ele>117.68</ele>
        <time>2019-03-03T13:07:17Z</time>
      </trkpt>
      <trkpt lat="48.70229" lon="1.89023">
        <ele>117.23</ele>
        <time>2019-03-03T13:07:18Z</time>
      </trkpt>
      <trkpt lat="48.70235" lon="1.89004">
        <ele>117.98</ele>
        <time>2019-03-03T13:07:32Z</time>
      </trkpt>
      <trkpt lat="48.70241" lon="1.88983">
        <ele>118.93</ele>
        <time>2019-03-03T13:07:47Z</time>
      </trkpt>
      <trkpt lat="48.70246" lon="1.88977">
        <ele>117.93</ele>
        <time>2019-03-03T13:08:00Z</time>
      </trkpt>
      <trkpt lat="48.70254" lon="1.88983">
        <ele>118.32</ele>
        <time>2019-03-03T13:08:16Z</time>
      </trkpt>
      <trkpt lat="48.70259" lon="1.88984">
        <ele>117.65</ele>
        <time>2019-03-03T13:08:39Z</time>
      </trkpt>
      <trkpt lat="48.7026" lon="1.88984">
        <ele>117.62</ele>
        <time>2019-03-03T13:09:01Z</time>
      </trkpt>
      <trkpt lat="48.7026" lon="1.88985">
        <ele>118.81</ele>
        <time>2019-03-03T13:09:22Z</time>
      </trkpt>
      <trkpt lat="48.70262" lon="1.88983">
        <ele>118.14</ele>
        <time>2019-03-03T13:09:43Z</time>
      </trkpt>
      <trkpt lat="48.70262" lon="1.88986">
        <ele>118.22</ele>
        <time>2019-03-03T13:10:07Z</time>
      </trkpt>
      <trkpt lat="48.70264" lon="1.88982">
        <ele>118.16</ele>
        <time>2019-03-03T13:10:33Z</time>
      </trkpt>
      <trkpt lat="48.70263" lon="1.88976">
        <ele>117.12</ele>
        <time>2019-03-03T13:10:59Z</time>
      </trkpt>
      <trkpt lat="48.70257" lon="1.88985">
        <ele>117.3</ele>
        <time>2019-03-03T13:11:29Z</time>
      </trkpt>
      <trkpt lat="48.70257" lon="1.88991">
        <ele>116.33</ele>
        <time>2019-03-03T13:12:02Z</time>
      </trkpt>
      <trkpt lat="48.70261" lon="1.8899">
        <ele>117.29</ele>
        <time>2019-03-03T13:12:41Z</time>
      </trkpt>
      <trkpt lat="48.70255" lon="1.89">
        <ele>118.22</ele>
        <time>2019-03-03T13:12:58Z</time>
      </trkpt>
      <trkpt lat="48.70261" lon="1.88997">
        <ele>118.79</ele>
        <time>2019-03-03T13:13:16Z</time>
      </trkpt>
      <trkpt lat="48.70269" lon="1.88986">
        <ele>117.8</ele>
        <time>2019-03-03T13:13:32Z</time>
      </trkpt>
      <trkpt lat="48.70276" lon="1.88968">
        <ele>119.04</ele>
        <time>2019-03-03T13:13:51Z</time>
      </trkpt>
      <trkpt lat="48.70278" lon="1.88961">
        <ele>119.16</ele>
        <time>2019-03-03T13:13:58Z</time>
      </trkpt>
      <trkpt lat="48.70287" lon="1.88944">
        <ele>119.72</ele>
        <time>2019-03-03T13:14:09Z</time>
      </trkpt>
      <trkpt lat="48.703" lon="1.88921">
        <ele>120.06</ele>
        <time>2019-03-03T13:14:26Z</time>
      </trkpt>
      <trkpt lat="48.70314" lon="1.88905">
        <ele>119.59</ele>
        <time>2019-03-03T13:14:43Z</time>
      </trkpt>
      <trkpt lat="48.70327" lon="1.88878">
        <ele>120.1</ele>
        <time>2019-03-03T13:15:00Z</time>
      </trkpt>
      <trkpt lat="48.7033" lon="1.88874">
        <ele>120.81</ele>
        <time>2019-03-03T13:15:04Z</time>
      </trkpt>
      <trkpt lat="48.70338" lon="1.8887">
        <ele>120.9</ele>
        <time>2019-03-03T13:15:14Z</time>
      </trkpt>
      <trkpt lat="48.70345" lon="1.88865">
        <ele>121.54</ele>
        <time>2019-03-03T13:15:36Z</time>
      </trkpt>
      <trkpt lat="48.7035" lon="1.88858">
        <ele>120.41</ele>
        <time>2019-03-03T13:15:47Z</time>
      </trkpt>
      <trkpt lat="48.70363" lon="1.88845">
        <ele>121.57</ele>
        <time>2019-03-03T13:16:07Z</time>
      </trkpt>
      <trkpt lat="48.70373" lon="1.88822">
        <ele>122.27</ele>
        <time>2019-03-03T13:16:25Z</time>
      </trkpt>
      <trkpt lat="48.70389" lon="1.88789">
        <ele>122.4</ele>
        <time>2019-03-03T13:16:47Z</time>
      </trkpt>
      <trkpt lat="48.70394" lon="1.88759">
        <ele>122.45</ele>
        <time>2019-03-03T13:17:06Z</time>
      </trkpt>
      <trkpt lat="48.70394" lon="1.88755">
        <ele>122.85</ele>
        <time>2019-03-03T13:17:09Z</time>
      </trkpt>
      <trkpt lat="48.70395" lon="1.88731">
        <ele>121.95</ele>
        <time>2019-03-03T13:17:25Z</time>
      </trkpt>
      <trkpt lat="48.70392" lon="1.88703">
        <ele>120.95</ele>
        <time>2019-03-03T13:17:45Z</time>
      </trkpt>
      <trkpt lat="48.70396" lon="1.8867">
        <ele>120.61</ele>
        <time>2019-03-03T13:18:06Z</time>
      </trkpt>
      <trkpt lat="48.70398" lon="1.88635">
        <ele>120.23</ele>
        <time>2019-03-03T13:18:25Z</time>
      </trkpt>
      <trkpt lat="48.70395" lon="1.88599">
        <ele>119.69</ele>
        <time>2019-03-03T13:18:46Z</time>
      </trkpt>
      <trkpt lat="48.70398" lon="1.88576">
        <ele>121.96</ele>
        <time>2019-03-03T13:19:06Z</time>
      </trkpt>
      <trkpt lat="48.70395" lon="1.88572">
        <ele>121.9</ele>
        <time>2019-03-03T13:19:11Z</time>
      </trkpt>
      <trkpt lat="48.70393" lon="1.88553">
        <ele>122.61</ele>
        <time>2019-03-03T13:19:24Z</time>
      </trkpt>
      <trkpt lat="48.70382" lon="1.88545">
        <ele>121.89</ele>
        <time>2019-03-03T13:19:37Z</time>
      </trkpt>
      <trkpt lat="48.70369" lon="1.88551">
        <ele>122.1</ele>
        <time>2019-03-03T13:19:50Z</time>
      </trkpt>
      <trkpt lat="48.70365" lon="1.88549">
        <ele>123.24</ele>
        <time>2019-03-03T13:19:56Z</time>
      </trkpt>
      <trkpt lat="48.70361" lon="1.88549">
        <ele>122.68</ele>
        <time>2019-03-03T13:19:59Z</time>
      </trkpt>
      <trkpt lat="48.70354" lon="1.88548">
        <ele>123.14</ele>
        <time>2019-03-03T13:20:07Z</time>
      </trkpt>
      <trkpt lat="48.70333" lon="1.88546">
        <ele>123.68</ele>
        <time>2019-03-03T13:20:24Z</time>
      </trkpt>
      <trkpt lat="48.70317" lon="1.88544">
        <ele>124.68</ele>
        <time>2019-03-03T13:20:38Z</time>
      </trkpt>
      <trkpt lat="48.703" lon="1.88541">
        <ele>126.1</ele>
        <time>2019-03-03T13:20:52Z</time>
      </trkpt>
      <trkpt lat="48.70285" lon="1.8854">
        <ele>126.62</ele>
        <time>2019-03-03T13:21:07Z</time>
      </trkpt>
      <trkpt lat="48.7027" lon="1.88541">
        <ele>128.02</ele>
        <time>2019-03-03T13:21:25Z</time>
      </trkpt>
      <trkpt lat="48.70261" lon="1.88521">
        <ele>127.84</ele>
        <time>2019-03-03T13:21:42Z</time>
      </trkpt>
      <trkpt lat="48.70252" lon="1.88509">
        <ele>128.39</ele>
        <time>2019-03-03T13:21:57Z</time>
      </trkpt>
      <trkpt lat="48.70248" lon="1.88508">
        <ele>127.38</ele>
        <time>2019-03-03T13:22:12Z</time>
      </trkpt>
      <trkpt lat="48.70246" lon="1.88508">
        <ele>128.33</ele>
        <time>2019-03-03T13:22:43Z</time>
      </trkpt>
      <trkpt lat="48.70245" lon="1.88511">
        <ele>128.51</ele>
        <time>2019-03-03T13:23:08Z</time>
      </trkpt>
      <trkpt lat="48.70244" lon="1.88505">
        <ele>129.4</ele>
        <time>2019-03-03T13:23:23Z</time>
      </trkpt>
      <trkpt lat="48.70243" lon="1.88503">
        <ele>126.31</ele>
        <time>2019-03-03T13:23:28Z</time>
      </trkpt>
      <trkpt lat="48.70244" lon="1.88501">
        <ele>127.36</ele>
        <time>2019-03-03T13:23:29Z</time>
      </trkpt>
      <trkpt lat="48.70244" lon="1.885">
        <ele>127.5</ele>
        <time>2019-03-03T13:23:30Z</time>
      </trkpt>
      <trkpt lat="48.70243" lon="1.88487">
        <ele>127.36</ele>
        <time>2019-03-03T13:23:41Z</time>
      </trkpt>
      <trkpt lat="48.70241" lon="1.88484">
        <ele>127.86</ele>
        <time>2019-03-03T13:23:44Z</time>
      </trkpt>
      <trkpt lat="48.70236" lon="1.8849">
        <ele>127.6</ele>
        <time>2019-03-03T13:24:00Z</time>
      </trkpt>
      <trkpt lat="48.70226" lon="1.88497">
        <ele>128.44</ele>
        <time>2019-03-03T13:24:18Z</time>
      </trkpt>
      <trkpt lat="48.70215" lon="1.88492">
        <ele>128.79</ele>
        <time>2019-03-03T13:24:32Z</time>
      </trkpt>
      <trkpt lat="48.70202" lon="1.88483">
        <ele>128.45</ele>
        <time>2019-03-03T13:24:47Z</time>
      </trkpt>
      <trkpt lat="48.70187" lon="1.88471">
        <ele>128.49</ele>
        <time>2019-03-03T13:25:04Z</time>
      </trkpt>
      <trkpt lat="48.70176" lon="1.88467">
        <ele>128.95</ele>
        <time>2019-03-03T13:25:16Z</time>
      </trkpt>
      <trkpt lat="48.70158" lon="1.88454">
        <ele>129.42</ele>
        <time>2019-03-03T13:25:36Z</time>
      </trkpt>
      <trkpt lat="48.70144" lon="1.88448">
        <ele>129.36</ele>
        <time>2019-03-03T13:25:53Z</time>
      </trkpt>
      <trkpt lat="48.70139" lon="1.88444">
        <ele>129.7</ele>
        <time>2019-03-03T13:25:58Z</time>
      </trkpt>
      <trkpt lat="48.70132" lon="1.88437">
        <ele>129.9</ele>
        <time>2019-03-03T13:26:05Z</time>
      </trkpt>
      <trkpt lat="48.70127" lon="1.88434">
        <ele>130.31</ele>
        <time>2019-03-03T13:26:09Z</time>
      </trkpt>
      <trkpt lat="48.70112" lon="1.88439">
        <ele>129.75</ele>
        <time>2019-03-03T13:26:23Z</time>
      </trkpt>
      <trkpt lat="48.70096" lon="1.88448">
        <ele>129.38</ele>
        <time>2019-03-03T13:26:37Z</time>
      </trkpt>
      <trkpt lat="48.70094" lon="1.88444">
        <ele>129.93</ele>
        <time>2019-03-03T13:26:42Z</time>
      </trkpt>
      <trkpt lat="48.70088" lon="1.88426">
        <ele>128.84</ele>
        <time>2019-03-03T13:27:00Z</time>
      </trkpt>
      <trkpt lat="48.7008" lon="1.88407">
        <ele>127.64</ele>
        <time>2019-03-03T13:27:15Z</time>
      </trkpt>
      <trkpt lat="48.70072" lon="1.88384">
        <ele>127.3</ele>
        <time>2019-03-03T13:27:31Z</time>
      </trkpt>
      <trkpt lat="48.70067" lon="1.88364">
        <ele>126.45</ele>
        <time>2019-03-03T13:27:45Z</time>
      </trkpt>
      <trkpt lat="48.7006" lon="1.8834">
        <ele>125.77</ele>
        <time>2019-03-03T13:28:01Z</time>
      </trkpt>
      <trkpt lat="48.70056" lon="1.88314">
        <ele>125.37</ele>
        <time>2019-03-03T13:28:19Z</time>
      </trkpt>
      <trkpt lat="48.70052" lon="1.88289">
        <ele>124.94</ele>
        <time>2019-03-03T13:28:38Z</time>
      </trkpt>
      <trkpt lat="48.70048" lon="1.88259">
        <ele>123.29</ele>
        <time>2019-03-03T13:28:56Z</time>
      </trkpt>
      <trkpt lat="48.70042" lon="1.88232">
        <ele>123.69</ele>
        <time>2019-03-03T13:29:14Z</time>
      </trkpt>
      <trkpt lat="48.7004" lon="1.8822">
        <ele>122.06</ele>
        <time>2019-03-03T13:29:23Z</time>
      </trkpt>
      <trkpt lat="48.70034" lon="1.88211">
        <ele>124.18</ele>
        <time>2019-03-03T13:29:27Z</time>
      </trkpt>
      <trkpt lat="48.70027" lon="1.88188">
        <ele>123.92</ele>
        <time>2019-03-03T13:29:40Z</time>
      </trkpt>
      <trkpt lat="48.70027" lon="1.88187">
        <ele>122.79</ele>
        <time>2019-03-03T13:29:42Z</time>
      </trkpt>
      <trkpt lat="48.70023" lon="1.88174">
        <ele>123.19</ele>
        <time>2019-03-03T13:29:49Z</time>
      </trkpt>
      <trkpt lat="48.70016" lon="1.88159">
        <ele>122.9</ele>
        <time>2019-03-03T13:30:02Z</time>
      </trkpt>
      <trkpt lat="48.69998" lon="1.8815">
        <ele>122.98</ele>
        <time>2019-03-03T13:30:19Z</time>
      </trkpt>
      <trkpt lat="48.69989" lon="1.88143">
        <ele>123.41</ele>
        <time>2019-03-03T13:30:31Z</time>
      </trkpt>
      <trkpt lat="48.69972" lon="1.88137">
        <ele>122.95</ele>
        <time>2019-03-03T13:30:43Z</time>
      </trkpt>
      <trkpt lat="48.69967" lon="1.88132">
        <ele>123.68</ele>
        <time>2019-03-03T13:30:48Z</time>
      </trkpt>
      <trkpt lat="48.69948" lon="1.88119">
        <ele>122.47</ele>
        <time>2019-03-03T13:31:03Z</time>
      </trkpt>
      <trkpt lat="48.69941" lon="1.88113">
        <ele>124.89</ele>
        <time>2019-03-03T13:31:09Z</time>
      </trkpt>
      <trkpt lat="48.69925" lon="1.88097">
        <ele>124.29</ele>
        <time>2019-03-03T13:31:25Z</time>
      </trkpt>
      <trkpt lat="48.69914" lon="1.88078">
        <ele>124.97</ele>
        <time>2019-03-03T13:31:39Z</time>
      </trkpt>
      <trkpt lat="48.69904" lon="1.88053">
        <ele>123.88</ele>
        <time>2019-03-03T13:31:56Z</time>
      </trkpt>
      <trkpt lat="48.69893" lon="1.88033">
        <ele>126.03</ele>
        <time>2019-03-03T13:32:11Z</time>
      </trkpt>
      <trkpt lat="48.69887" lon="1.88019">
        <ele>125.87</ele>
        <time>2019-03-03T13:32:23Z</time>
      </trkpt>
      <trkpt lat="48.6988" lon="1.88003">
        <ele>124.46</ele>
        <time>2019-03-03T13:32:37Z</time>
      </trkpt>
      <trkpt lat="48.69866" lon="1.87988">
        <ele>126.22</ele>
        <time>2019-03-03T13:32:56Z</time>
      </trkpt>
      <trkpt lat="48.69855" lon="1.87971">
        <ele>126.97</ele>
        <time>2019-03-03T13:33:17Z</time>
      </trkpt>
      <trkpt lat="48.69848" lon="1.87937">
        <ele>126.35</ele>
        <time>2019-03-03T13:33:32Z</time>
      </trkpt>
      <trkpt lat="48.69843" lon="1.87922">
        <ele>126.71</ele>
        <time>2019-03-03T13:33:41Z</time>
      </trkpt>
      <trkpt lat="48.69836" lon="1.87896">
        <ele>127.41</ele>
        <time>2019-03-03T13:33:57Z</time>
      </trkpt>
      <trkpt lat="48.69833" lon="1.87866">
        <ele>128.49</ele>
        <time>2019-03-03T13:34:17Z</time>
      </trkpt>
      <trkpt lat="48.69827" lon="1.87831">
        <ele>127.92</ele>
        <time>2019-03-03T13:34:38Z</time>
      </trkpt>
      <trkpt lat="48.69824" lon="1.87795">
        <ele>128.02</ele>
        <time>2019-03-03T13:34:58Z</time>
      </trkpt>
      <trkpt lat="48.69812" lon="1.87762">
        <ele>127.64</ele>
        <time>2019-03-03T13:35:18Z</time>
      </trkpt>
      <trkpt lat="48.69807" lon="1.87737">
        <ele>128.45</ele>
        <time>2019-03-03T13:35:35Z</time>
      </trkpt>
      <trkpt lat="48.69798" lon="1.87709">
        <ele>128.97</ele>
        <time>2019-03-03T13:35:53Z</time>
      </trkpt>
      <trkpt lat="48.69788" lon="1.87691">
        <ele>129.96</ele>
        <time>2019-03-03T13:36:07Z</time>
      </trkpt>
      <trkpt lat="48.69791" lon="1.8767">
        <ele>128.45</ele>
        <time>2019-03-03T13:36:20Z</time>
      </trkpt>
      <trkpt lat="48.69786" lon="1.87658">
        <ele>128.22</ele>
        <time>2019-03-03T13:36:29Z</time>
      </trkpt>
      <trkpt lat="48.69782" lon="1.87652">
        <ele>129.07</ele>
        <time>2019-03-03T13:36:32Z</time>
      </trkpt>
      <trkpt lat="48.69779" lon="1.87644">
        <ele>127.27</ele>
        <time>2019-03-03T13:36:38Z</time>
      </trkpt>
      <trkpt lat="48.69776" lon="1.87628">
        <ele>126.82</ele>
        <time>2019-03-03T13:36:49Z</time>
      </trkpt>
      <trkpt lat="48.69773" lon="1.87623">
        <ele>128.74</ele>
        <time>2019-03-03T13:36:54Z</time>
      </trkpt>
      <trkpt lat="48.69775" lon="1.87592">
        <ele>129.35</ele>
        <time>2019-03-03T13:37:15Z</time>
      </trkpt>
      <trkpt lat="48.69764" lon="1.87573">
        <ele>127.61</ele>
        <time>2019-03-03T13:37:36Z</time>
      </trkpt>
      <trkpt lat="48.69763" lon="1.87572">
        <ele>128.92</ele>
        <time>2019-03-03T13:37:38Z</time>
      </trkpt>
      <trkpt lat="48.69745" lon="1.87545">
        <ele>129.52</ele>
        <time>2019-03-03T13:37:58Z</time>
      </trkpt>
      <trkpt lat="48.69733" lon="1.87518">
        <ele>130.46</ele>
        <time>2019-03-03T13:38:18Z</time>
      </trkpt>
      <trkpt lat="48.69728" lon="1.87513">
        <ele>130.37</ele>
        <time>2019-03-03T13:38:20Z</time>
      </trkpt>
      <trkpt lat="48.69721" lon="1.87477">
        <ele>130.67</ele>
        <time>2019-03-03T13:38:38Z</time>
      </trkpt>
      <trkpt lat="48.69712" lon="1.8745">
        <ele>130.63</ele>
        <time>2019-03-03T13:38:54Z</time>
      </trkpt>
      <trkpt lat="48.69698" lon="1.87421">
        <ele>129.35</ele>
        <time>2019-03-03T13:39:14Z</time>
      </trkpt>
      <trkpt lat="48.69689" lon="1.87398">
        <ele>130.73</ele>
        <time>2019-03-03T13:39:30Z</time>
      </trkpt>
      <trkpt lat="48.69694" lon="1.87369">
        <ele>130.08</ele>
        <time>2019-03-03T13:39:48Z</time>
      </trkpt>
      <trkpt lat="48.6969" lon="1.87339">
        <ele>131.25</ele>
        <time>2019-03-03T13:40:09Z</time>
      </trkpt>
      <trkpt lat="48.69682" lon="1.8732">
        <ele>132.07</ele>
        <time>2019-03-03T13:40:20Z</time>
      </trkpt>
      <trkpt lat="48.69679" lon="1.87313">
        <ele>130.99</ele>
        <time>2019-03-03T13:40:26Z</time>
      </trkpt>
      <trkpt lat="48.69681" lon="1.87285">
        <ele>131.04</ele>
        <time>2019-03-03T13:40:47Z</time>
      </trkpt>
      <trkpt lat="48.69679" lon="1.8728">
        <ele>131.91</ele>
        <time>2019-03-03T13:41:00Z</time>
      </trkpt>
      <trkpt lat="48.69685" lon="1.87276">
        <ele>131.05</ele>
        <time>2019-03-03T13:41:09Z</time>
      </trkpt>
      <trkpt lat="48.69689" lon="1.87273">
        <ele>131.1</ele>
        <time>2019-03-03T13:41:30Z</time>
      </trkpt>
      <trkpt lat="48.69689" lon="1.87275">
        <ele>131.19</ele>
        <time>2019-03-03T13:42:00Z</time>
      </trkpt>
      <trkpt lat="48.6969" lon="1.87275">
        <ele>131.07</ele>
        <time>2019-03-03T13:42:28Z</time>
      </trkpt>
      <trkpt lat="48.69691" lon="1.87272">
        <ele>131.75</ele>
        <time>2019-03-03T13:42:50Z</time>
      </trkpt>
      <trkpt lat="48.69691" lon="1.87268">
        <ele>131.55</ele>
        <time>2019-03-03T13:43:23Z</time>
      </trkpt>
      <trkpt lat="48.69692" lon="1.87269">
        <ele>132.44</ele>
        <time>2019-03-03T13:43:48Z</time>
      </trkpt>
      <trkpt lat="48.69691" lon="1.87262">
        <ele>132.82</ele>
        <time>2019-03-03T13:44:17Z</time>
      </trkpt>
      <trkpt lat="48.69682" lon="1.87247">
        <ele>132.94</ele>
        <time>2019-03-03T13:44:36Z</time>
      </trkpt>
      <trkpt lat="48.69674" lon="1.87231">
        <ele>133.56</ele>
        <time>2019-03-03T13:44:53Z</time>
      </trkpt>
      <trkpt lat="48.69665" lon="1.87206">
        <ele>133.47</ele>
        <time>2019-03-03T13:45:10Z</time>
      </trkpt>
      <trkpt lat="48.69659" lon="1.87187">
        <ele>134.23</ele>
        <time>2019-03-03T13:45:28Z</time>
      </trkpt>
      <trkpt lat="48.69655" lon="1.87168">
        <ele>134.54</ele>
        <time>2019-03-03T13:45:42Z</time>
      </trkpt>
      <trkpt lat="48.69648" lon="1.87142">
        <ele>135.07</ele>
        <time>2019-03-03T13:45:58Z</time>
      </trkpt>
      <trkpt lat="48.69641" lon="1.87112">
        <ele>133.3</ele>
        <time>2019-03-03T13:46:18Z</time>
      </trkpt>
      <trkpt lat="48.69627" lon="1.8709">
        <ele>134.35</ele>
        <time>2019-03-03T13:46:38Z</time>
      </trkpt>
      <trkpt lat="48.69617" lon="1.87076">
        <ele>135.76</ele>
        <time>2019-03-03T13:46:53Z</time>
      </trkpt>
      <trkpt lat="48.69609" lon="1.87069">
        <ele>135.33</ele>
        <time>2019-03-03T13:47:03Z</time>
      </trkpt>
      <trkpt lat="48.69597" lon="1.87058">
        <ele>135.81</ele>
        <time>2019-03-03T13:47:17Z</time>
      </trkpt>
      <trkpt lat="48.69584" lon="1.87042">
        <ele>135.84</ele>
        <time>2019-03-03T13:47:32Z</time>
      </trkpt>
      <trkpt lat="48.69579" lon="1.87039">
        <ele>134.97</ele>
        <time>2019-03-03T13:47:36Z</time>
      </trkpt>
      <trkpt lat="48.69577" lon="1.87037">
        <ele>135.7</ele>
        <time>2019-03-03T13:47:38Z</time>
      </trkpt>
      <trkpt lat="48.69562" lon="1.87017">
        <ele>136.15</ele>
        <time>2019-03-03T13:47:55Z</time>
      </trkpt>
      <trkpt lat="48.69553" lon="1.87012">
        <ele>135.74</ele>
        <time>2019-03-03T13:48:05Z</time>
      </trkpt>
      <trkpt lat="48.6955" lon="1.87008">
        <ele>136.73</ele>
        <time>2019-03-03T13:48:08Z</time>
      </trkpt>
      <trkpt lat="48.69546" lon="1.87001">
        <ele>136.45</ele>
        <time>2019-03-03T13:48:13Z</time>
      </trkpt>
      <trkpt lat="48.69542" lon="1.86999">
        <ele>136.38</ele>
        <time>2019-03-03T13:48:16Z</time>
      </trkpt>
      <trkpt lat="48.69534" lon="1.8699">
        <ele>135.99</ele>
        <time>2019-03-03T13:48:30Z</time>
      </trkpt>
      <trkpt lat="48.69521" lon="1.86984">
        <ele>137.04</ele>
        <time>2019-03-03T13:48:46Z</time>
      </trkpt>
      <trkpt lat="48.69514" lon="1.86981">
        <ele>137.85</ele>
        <time>2019-03-03T13:48:53Z</time>
      </trkpt>
      <trkpt lat="48.69501" lon="1.86974">
        <ele>138.23</ele>
        <time>2019-03-03T13:49:08Z</time>
      </trkpt>
      <trkpt lat="48.69487" lon="1.86951">
        <ele>138.1</ele>
        <time>2019-03-03T13:49:28Z</time>
      </trkpt>
      <trkpt lat="48.69478" lon="1.86925">
        <ele>138.16</ele>
        <time>2019-03-03T13:49:41Z</time>
      </trkpt>
      <trkpt lat="48.69469" lon="1.86902">
        <ele>138.18</ele>
        <time>2019-03-03T13:49:58Z</time>
      </trkpt>
      <trkpt lat="48.69466" lon="1.86882">
        <ele>139.14</ele>
        <time>2019-03-03T13:50:12Z</time>
      </trkpt>
      <trkpt lat="48.69455" lon="1.86858">
        <ele>140.46</ele>
        <time>2019-03-03T13:50:29Z</time>
      </trkpt>
      <trkpt lat="48.69448" lon="1.86834">
        <ele>141.57</ele>
        <time>2019-03-03T13:50:45Z</time>
      </trkpt>
      <trkpt lat="48.69445" lon="1.86831">
        <ele>141.38</ele>
        <time>2019-03-03T13:50:47Z</time>
      </trkpt>
      <trkpt lat="48.6943" lon="1.868">
        <ele>143.59</ele>
        <time>2019-03-03T13:51:02Z</time>
      </trkpt>
      <trkpt lat="48.6942" lon="1.86776">
        <ele>145.33</ele>
        <time>2019-03-03T13:51:23Z</time>
      </trkpt>
      <trkpt lat="48.69409" lon="1.86763">
        <ele>145.79</ele>
        <time>2019-03-03T13:51:43Z</time>
      </trkpt>
      <trkpt lat="48.69412" lon="1.86745">
        <ele>145.65</ele>
        <time>2019-03-03T13:51:58Z</time>
      </trkpt>
      <trkpt lat="48.69421" lon="1.86727">
        <ele>145.69</ele>
        <time>2019-03-03T13:52:15Z</time>
      </trkpt>
      <trkpt lat="48.69423" lon="1.86718">
        <ele>145.35</ele>
        <time>2019-03-03T13:52:22Z</time>
      </trkpt>
      <trkpt lat="48.6943" lon="1.86685">
        <ele>145.59</ele>
        <time>2019-03-03T13:52:41Z</time>
      </trkpt>
      <trkpt lat="48.69435" lon="1.86662">
        <ele>146.1</ele>
        <time>2019-03-03T13:52:56Z</time>
      </trkpt>
      <trkpt lat="48.69439" lon="1.86642">
        <ele>145.99</ele>
        <time>2019-03-03T13:53:11Z</time>
      </trkpt>
      <trkpt lat="48.69446" lon="1.86615">
        <ele>146.65</ele>
        <time>2019-03-03T13:53:29Z</time>
      </trkpt>
      <trkpt lat="48.69447" lon="1.86614">
        <ele>146.46</ele>
        <time>2019-03-03T13:53:30Z</time>
      </trkpt>
      <trkpt lat="48.69459" lon="1.8659">
        <ele>146.02</ele>
        <time>2019-03-03T13:53:46Z</time>
      </trkpt>
      <trkpt lat="48.69465" lon="1.86576">
        <ele>146.5</ele>
        <time>2019-03-03T13:53:56Z</time>
      </trkpt>
      <trkpt lat="48.69474" lon="1.86557">
        <ele>145.74</ele>
        <time>2019-03-03T13:54:09Z</time>
      </trkpt>
      <trkpt lat="48.69481" lon="1.86542">
        <ele>145.87</ele>
        <time>2019-03-03T13:54:19Z</time>
      </trkpt>
      <trkpt lat="48.6949" lon="1.86523">
        <ele>147.16</ele>
        <time>2019-03-03T13:54:34Z</time>
      </trkpt>
      <trkpt lat="48.69497" lon="1.86522">
        <ele>147.16</ele>
        <time>2019-03-03T13:54:48Z</time>
      </trkpt>
      <trkpt lat="48.69505" lon="1.86524">
        <ele>147.54</ele>
        <time>2019-03-03T13:55:05Z</time>
      </trkpt>
      <trkpt lat="48.69515" lon="1.86528">
        <ele>146.9</ele>
        <time>2019-03-03T13:55:15Z</time>
      </trkpt>
      <trkpt lat="48.69529" lon="1.86532">
        <ele>146.52</ele>
        <time>2019-03-03T13:55:30Z</time>
      </trkpt>
      <trkpt lat="48.69543" lon="1.8653">
        <ele>146.76</ele>
        <time>2019-03-03T13:55:44Z</time>
      </trkpt>
      <trkpt lat="48.69544" lon="1.86527">
        <ele>147.86</ele>
        <time>2019-03-03T13:56:02Z</time>
      </trkpt>
      <trkpt lat="48.69545" lon="1.86528">
        <ele>148.2</ele>
        <time>2019-03-03T13:56:33Z</time>
      </trkpt>
      <trkpt lat="48.69545" lon="1.86529">
        <ele>148.43</ele>
        <time>2019-03-03T13:56:52Z</time>
      </trkpt>
      <trkpt lat="48.69543" lon="1.8653">
        <ele>148.49</ele>
        <time>2019-03-03T13:57:19Z</time>
      </trkpt>
      <trkpt lat="48.69543" lon="1.8653">
        <ele>148.72</ele>
        <time>2019-03-03T13:57:49Z</time>
      </trkpt>
      <trkpt lat="48.69543" lon="1.86528">
        <ele>148.79</ele>
        <time>2019-03-03T13:58:17Z</time>
      </trkpt>
      <trkpt lat="48.69543" lon="1.86529">
        <ele>147.49</ele>
        <time>2019-03-03T13:58:43Z</time>
      </trkpt>
      <trkpt lat="48.69545" lon="1.86528">
        <ele>148.87</ele>
        <time>2019-03-03T13:58:59Z</time>
      </trkpt>
      <trkpt lat="48.6955" lon="1.86526">
        <ele>148.83</ele>
        <time>2019-03-03T13:59:04Z</time>
      </trkpt>
      <trkpt lat="48.69559" lon="1.86525">
        <ele>149.01</ele>
        <time>2019-03-03T13:59:15Z</time>
      </trkpt>
      <trkpt lat="48.6956" lon="1.86525">
        <ele>150.47</ele>
        <time>2019-03-03T13:59:16Z</time>
      </trkpt>
      <trkpt lat="48.69562" lon="1.86526">
        <ele>151.98</ele>
        <time>2019-03-03T13:59:18Z</time>
      </trkpt>
      <trkpt lat="48.69563" lon="1.86526">
        <ele>151.14</ele>
        <time>2019-03-03T13:59:19Z</time>
      </trkpt>
      <trkpt lat="48.69565" lon="1.86526">
        <ele>150.51</ele>
        <time>2019-03-03T13:59:21Z</time>
      </trkpt>
      <trkpt lat="48.69579" lon="1.8653">
        <ele>152.16</ele>
        <time>2019-03-03T13:59:33Z</time>
      </trkpt>
      <trkpt lat="48.69592" lon="1.86528">
        <ele>153.32</ele>
        <time>2019-03-03T13:59:50Z</time>
      </trkpt>
      <trkpt lat="48.69594" lon="1.86528">
        <ele>152.01</ele>
        <time>2019-03-03T14:00:00Z</time>
      </trkpt>
      <trkpt lat="48.69593" lon="1.86508">
        <ele>153.41</ele>
        <time>2019-03-03T14:00:16Z</time>
      </trkpt>
      <trkpt lat="48.69593" lon="1.86497">
        <ele>153.39</ele>
        <time>2019-03-03T14:00:25Z</time>
      </trkpt>
      <trkpt lat="48.69596" lon="1.8649">
        <ele>152.68</ele>
        <time>2019-03-03T14:00:41Z</time>
      </trkpt>
      <trkpt lat="48.69598" lon="1.86483">
        <ele>152.13</ele>
        <time>2019-03-03T14:00:54Z</time>
      </trkpt>
      <trkpt lat="48.69599" lon="1.86481">
        <ele>152.66</ele>
        <time>2019-03-03T14:00:55Z</time>
      </trkpt>
      <trkpt lat="48.69601" lon="1.86479">
        <ele>153.27</ele>
        <time>2019-03-03T14:00:58Z</time>
      </trkpt>
      <trkpt lat="48.69604" lon="1.86475">
        <ele>153.66</ele>
        <time>2019-03-03T14:01:16Z</time>
      </trkpt>
      <trkpt lat="48.69604" lon="1.86467">
        <ele>154.35</ele>
        <time>2019-03-03T14:01:28Z</time>
      </trkpt>
      <trkpt lat="48.69604" lon="1.86461">
        <ele>153.74</ele>
        <time>2019-03-03T14:01:32Z</time>
      </trkpt>
      <trkpt lat="48.69606" lon="1.86448">
        <ele>153.55</ele>
        <time>2019-03-03T14:01:43Z</time>
      </trkpt>
      <trkpt lat="48.69612" lon="1.86422">
        <ele>152.84</ele>
        <time>2019-03-03T14:01:59Z</time>
      </trkpt>
      <trkpt lat="48.69618" lon="1.86398">
        <ele>152.74</ele>
        <time>2019-03-03T14:02:14Z</time>
      </trkpt>
      <trkpt lat="48.69619" lon="1.86397">
        <ele>153.78</ele>
        <time>2019-03-03T14:02:15Z</time>
      </trkpt>
      <trkpt lat="48.69623" lon="1.86377">
        <ele>156.11</ele>
        <time>2019-03-03T14:02:30Z</time>
      </trkpt>
      <trkpt lat="48.6963" lon="1.86352">
        <ele>153.67</ele>
        <time>2019-03-03T14:02:46Z</time>
      </trkpt>
      <trkpt lat="48.69632" lon="1.86344">
        <ele>152.38</ele>
        <time>2019-03-03T14:02:52Z</time>
      </trkpt>
      <trkpt lat="48.69635" lon="1.86332">
        <ele>152.4</ele>
        <time>2019-03-03T14:03:01Z</time>
      </trkpt>
      <trkpt lat="48.69643" lon="1.86309">
        <ele>152.9</ele>
        <time>2019-03-03T14:03:17Z</time>
      </trkpt>
      <trkpt lat="48.69648" lon="1.86295">
        <ele>153.66</ele>
        <time>2019-03-03T14:03:26Z</time>
      </trkpt>
      <trkpt lat="48.69655" lon="1.86258">
        <ele>152.26</ele>
        <time>2019-03-03T14:03:49Z</time>
      </trkpt>
      <trkpt lat="48.69655" lon="1.86254">
        <ele>155.44</ele>
        <time>2019-03-03T14:03:53Z</time>
      </trkpt>
      <trkpt lat="48.69657" lon="1.8624">
        <ele>154.69</ele>
        <time>2019-03-03T14:04:06Z</time>
      </trkpt>
      <trkpt lat="48.69662" lon="1.8622">
        <ele>154.65</ele>
        <time>2019-03-03T14:04:18Z</time>
      </trkpt>
      <trkpt lat="48.69666" lon="1.86195">
        <ele>153.87</ele>
        <time>2019-03-03T14:04:35Z</time>
      </trkpt>
      <trkpt lat="48.69668" lon="1.86174">
        <ele>155.22</ele>
        <time>2019-03-03T14:04:49Z</time>
      </trkpt>
      <trkpt lat="48.69669" lon="1.86153">
        <ele>154.34</ele>
        <time>2019-03-03T14:05:03Z</time>
      </trkpt>
      <trkpt lat="48.69673" lon="1.86134">
        <ele>155.71</ele>
        <time>2019-03-03T14:05:14Z</time>
      </trkpt>
      <trkpt lat="48.69674" lon="1.86127">
        <ele>154.74</ele>
        <time>2019-03-03T14:05:19Z</time>
      </trkpt>
      <trkpt lat="48.6968" lon="1.86102">
        <ele>155.88</ele>
        <time>2019-03-03T14:05:34Z</time>
      </trkpt>
      <trkpt lat="48.69685" lon="1.86078">
        <ele>154.46</ele>
        <time>2019-03-03T14:05:50Z</time>
      </trkpt>
      <trkpt lat="48.69685" lon="1.86076">
        <ele>153.7</ele>
        <time>2019-03-03T14:06:02Z</time>
      </trkpt>
      <trkpt lat="48.69685" lon="1.86076">
        <ele>154.34</ele>
        <time>2019-03-03T14:06:06Z</time>
      </trkpt>
      <trkpt lat="48.69686" lon="1.86072">
        <ele>155.78</ele>
        <time>2019-03-03T14:06:25Z</time>
      </trkpt>
      <trkpt lat="48.6969" lon="1.86061">
        <ele>153.21</ele>
        <time>2019-03-03T14:06:36Z</time>
      </trkpt>
      <trkpt lat="48.6969" lon="1.86059">
        <ele>154.22</ele>
        <time>2019-03-03T14:06:37Z</time>
      </trkpt>
      <trkpt lat="48.6969" lon="1.86057">
        <ele>155.38</ele>
        <time>2019-03-03T14:06:38Z</time>
      </trkpt>
      <trkpt lat="48.69692" lon="1.86051">
        <ele>156.24</ele>
        <time>2019-03-03T14:06:42Z</time>
      </trkpt>
      <trkpt lat="48.69695" lon="1.86033">
        <ele>155.76</ele>
        <time>2019-03-03T14:06:56Z</time>
      </trkpt>
      <trkpt lat="48.69699" lon="1.86004">
        <ele>155.73</ele>
        <time>2019-03-03T14:07:13Z</time>
      </trkpt>
      <trkpt lat="48.69701" lon="1.85994">
        <ele>156.56</ele>
        <time>2019-03-03T14:07:23Z</time>
      </trkpt>
      <trkpt lat="48.69704" lon="1.85969">
        <ele>156.92</ele>
        <time>2019-03-03T14:07:38Z</time>
      </trkpt>
      <trkpt lat="48.69704" lon="1.85966">
        <ele>156.58</ele>
        <time>2019-03-03T14:07:40Z</time>
      </trkpt>
      <trkpt lat="48.69703" lon="1.85951">
        <ele>154.55</ele>
        <time>2019-03-03T14:07:49Z</time>
      </trkpt>
      <trkpt lat="48.69702" lon="1.85947">
        <ele>156.13</ele>
        <time>2019-03-03T14:07:51Z</time>
      </trkpt>
      <trkpt lat="48.697" lon="1.85931">
        <ele>156.72</ele>
        <time>2019-03-03T14:08:04Z</time>
      </trkpt>
      <trkpt lat="48.69699" lon="1.85922">
        <ele>157.27</ele>
        <time>2019-03-03T14:08:09Z</time>
      </trkpt>
      <trkpt lat="48.69701" lon="1.85903">
        <ele>158.09</ele>
        <time>2019-03-03T14:08:20Z</time>
      </trkpt>
      <trkpt lat="48.69703" lon="1.85894">
        <ele>158.19</ele>
        <time>2019-03-03T14:08:26Z</time>
      </trkpt>
      <trkpt lat="48.6971" lon="1.8587">
        <ele>158.23</ele>
        <time>2019-03-03T14:08:42Z</time>
      </trkpt>
      <trkpt lat="48.6971" lon="1.85864">
        <ele>158.85</ele>
        <time>2019-03-03T14:09:01Z</time>
      </trkpt>
      <trkpt lat="48.69708" lon="1.85861">
        <ele>159.52</ele>
        <time>2019-03-03T14:09:17Z</time>
      </trkpt>
      <trkpt lat="48.69706" lon="1.85857">
        <ele>159.23</ele>
        <time>2019-03-03T14:09:32Z</time>
      </trkpt>
      <trkpt lat="48.69704" lon="1.85855">
        <ele>158.35</ele>
        <time>2019-03-03T14:09:47Z</time>
      </trkpt>
      <trkpt lat="48.69704" lon="1.85855">
        <ele>160.26</ele>
        <time>2019-03-03T14:09:51Z</time>
      </trkpt>
      <trkpt lat="48.69702" lon="1.85855">
        <ele>160.05</ele>
        <time>2019-03-03T14:10:29Z</time>
      </trkpt>
      <trkpt lat="48.6971" lon="1.85859">
        <ele>159.96</ele>
        <time>2019-03-03T14:10:45Z</time>
      </trkpt>
      <trkpt lat="48.69711" lon="1.85859">
        <ele>160.54</ele>
        <time>2019-03-03T14:11:00Z</time>
      </trkpt>
      <trkpt lat="48.6971" lon="1.85859">
        <ele>160.33</ele>
        <time>2019-03-03T14:11:02Z</time>
      </trkpt>
      <trkpt lat="48.69705" lon="1.85857">
        <ele>159.4</ele>
        <time>2019-03-03T14:11:06Z</time>
      </trkpt>
      <trkpt lat="48.69692" lon="1.85846">
        <ele>158.31</ele>
        <time>2019-03-03T14:11:20Z</time>
      </trkpt>
      <trkpt lat="48.6967" lon="1.85833">
        <ele>159.61</ele>
        <time>2019-03-03T14:11:40Z</time>
      </trkpt>
      <trkpt lat="48.69649" lon="1.85822">
        <ele>160.11</ele>
        <time>2019-03-03T14:12:00Z</time>
      </trkpt>
      <trkpt lat="48.69631" lon="1.85812">
        <ele>160.98</ele>
        <time>2019-03-03T14:12:17Z</time>
      </trkpt>
      <trkpt lat="48.6961" lon="1.85801">
        <ele>160.64</ele>
        <time>2019-03-03T14:12:36Z</time>
      </trkpt>
      <trkpt lat="48.69598" lon="1.85794">
        <ele>158.58</ele>
        <time>2019-03-03T14:12:46Z</time>
      </trkpt>
      <trkpt lat="48.69595" lon="1.85792">
        <ele>160.22</ele>
        <time>2019-03-03T14:12:48Z</time>
      </trkpt>
      <trkpt lat="48.69585" lon="1.85788">
        <ele>159.49</ele>
        <time>2019-03-03T14:12:57Z</time>
      </trkpt>
      <trkpt lat="48.69574" lon="1.85783">
        <ele>160.49</ele>
        <time>2019-03-03T14:13:06Z</time>
      </trkpt>
      <trkpt lat="48.69569" lon="1.85781">
        <ele>162.24</ele>
        <time>2019-03-03T14:13:11Z</time>
      </trkpt>
      <trkpt lat="48.69556" lon="1.85774">
        <ele>158.58</ele>
        <time>2019-03-03T14:13:23Z</time>
      </trkpt>
      <trkpt lat="48.69555" lon="1.85773">
        <ele>158.64</ele>
        <time>2019-03-03T14:13:24Z</time>
      </trkpt>
      <trkpt lat="48.69533" lon="1.85763">
        <ele>159.75</ele>
        <time>2019-03-03T14:13:43Z</time>
      </trkpt>
      <trkpt lat="48.69527" lon="1.85758">
        <ele>160.62</ele>
        <time>2019-03-03T14:13:49Z</time>
      </trkpt>
      <trkpt lat="48.69512" lon="1.85753">
        <ele>161.32</ele>
        <time>2019-03-03T14:14:03Z</time>
      </trkpt>
      <trkpt lat="48.69497" lon="1.85745">
        <ele>161.11</ele>
        <time>2019-03-03T14:14:17Z</time>
      </trkpt>
      <trkpt lat="48.6949" lon="1.85743">
        <ele>160.98</ele>
        <time>2019-03-03T14:14:23Z</time>
      </trkpt>
      <trkpt lat="48.69478" lon="1.85738">
        <ele>160.75</ele>
        <time>2019-03-03T14:14:34Z</time>
      </trkpt>
      <trkpt lat="48.6946" lon="1.85734">
        <ele>161.17</ele>
        <time>2019-03-03T14:14:49Z</time>
      </trkpt>
      <trkpt lat="48.6944" lon="1.85723">
        <ele>162.21</ele>
        <time>2019-03-03T14:15:07Z</time>
      </trkpt>
      <trkpt lat="48.69433" lon="1.85719">
        <ele>161.37</ele>
        <time>2019-03-03T14:15:17Z</time>
      </trkpt>
      <trkpt lat="48.69424" lon="1.85716">
        <ele>161.47</ele>
        <time>2019-03-03T14:15:28Z</time>
      </trkpt>
      <trkpt lat="48.69417" lon="1.85715">
        <ele>161.96</ele>
        <time>2019-03-03T14:15:35Z</time>
      </trkpt>
      <trkpt lat="48.694" lon="1.85712">
        <ele>160.79</ele>
        <time>2019-03-03T14:15:51Z</time>
      </trkpt>
      <trkpt lat="48.69383" lon="1.85704">
        <ele>161.96</ele>
        <time>2019-03-03T14:16:07Z</time>
      </trkpt>
      <trkpt lat="48.69373" lon="1.85698">
        <ele>161.71</ele>
        <time>2019-03-03T14:16:22Z</time>
      </trkpt>
      <trkpt lat="48.6936" lon="1.85692">
        <ele>159.61</ele>
        <time>2019-03-03T14:16:39Z</time>
      </trkpt>
      <trkpt lat="48.69351" lon="1.85689">
        <ele>158.2</ele>
        <time>2019-03-03T14:16:49Z</time>
      </trkpt>
      <trkpt lat="48.69338" lon="1.8569">
        <ele>156.85</ele>
        <time>2019-03-03T14:17:54Z</time>
      </trkpt>
      <trkpt lat="48.69365" lon="1.85649">
        <ele>158.53</ele>
        <time>2019-03-03T14:18:15Z</time>
      </trkpt>
      <trkpt lat="48.69367" lon="1.8565">
        <ele>159.87</ele>
        <time>2019-03-03T14:18:18Z</time>
      </trkpt>
      <trkpt lat="48.69382" lon="1.85655">
        <ele>161.03</ele>
        <time>2019-03-03T14:18:36Z</time>
      </trkpt>
      <trkpt lat="48.69383" lon="1.85654">
        <ele>160.72</ele>
        <time>2019-03-03T14:18:37Z</time>
      </trkpt>
      <trkpt lat="48.69373" lon="1.85639">
        <ele>161.14</ele>
        <time>2019-03-03T14:18:51Z</time>
      </trkpt>
      <trkpt lat="48.69363" lon="1.85635">
        <ele>160.78</ele>
        <time>2019-03-03T14:19:05Z</time>
      </trkpt>
      <trkpt lat="48.69355" lon="1.85633">
        <ele>161.01</ele>
        <time>2019-03-03T14:19:20Z</time>
      </trkpt>
      <trkpt lat="48.69354" lon="1.8563">
        <ele>160.71</ele>
        <time>2019-03-03T14:19:44Z</time>
      </trkpt>
    </trkseg>
  </trk>
</gpx>